<?xml version="1.0" encoding="UTF-8" standalone="no" ?>
<gpx xmlns="http://www.topografix.com/GPX/1/1" xmlns:xsi="http://www.w3.org/2001/XMLSchema-instance" xsi:schemaLocation="http://www.topografix.com/GPX/1/1 http://www.topografix.com/GPX/1/1/gpx.xsd" version="1.1" creator="VisuGPX - https://www.visugpx.com">
  <metadata>
    <name>Autour de Simorre</name>
    <desc><![CDATA[La rando suit la Lauze jusqu'à Sémézies-Cachan puis passe près de St Elix (La Tornade). Le retour à Simorre longe la Gimone.]]></desc>
  </metadata>
  <trk>
    <name><![CDATA[2016-10-21 16:40:56]]></name>
    <trkseg>
      <trkpt lat="43.44933" lon="0.7342">
        <ele>197.95</ele>
        <time>2016-10-21T08:02:12Z</time>
      </trkpt>
      <trkpt lat="43.44933" lon="0.7342">
        <ele>197.95</ele>
        <time>2016-10-21T08:02:13Z</time>
      </trkpt>
      <trkpt lat="43.44931" lon="0.73418">
        <ele>198.41</ele>
        <time>2016-10-21T08:02:44Z</time>
      </trkpt>
      <trkpt lat="43.44929" lon="0.73417">
        <ele>197.9</ele>
        <time>2016-10-21T08:03:17Z</time>
      </trkpt>
      <trkpt lat="43.44929" lon="0.73418">
        <ele>198.11</ele>
        <time>2016-10-21T08:03:44Z</time>
      </trkpt>
      <trkpt lat="43.44931" lon="0.73417">
        <ele>198.16</ele>
        <time>2016-10-21T08:04:02Z</time>
      </trkpt>
      <trkpt lat="43.44933" lon="0.73416">
        <ele>198.26</ele>
        <time>2016-10-21T08:04:34Z</time>
      </trkpt>
      <trkpt lat="43.44931" lon="0.73418">
        <ele>198.4</ele>
        <time>2016-10-21T08:04:54Z</time>
      </trkpt>
      <trkpt lat="43.44933" lon="0.73415">
        <ele>198.71</ele>
        <time>2016-10-21T08:05:20Z</time>
      </trkpt>
      <trkpt lat="43.44931" lon="0.73419">
        <ele>197.97</ele>
        <time>2016-10-21T08:05:47Z</time>
      </trkpt>
      <trkpt lat="43.4493" lon="0.73421">
        <ele>198.81</ele>
        <time>2016-10-21T08:06:10Z</time>
      </trkpt>
      <trkpt lat="43.4493" lon="0.73421">
        <ele>198.36</ele>
        <time>2016-10-21T08:06:36Z</time>
      </trkpt>
      <trkpt lat="43.44928" lon="0.73422">
        <ele>198.28</ele>
        <time>2016-10-21T08:07:09Z</time>
      </trkpt>
      <trkpt lat="43.44922" lon="0.73412">
        <ele>198.66</ele>
        <time>2016-10-21T08:07:26Z</time>
      </trkpt>
      <trkpt lat="43.44907" lon="0.73406">
        <ele>197.81</ele>
        <time>2016-10-21T08:07:47Z</time>
      </trkpt>
      <trkpt lat="43.449" lon="0.73407">
        <ele>197.67</ele>
        <time>2016-10-21T08:07:54Z</time>
      </trkpt>
      <trkpt lat="43.4488" lon="0.73412">
        <ele>197.18</ele>
        <time>2016-10-21T08:08:11Z</time>
      </trkpt>
      <trkpt lat="43.44863" lon="0.73425">
        <ele>196.86</ele>
        <time>2016-10-21T08:08:28Z</time>
      </trkpt>
      <trkpt lat="43.44843" lon="0.73433">
        <ele>196.86</ele>
        <time>2016-10-21T08:08:46Z</time>
      </trkpt>
      <trkpt lat="43.4483" lon="0.73436">
        <ele>196.34</ele>
        <time>2016-10-21T08:09:00Z</time>
      </trkpt>
      <trkpt lat="43.44822" lon="0.73441">
        <ele>196.94</ele>
        <time>2016-10-21T08:09:07Z</time>
      </trkpt>
      <trkpt lat="43.44817" lon="0.73443">
        <ele>196.51</ele>
        <time>2016-10-21T08:09:11Z</time>
      </trkpt>
      <trkpt lat="43.44799" lon="0.73449">
        <ele>196.79</ele>
        <time>2016-10-21T08:09:26Z</time>
      </trkpt>
      <trkpt lat="43.44779" lon="0.7345">
        <ele>196.24</ele>
        <time>2016-10-21T08:09:43Z</time>
      </trkpt>
      <trkpt lat="43.4476" lon="0.73449">
        <ele>196.79</ele>
        <time>2016-10-21T08:09:58Z</time>
      </trkpt>
      <trkpt lat="43.4474" lon="0.73458">
        <ele>196.49</ele>
        <time>2016-10-21T08:10:14Z</time>
      </trkpt>
      <trkpt lat="43.44724" lon="0.73464">
        <ele>196.19</ele>
        <time>2016-10-21T08:10:27Z</time>
      </trkpt>
      <trkpt lat="43.44707" lon="0.73472">
        <ele>196.25</ele>
        <time>2016-10-21T08:10:43Z</time>
      </trkpt>
      <trkpt lat="43.44682" lon="0.73478">
        <ele>195.31</ele>
        <time>2016-10-21T08:11:04Z</time>
      </trkpt>
      <trkpt lat="43.44663" lon="0.73477">
        <ele>195.41</ele>
        <time>2016-10-21T08:11:20Z</time>
      </trkpt>
      <trkpt lat="43.44644" lon="0.73477">
        <ele>194.75</ele>
        <time>2016-10-21T08:11:36Z</time>
      </trkpt>
      <trkpt lat="43.4462" lon="0.73482">
        <ele>195.24</ele>
        <time>2016-10-21T08:11:52Z</time>
      </trkpt>
      <trkpt lat="43.44614" lon="0.73483">
        <ele>195.2</ele>
        <time>2016-10-21T08:11:58Z</time>
      </trkpt>
      <trkpt lat="43.44606" lon="0.73482">
        <ele>194.8</ele>
        <time>2016-10-21T08:12:07Z</time>
      </trkpt>
      <trkpt lat="43.44591" lon="0.73473">
        <ele>195.15</ele>
        <time>2016-10-21T08:12:23Z</time>
      </trkpt>
      <trkpt lat="43.44587" lon="0.73468">
        <ele>194.77</ele>
        <time>2016-10-21T08:12:28Z</time>
      </trkpt>
      <trkpt lat="43.44577" lon="0.73463">
        <ele>194.7</ele>
        <time>2016-10-21T08:12:36Z</time>
      </trkpt>
      <trkpt lat="43.44545" lon="0.73455">
        <ele>194.42</ele>
        <time>2016-10-21T08:12:57Z</time>
      </trkpt>
      <trkpt lat="43.44517" lon="0.73449">
        <ele>194.53</ele>
        <time>2016-10-21T08:13:19Z</time>
      </trkpt>
      <trkpt lat="43.44507" lon="0.73443">
        <ele>195.12</ele>
        <time>2016-10-21T08:13:29Z</time>
      </trkpt>
      <trkpt lat="43.44507" lon="0.73417">
        <ele>195.06</ele>
        <time>2016-10-21T08:13:47Z</time>
      </trkpt>
      <trkpt lat="43.44509" lon="0.73387">
        <ele>194.57</ele>
        <time>2016-10-21T08:14:05Z</time>
      </trkpt>
      <trkpt lat="43.4451" lon="0.73364">
        <ele>194.2</ele>
        <time>2016-10-21T08:14:19Z</time>
      </trkpt>
      <trkpt lat="43.44512" lon="0.73338">
        <ele>194.93</ele>
        <time>2016-10-21T08:14:34Z</time>
      </trkpt>
      <trkpt lat="43.44514" lon="0.7331">
        <ele>194.66</ele>
        <time>2016-10-21T08:14:50Z</time>
      </trkpt>
      <trkpt lat="43.44516" lon="0.73283">
        <ele>194.09</ele>
        <time>2016-10-21T08:15:06Z</time>
      </trkpt>
      <trkpt lat="43.44516" lon="0.73278">
        <ele>194.35</ele>
        <time>2016-10-21T08:15:09Z</time>
      </trkpt>
      <trkpt lat="43.44518" lon="0.7327">
        <ele>194.1</ele>
        <time>2016-10-21T08:15:14Z</time>
      </trkpt>
      <trkpt lat="43.44517" lon="0.73241">
        <ele>195.39</ele>
        <time>2016-10-21T08:15:30Z</time>
      </trkpt>
      <trkpt lat="43.44515" lon="0.73225">
        <ele>195.47</ele>
        <time>2016-10-21T08:15:41Z</time>
      </trkpt>
      <trkpt lat="43.44513" lon="0.73207">
        <ele>196.41</ele>
        <time>2016-10-21T08:15:52Z</time>
      </trkpt>
      <trkpt lat="43.44512" lon="0.73181">
        <ele>196.97</ele>
        <time>2016-10-21T08:16:07Z</time>
      </trkpt>
      <trkpt lat="43.44514" lon="0.73155">
        <ele>196.68</ele>
        <time>2016-10-21T08:16:23Z</time>
      </trkpt>
      <trkpt lat="43.44517" lon="0.73131">
        <ele>196.76</ele>
        <time>2016-10-21T08:16:38Z</time>
      </trkpt>
      <trkpt lat="43.44522" lon="0.73113">
        <ele>196.75</ele>
        <time>2016-10-21T08:16:51Z</time>
      </trkpt>
      <trkpt lat="43.44529" lon="0.73088">
        <ele>197.08</ele>
        <time>2016-10-21T08:17:08Z</time>
      </trkpt>
      <trkpt lat="43.4453" lon="0.73082">
        <ele>197.23</ele>
        <time>2016-10-21T08:17:13Z</time>
      </trkpt>
      <trkpt lat="43.44529" lon="0.73069">
        <ele>197.52</ele>
        <time>2016-10-21T08:17:21Z</time>
      </trkpt>
      <trkpt lat="43.44527" lon="0.73062">
        <ele>197.87</ele>
        <time>2016-10-21T08:17:25Z</time>
      </trkpt>
      <trkpt lat="43.44517" lon="0.73053">
        <ele>197.52</ele>
        <time>2016-10-21T08:17:33Z</time>
      </trkpt>
      <trkpt lat="43.44507" lon="0.73049">
        <ele>198.21</ele>
        <time>2016-10-21T08:17:41Z</time>
      </trkpt>
      <trkpt lat="43.44502" lon="0.73047">
        <ele>198.41</ele>
        <time>2016-10-21T08:17:45Z</time>
      </trkpt>
      <trkpt lat="43.44491" lon="0.73026">
        <ele>198.44</ele>
        <time>2016-10-21T08:18:03Z</time>
      </trkpt>
      <trkpt lat="43.44489" lon="0.73007">
        <ele>198.62</ele>
        <time>2016-10-21T08:18:22Z</time>
      </trkpt>
      <trkpt lat="43.44488" lon="0.72998">
        <ele>198.99</ele>
        <time>2016-10-21T08:18:29Z</time>
      </trkpt>
      <trkpt lat="43.44488" lon="0.72995">
        <ele>199.03</ele>
        <time>2016-10-21T08:18:31Z</time>
      </trkpt>
      <trkpt lat="43.44486" lon="0.72965">
        <ele>199.44</ele>
        <time>2016-10-21T08:18:50Z</time>
      </trkpt>
      <trkpt lat="43.44486" lon="0.72961">
        <ele>199.4</ele>
        <time>2016-10-21T08:18:54Z</time>
      </trkpt>
      <trkpt lat="43.44486" lon="0.72958">
        <ele>199.65</ele>
        <time>2016-10-21T08:18:56Z</time>
      </trkpt>
      <trkpt lat="43.44486" lon="0.72951">
        <ele>199.94</ele>
        <time>2016-10-21T08:19:00Z</time>
      </trkpt>
      <trkpt lat="43.44485" lon="0.72924">
        <ele>201.18</ele>
        <time>2016-10-21T08:19:17Z</time>
      </trkpt>
      <trkpt lat="43.44482" lon="0.72896">
        <ele>201.39</ele>
        <time>2016-10-21T08:19:35Z</time>
      </trkpt>
      <trkpt lat="43.44479" lon="0.72885">
        <ele>202.38</ele>
        <time>2016-10-21T08:19:52Z</time>
      </trkpt>
      <trkpt lat="43.44481" lon="0.72883">
        <ele>202.12</ele>
        <time>2016-10-21T08:19:54Z</time>
      </trkpt>
      <trkpt lat="43.44483" lon="0.72882">
        <ele>202.06</ele>
        <time>2016-10-21T08:19:56Z</time>
      </trkpt>
      <trkpt lat="43.44489" lon="0.7288">
        <ele>201.42</ele>
        <time>2016-10-21T08:20:01Z</time>
      </trkpt>
      <trkpt lat="43.44507" lon="0.72882">
        <ele>200.94</ele>
        <time>2016-10-21T08:20:16Z</time>
      </trkpt>
      <trkpt lat="43.44521" lon="0.72883">
        <ele>201.01</ele>
        <time>2016-10-21T08:20:28Z</time>
      </trkpt>
      <trkpt lat="43.44534" lon="0.72861">
        <ele>201.31</ele>
        <time>2016-10-21T08:20:44Z</time>
      </trkpt>
      <trkpt lat="43.44535" lon="0.72852">
        <ele>201.2</ele>
        <time>2016-10-21T08:20:49Z</time>
      </trkpt>
      <trkpt lat="43.4454" lon="0.72827">
        <ele>202.59</ele>
        <time>2016-10-21T08:21:04Z</time>
      </trkpt>
      <trkpt lat="43.44542" lon="0.72804">
        <ele>204.72</ele>
        <time>2016-10-21T08:21:22Z</time>
      </trkpt>
      <trkpt lat="43.4453" lon="0.72784">
        <ele>207.95</ele>
        <time>2016-10-21T08:21:42Z</time>
      </trkpt>
      <trkpt lat="43.44521" lon="0.72764">
        <ele>211.1</ele>
        <time>2016-10-21T08:22:02Z</time>
      </trkpt>
      <trkpt lat="43.44519" lon="0.72739">
        <ele>213.14</ele>
        <time>2016-10-21T08:22:22Z</time>
      </trkpt>
      <trkpt lat="43.44518" lon="0.72721">
        <ele>215.33</ele>
        <time>2016-10-21T08:22:37Z</time>
      </trkpt>
      <trkpt lat="43.44518" lon="0.72702">
        <ele>217.56</ele>
        <time>2016-10-21T08:22:55Z</time>
      </trkpt>
      <trkpt lat="43.44517" lon="0.72678">
        <ele>219.93</ele>
        <time>2016-10-21T08:23:16Z</time>
      </trkpt>
      <trkpt lat="43.44517" lon="0.72665">
        <ele>221.18</ele>
        <time>2016-10-21T08:23:27Z</time>
      </trkpt>
      <trkpt lat="43.4452" lon="0.72648">
        <ele>222.92</ele>
        <time>2016-10-21T08:23:44Z</time>
      </trkpt>
      <trkpt lat="43.44525" lon="0.72622">
        <ele>225.12</ele>
        <time>2016-10-21T08:24:08Z</time>
      </trkpt>
      <trkpt lat="43.44529" lon="0.72596">
        <ele>227.26</ele>
        <time>2016-10-21T08:24:29Z</time>
      </trkpt>
      <trkpt lat="43.44529" lon="0.72591">
        <ele>227.39</ele>
        <time>2016-10-21T08:24:32Z</time>
      </trkpt>
      <trkpt lat="43.4453" lon="0.72579">
        <ele>228.51</ele>
        <time>2016-10-21T08:24:40Z</time>
      </trkpt>
      <trkpt lat="43.44533" lon="0.72553">
        <ele>229.29</ele>
        <time>2016-10-21T08:24:56Z</time>
      </trkpt>
      <trkpt lat="43.44535" lon="0.72535">
        <ele>229.67</ele>
        <time>2016-10-21T08:25:09Z</time>
      </trkpt>
      <trkpt lat="43.44538" lon="0.72509">
        <ele>230.45</ele>
        <time>2016-10-21T08:25:26Z</time>
      </trkpt>
      <trkpt lat="43.4454" lon="0.72482">
        <ele>231.76</ele>
        <time>2016-10-21T08:25:42Z</time>
      </trkpt>
      <trkpt lat="43.4454" lon="0.72477">
        <ele>231.88</ele>
        <time>2016-10-21T08:25:45Z</time>
      </trkpt>
      <trkpt lat="43.44542" lon="0.72457">
        <ele>232.75</ele>
        <time>2016-10-21T08:26:00Z</time>
      </trkpt>
      <trkpt lat="43.44545" lon="0.72437">
        <ele>233.35</ele>
        <time>2016-10-21T08:26:14Z</time>
      </trkpt>
      <trkpt lat="43.44546" lon="0.72414">
        <ele>234.69</ele>
        <time>2016-10-21T08:26:32Z</time>
      </trkpt>
      <trkpt lat="43.44548" lon="0.72392">
        <ele>235.33</ele>
        <time>2016-10-21T08:26:47Z</time>
      </trkpt>
      <trkpt lat="43.44551" lon="0.72369">
        <ele>236.65</ele>
        <time>2016-10-21T08:27:04Z</time>
      </trkpt>
      <trkpt lat="43.44556" lon="0.72342">
        <ele>237.34</ele>
        <time>2016-10-21T08:27:26Z</time>
      </trkpt>
      <trkpt lat="43.44559" lon="0.72308">
        <ele>237.76</ele>
        <time>2016-10-21T08:27:50Z</time>
      </trkpt>
      <trkpt lat="43.44561" lon="0.72285">
        <ele>238.12</ele>
        <time>2016-10-21T08:28:04Z</time>
      </trkpt>
      <trkpt lat="43.44563" lon="0.72266">
        <ele>238.27</ele>
        <time>2016-10-21T08:28:17Z</time>
      </trkpt>
      <trkpt lat="43.44565" lon="0.72241">
        <ele>239.36</ele>
        <time>2016-10-21T08:28:34Z</time>
      </trkpt>
      <trkpt lat="43.44566" lon="0.7222">
        <ele>239.68</ele>
        <time>2016-10-21T08:28:49Z</time>
      </trkpt>
      <trkpt lat="43.44566" lon="0.72202">
        <ele>240.17</ele>
        <time>2016-10-21T08:29:03Z</time>
      </trkpt>
      <trkpt lat="43.44568" lon="0.72178">
        <ele>241.21</ele>
        <time>2016-10-21T08:29:18Z</time>
      </trkpt>
      <trkpt lat="43.44567" lon="0.72174">
        <ele>241.07</ele>
        <time>2016-10-21T08:29:21Z</time>
      </trkpt>
      <trkpt lat="43.44569" lon="0.72141">
        <ele>242.47</ele>
        <time>2016-10-21T08:29:39Z</time>
      </trkpt>
      <trkpt lat="43.44572" lon="0.72113">
        <ele>242.94</ele>
        <time>2016-10-21T08:29:56Z</time>
      </trkpt>
      <trkpt lat="43.44576" lon="0.72094">
        <ele>244.07</ele>
        <time>2016-10-21T08:30:11Z</time>
      </trkpt>
      <trkpt lat="43.44576" lon="0.7209">
        <ele>244.57</ele>
        <time>2016-10-21T08:30:14Z</time>
      </trkpt>
      <trkpt lat="43.44577" lon="0.72067">
        <ele>245.63</ele>
        <time>2016-10-21T08:30:28Z</time>
      </trkpt>
      <trkpt lat="43.44579" lon="0.72039">
        <ele>247.24</ele>
        <time>2016-10-21T08:30:49Z</time>
      </trkpt>
      <trkpt lat="43.44577" lon="0.72012">
        <ele>248.77</ele>
        <time>2016-10-21T08:31:09Z</time>
      </trkpt>
      <trkpt lat="43.44578" lon="0.71989">
        <ele>249.86</ele>
        <time>2016-10-21T08:31:26Z</time>
      </trkpt>
      <trkpt lat="43.44575" lon="0.71961">
        <ele>251.86</ele>
        <time>2016-10-21T08:31:47Z</time>
      </trkpt>
      <trkpt lat="43.44577" lon="0.71937">
        <ele>253.31</ele>
        <time>2016-10-21T08:32:06Z</time>
      </trkpt>
      <trkpt lat="43.44582" lon="0.71915">
        <ele>255.15</ele>
        <time>2016-10-21T08:32:27Z</time>
      </trkpt>
      <trkpt lat="43.44585" lon="0.71892">
        <ele>255.43</ele>
        <time>2016-10-21T08:32:43Z</time>
      </trkpt>
      <trkpt lat="43.44582" lon="0.71854">
        <ele>256.57</ele>
        <time>2016-10-21T08:33:00Z</time>
      </trkpt>
      <trkpt lat="43.44583" lon="0.71827">
        <ele>257.5</ele>
        <time>2016-10-21T08:33:17Z</time>
      </trkpt>
      <trkpt lat="43.44586" lon="0.71798">
        <ele>258.7</ele>
        <time>2016-10-21T08:33:38Z</time>
      </trkpt>
      <trkpt lat="43.44587" lon="0.71771">
        <ele>258.79</ele>
        <time>2016-10-21T08:33:52Z</time>
      </trkpt>
      <trkpt lat="43.44589" lon="0.71757">
        <ele>259.71</ele>
        <time>2016-10-21T08:34:01Z</time>
      </trkpt>
      <trkpt lat="43.44593" lon="0.71748">
        <ele>259.74</ele>
        <time>2016-10-21T08:34:08Z</time>
      </trkpt>
      <trkpt lat="43.44596" lon="0.71722">
        <ele>260.29</ele>
        <time>2016-10-21T08:34:25Z</time>
      </trkpt>
      <trkpt lat="43.4459" lon="0.71707">
        <ele>261.03</ele>
        <time>2016-10-21T08:34:36Z</time>
      </trkpt>
      <trkpt lat="43.44587" lon="0.71703">
        <ele>261.61</ele>
        <time>2016-10-21T08:34:40Z</time>
      </trkpt>
      <trkpt lat="43.44584" lon="0.71679">
        <ele>261.55</ele>
        <time>2016-10-21T08:34:55Z</time>
      </trkpt>
      <trkpt lat="43.44587" lon="0.71652">
        <ele>261.94</ele>
        <time>2016-10-21T08:35:12Z</time>
      </trkpt>
      <trkpt lat="43.4459" lon="0.71619">
        <ele>262.75</ele>
        <time>2016-10-21T08:35:32Z</time>
      </trkpt>
      <trkpt lat="43.44593" lon="0.71593">
        <ele>262.99</ele>
        <time>2016-10-21T08:35:48Z</time>
      </trkpt>
      <trkpt lat="43.44594" lon="0.71568">
        <ele>263.5</ele>
        <time>2016-10-21T08:36:04Z</time>
      </trkpt>
      <trkpt lat="43.44595" lon="0.71553">
        <ele>263.88</ele>
        <time>2016-10-21T08:36:13Z</time>
      </trkpt>
      <trkpt lat="43.44595" lon="0.71525">
        <ele>264.09</ele>
        <time>2016-10-21T08:36:31Z</time>
      </trkpt>
      <trkpt lat="43.44595" lon="0.71501">
        <ele>264.98</ele>
        <time>2016-10-21T08:36:45Z</time>
      </trkpt>
      <trkpt lat="43.44595" lon="0.71473">
        <ele>264.57</ele>
        <time>2016-10-21T08:37:02Z</time>
      </trkpt>
      <trkpt lat="43.44595" lon="0.71448">
        <ele>266.03</ele>
        <time>2016-10-21T08:37:18Z</time>
      </trkpt>
      <trkpt lat="43.44597" lon="0.71428">
        <ele>266.62</ele>
        <time>2016-10-21T08:37:31Z</time>
      </trkpt>
      <trkpt lat="43.44596" lon="0.71404">
        <ele>267.43</ele>
        <time>2016-10-21T08:37:47Z</time>
      </trkpt>
      <trkpt lat="43.44597" lon="0.71402">
        <ele>268.34</ele>
        <time>2016-10-21T08:37:48Z</time>
      </trkpt>
      <trkpt lat="43.44598" lon="0.71393">
        <ele>268.47</ele>
        <time>2016-10-21T08:37:56Z</time>
      </trkpt>
      <trkpt lat="43.446" lon="0.71381">
        <ele>269.38</ele>
        <time>2016-10-21T08:38:11Z</time>
      </trkpt>
      <trkpt lat="43.44599" lon="0.71381">
        <ele>268.74</ele>
        <time>2016-10-21T08:38:36Z</time>
      </trkpt>
      <trkpt lat="43.44598" lon="0.7138">
        <ele>269.37</ele>
        <time>2016-10-21T08:39:06Z</time>
      </trkpt>
      <trkpt lat="43.44601" lon="0.71374">
        <ele>270.12</ele>
        <time>2016-10-21T08:39:35Z</time>
      </trkpt>
      <trkpt lat="43.44603" lon="0.71372">
        <ele>270.27</ele>
        <time>2016-10-21T08:39:37Z</time>
      </trkpt>
      <trkpt lat="43.44606" lon="0.71367">
        <ele>270.26</ele>
        <time>2016-10-21T08:39:41Z</time>
      </trkpt>
      <trkpt lat="43.44614" lon="0.71346">
        <ele>272.55</ele>
        <time>2016-10-21T08:39:57Z</time>
      </trkpt>
      <trkpt lat="43.44621" lon="0.71326">
        <ele>274.23</ele>
        <time>2016-10-21T08:40:12Z</time>
      </trkpt>
      <trkpt lat="43.44626" lon="0.71313">
        <ele>275</ele>
        <time>2016-10-21T08:40:23Z</time>
      </trkpt>
      <trkpt lat="43.44632" lon="0.71289">
        <ele>275.61</ele>
        <time>2016-10-21T08:40:40Z</time>
      </trkpt>
      <trkpt lat="43.44637" lon="0.71268">
        <ele>277.14</ele>
        <time>2016-10-21T08:40:57Z</time>
      </trkpt>
      <trkpt lat="43.44641" lon="0.71257">
        <ele>278.11</ele>
        <time>2016-10-21T08:41:15Z</time>
      </trkpt>
      <trkpt lat="43.44647" lon="0.71251">
        <ele>278.89</ele>
        <time>2016-10-21T08:41:22Z</time>
      </trkpt>
      <trkpt lat="43.44648" lon="0.71247">
        <ele>279.09</ele>
        <time>2016-10-21T08:41:25Z</time>
      </trkpt>
      <trkpt lat="43.44653" lon="0.71234">
        <ele>280.21</ele>
        <time>2016-10-21T08:41:37Z</time>
      </trkpt>
      <trkpt lat="43.44659" lon="0.71225">
        <ele>280.93</ele>
        <time>2016-10-21T08:41:48Z</time>
      </trkpt>
      <trkpt lat="43.44663" lon="0.71209">
        <ele>282.33</ele>
        <time>2016-10-21T08:42:00Z</time>
      </trkpt>
      <trkpt lat="43.44669" lon="0.71194">
        <ele>283.93</ele>
        <time>2016-10-21T08:42:16Z</time>
      </trkpt>
      <trkpt lat="43.44669" lon="0.71186">
        <ele>283.79</ele>
        <time>2016-10-21T08:42:32Z</time>
      </trkpt>
      <trkpt lat="43.44678" lon="0.71166">
        <ele>285.03</ele>
        <time>2016-10-21T08:42:52Z</time>
      </trkpt>
      <trkpt lat="43.44683" lon="0.7116">
        <ele>286</ele>
        <time>2016-10-21T08:43:01Z</time>
      </trkpt>
      <trkpt lat="43.44683" lon="0.71128">
        <ele>287.19</ele>
        <time>2016-10-21T08:43:19Z</time>
      </trkpt>
      <trkpt lat="43.44677" lon="0.71115">
        <ele>287.71</ele>
        <time>2016-10-21T08:43:29Z</time>
      </trkpt>
      <trkpt lat="43.44682" lon="0.71114">
        <ele>288.09</ele>
        <time>2016-10-21T08:43:43Z</time>
      </trkpt>
      <trkpt lat="43.44679" lon="0.71088">
        <ele>288.02</ele>
        <time>2016-10-21T08:43:57Z</time>
      </trkpt>
      <trkpt lat="43.44685" lon="0.71078">
        <ele>288.22</ele>
        <time>2016-10-21T08:44:40Z</time>
      </trkpt>
      <trkpt lat="43.44687" lon="0.71076">
        <ele>288.24</ele>
        <time>2016-10-21T08:44:42Z</time>
      </trkpt>
      <trkpt lat="43.44691" lon="0.71065">
        <ele>288.27</ele>
        <time>2016-10-21T08:44:49Z</time>
      </trkpt>
      <trkpt lat="43.44697" lon="0.71051">
        <ele>289.09</ele>
        <time>2016-10-21T08:44:57Z</time>
      </trkpt>
      <trkpt lat="43.44707" lon="0.71025">
        <ele>289.56</ele>
        <time>2016-10-21T08:45:13Z</time>
      </trkpt>
      <trkpt lat="43.44714" lon="0.70996">
        <ele>290.03</ele>
        <time>2016-10-21T08:45:29Z</time>
      </trkpt>
      <trkpt lat="43.44715" lon="0.70981">
        <ele>291.04</ele>
        <time>2016-10-21T08:45:44Z</time>
      </trkpt>
      <trkpt lat="43.44714" lon="0.70979">
        <ele>290.51</ele>
        <time>2016-10-21T08:45:55Z</time>
      </trkpt>
      <trkpt lat="43.44717" lon="0.70971">
        <ele>291.11</ele>
        <time>2016-10-21T08:46:01Z</time>
      </trkpt>
      <trkpt lat="43.44723" lon="0.70938">
        <ele>291.92</ele>
        <time>2016-10-21T08:46:20Z</time>
      </trkpt>
      <trkpt lat="43.44732" lon="0.70906">
        <ele>292.1</ele>
        <time>2016-10-21T08:46:39Z</time>
      </trkpt>
      <trkpt lat="43.44739" lon="0.70878">
        <ele>292.42</ele>
        <time>2016-10-21T08:46:56Z</time>
      </trkpt>
      <trkpt lat="43.44748" lon="0.70858">
        <ele>293.48</ele>
        <time>2016-10-21T08:47:10Z</time>
      </trkpt>
      <trkpt lat="43.4476" lon="0.70839">
        <ele>293.99</ele>
        <time>2016-10-21T08:47:24Z</time>
      </trkpt>
      <trkpt lat="43.44773" lon="0.70822">
        <ele>293.26</ele>
        <time>2016-10-21T08:47:38Z</time>
      </trkpt>
      <trkpt lat="43.44784" lon="0.70803">
        <ele>293.26</ele>
        <time>2016-10-21T08:47:50Z</time>
      </trkpt>
      <trkpt lat="43.44788" lon="0.70795">
        <ele>292.6</ele>
        <time>2016-10-21T08:47:56Z</time>
      </trkpt>
      <trkpt lat="43.44799" lon="0.70768">
        <ele>290.84</ele>
        <time>2016-10-21T08:48:14Z</time>
      </trkpt>
      <trkpt lat="43.44811" lon="0.70747">
        <ele>289.64</ele>
        <time>2016-10-21T08:48:28Z</time>
      </trkpt>
      <trkpt lat="43.44825" lon="0.70735">
        <ele>288.33</ele>
        <time>2016-10-21T08:48:41Z</time>
      </trkpt>
      <trkpt lat="43.4484" lon="0.70728">
        <ele>285.32</ele>
        <time>2016-10-21T08:48:56Z</time>
      </trkpt>
      <trkpt lat="43.44862" lon="0.7073">
        <ele>283.49</ele>
        <time>2016-10-21T08:49:12Z</time>
      </trkpt>
      <trkpt lat="43.44882" lon="0.70742">
        <ele>282.41</ele>
        <time>2016-10-21T08:49:28Z</time>
      </trkpt>
      <trkpt lat="43.44904" lon="0.70758">
        <ele>281.23</ele>
        <time>2016-10-21T08:49:46Z</time>
      </trkpt>
      <trkpt lat="43.44911" lon="0.70766">
        <ele>281.99</ele>
        <time>2016-10-21T08:49:54Z</time>
      </trkpt>
      <trkpt lat="43.44924" lon="0.70769">
        <ele>282.15</ele>
        <time>2016-10-21T08:50:08Z</time>
      </trkpt>
      <trkpt lat="43.44925" lon="0.70761">
        <ele>280.83</ele>
        <time>2016-10-21T08:50:21Z</time>
      </trkpt>
      <trkpt lat="43.44926" lon="0.70755">
        <ele>279.94</ele>
        <time>2016-10-21T08:50:26Z</time>
      </trkpt>
      <trkpt lat="43.44926" lon="0.70744">
        <ele>277.68</ele>
        <time>2016-10-21T08:50:34Z</time>
      </trkpt>
      <trkpt lat="43.44925" lon="0.70726">
        <ele>274.27</ele>
        <time>2016-10-21T08:50:49Z</time>
      </trkpt>
      <trkpt lat="43.44924" lon="0.70723">
        <ele>273.61</ele>
        <time>2016-10-21T08:50:51Z</time>
      </trkpt>
      <trkpt lat="43.44929" lon="0.70697">
        <ele>271.75</ele>
        <time>2016-10-21T08:51:07Z</time>
      </trkpt>
      <trkpt lat="43.44933" lon="0.70676">
        <ele>269.02</ele>
        <time>2016-10-21T08:51:21Z</time>
      </trkpt>
      <trkpt lat="43.44938" lon="0.70644">
        <ele>266.97</ele>
        <time>2016-10-21T08:51:38Z</time>
      </trkpt>
      <trkpt lat="43.44938" lon="0.70639">
        <ele>266.51</ele>
        <time>2016-10-21T08:51:41Z</time>
      </trkpt>
      <trkpt lat="43.4494" lon="0.70611">
        <ele>263.41</ele>
        <time>2016-10-21T08:51:57Z</time>
      </trkpt>
      <trkpt lat="43.44936" lon="0.70585">
        <ele>261.48</ele>
        <time>2016-10-21T08:52:14Z</time>
      </trkpt>
      <trkpt lat="43.44938" lon="0.70543">
        <ele>259.78</ele>
        <time>2016-10-21T08:52:37Z</time>
      </trkpt>
      <trkpt lat="43.44934" lon="0.70511">
        <ele>258.38</ele>
        <time>2016-10-21T08:52:51Z</time>
      </trkpt>
      <trkpt lat="43.44922" lon="0.70478">
        <ele>256.51</ele>
        <time>2016-10-21T08:53:08Z</time>
      </trkpt>
      <trkpt lat="43.44917" lon="0.70454">
        <ele>253.38</ele>
        <time>2016-10-21T08:53:22Z</time>
      </trkpt>
      <trkpt lat="43.44912" lon="0.70431">
        <ele>250.69</ele>
        <time>2016-10-21T08:53:37Z</time>
      </trkpt>
      <trkpt lat="43.44906" lon="0.70405">
        <ele>247.45</ele>
        <time>2016-10-21T08:53:54Z</time>
      </trkpt>
      <trkpt lat="43.44902" lon="0.70389">
        <ele>244.24</ele>
        <time>2016-10-21T08:54:06Z</time>
      </trkpt>
      <trkpt lat="43.44898" lon="0.7037">
        <ele>241.05</ele>
        <time>2016-10-21T08:54:18Z</time>
      </trkpt>
      <trkpt lat="43.44894" lon="0.70352">
        <ele>237.6</ele>
        <time>2016-10-21T08:54:30Z</time>
      </trkpt>
      <trkpt lat="43.44893" lon="0.70342">
        <ele>237.24</ele>
        <time>2016-10-21T08:54:36Z</time>
      </trkpt>
      <trkpt lat="43.44882" lon="0.70329">
        <ele>233.85</ele>
        <time>2016-10-21T08:54:49Z</time>
      </trkpt>
      <trkpt lat="43.44863" lon="0.70317">
        <ele>230.97</ele>
        <time>2016-10-21T08:55:06Z</time>
      </trkpt>
      <trkpt lat="43.44851" lon="0.70296">
        <ele>230.47</ele>
        <time>2016-10-21T08:55:22Z</time>
      </trkpt>
      <trkpt lat="43.4485" lon="0.70284">
        <ele>230.25</ele>
        <time>2016-10-21T08:55:35Z</time>
      </trkpt>
      <trkpt lat="43.44853" lon="0.70276">
        <ele>229.23</ele>
        <time>2016-10-21T08:55:56Z</time>
      </trkpt>
      <trkpt lat="43.4486" lon="0.70259">
        <ele>228.33</ele>
        <time>2016-10-21T08:56:11Z</time>
      </trkpt>
      <trkpt lat="43.44871" lon="0.70232">
        <ele>227.15</ele>
        <time>2016-10-21T08:56:28Z</time>
      </trkpt>
      <trkpt lat="43.44881" lon="0.70209">
        <ele>224.14</ele>
        <time>2016-10-21T08:56:42Z</time>
      </trkpt>
      <trkpt lat="43.44892" lon="0.70188">
        <ele>222.6</ele>
        <time>2016-10-21T08:56:56Z</time>
      </trkpt>
      <trkpt lat="43.44903" lon="0.70164">
        <ele>221.08</ele>
        <time>2016-10-21T08:57:11Z</time>
      </trkpt>
      <trkpt lat="43.44916" lon="0.7013">
        <ele>219.42</ele>
        <time>2016-10-21T08:57:30Z</time>
      </trkpt>
      <trkpt lat="43.44926" lon="0.70107">
        <ele>218.39</ele>
        <time>2016-10-21T08:57:45Z</time>
      </trkpt>
      <trkpt lat="43.44926" lon="0.70106">
        <ele>218.47</ele>
        <time>2016-10-21T08:57:46Z</time>
      </trkpt>
      <trkpt lat="43.44938" lon="0.70079">
        <ele>217.53</ele>
        <time>2016-10-21T08:58:03Z</time>
      </trkpt>
      <trkpt lat="43.4495" lon="0.70051">
        <ele>216.52</ele>
        <time>2016-10-21T08:58:21Z</time>
      </trkpt>
      <trkpt lat="43.44955" lon="0.70036">
        <ele>215.26</ele>
        <time>2016-10-21T08:58:31Z</time>
      </trkpt>
      <trkpt lat="43.44961" lon="0.70027">
        <ele>214.65</ele>
        <time>2016-10-21T08:58:38Z</time>
      </trkpt>
      <trkpt lat="43.44968" lon="0.70015">
        <ele>212.75</ele>
        <time>2016-10-21T08:58:47Z</time>
      </trkpt>
      <trkpt lat="43.44973" lon="0.69991">
        <ele>210.44</ele>
        <time>2016-10-21T08:59:04Z</time>
      </trkpt>
      <trkpt lat="43.44971" lon="0.69978">
        <ele>210.3</ele>
        <time>2016-10-21T08:59:25Z</time>
      </trkpt>
      <trkpt lat="43.44971" lon="0.69971">
        <ele>209.93</ele>
        <time>2016-10-21T08:59:53Z</time>
      </trkpt>
      <trkpt lat="43.44972" lon="0.6997">
        <ele>210.27</ele>
        <time>2016-10-21T09:00:20Z</time>
      </trkpt>
      <trkpt lat="43.44972" lon="0.69972">
        <ele>210.55</ele>
        <time>2016-10-21T09:00:51Z</time>
      </trkpt>
      <trkpt lat="43.44971" lon="0.6997">
        <ele>209.43</ele>
        <time>2016-10-21T09:01:20Z</time>
      </trkpt>
      <trkpt lat="43.4497" lon="0.69971">
        <ele>209.69</ele>
        <time>2016-10-21T09:01:48Z</time>
      </trkpt>
      <trkpt lat="43.44971" lon="0.69972">
        <ele>209.68</ele>
        <time>2016-10-21T09:02:13Z</time>
      </trkpt>
      <trkpt lat="43.44972" lon="0.6997">
        <ele>209.36</ele>
        <time>2016-10-21T09:02:43Z</time>
      </trkpt>
      <trkpt lat="43.44972" lon="0.69966">
        <ele>209.69</ele>
        <time>2016-10-21T09:03:02Z</time>
      </trkpt>
      <trkpt lat="43.44978" lon="0.69969">
        <ele>209.98</ele>
        <time>2016-10-21T09:03:09Z</time>
      </trkpt>
      <trkpt lat="43.4499" lon="0.69984">
        <ele>210.87</ele>
        <time>2016-10-21T09:03:24Z</time>
      </trkpt>
      <trkpt lat="43.45007" lon="0.70007">
        <ele>211.7</ele>
        <time>2016-10-21T09:03:42Z</time>
      </trkpt>
      <trkpt lat="43.45023" lon="0.70028">
        <ele>213.05</ele>
        <time>2016-10-21T09:03:58Z</time>
      </trkpt>
      <trkpt lat="43.45035" lon="0.70043">
        <ele>213.72</ele>
        <time>2016-10-21T09:04:12Z</time>
      </trkpt>
      <trkpt lat="43.4504" lon="0.70051">
        <ele>213.31</ele>
        <time>2016-10-21T09:04:19Z</time>
      </trkpt>
      <trkpt lat="43.45054" lon="0.70071">
        <ele>214.87</ele>
        <time>2016-10-21T09:04:35Z</time>
      </trkpt>
      <trkpt lat="43.45066" lon="0.70081">
        <ele>215.67</ele>
        <time>2016-10-21T09:04:47Z</time>
      </trkpt>
      <trkpt lat="43.45083" lon="0.70092">
        <ele>216.52</ele>
        <time>2016-10-21T09:05:03Z</time>
      </trkpt>
      <trkpt lat="43.45098" lon="0.70102">
        <ele>217.85</ele>
        <time>2016-10-21T09:05:18Z</time>
      </trkpt>
      <trkpt lat="43.45114" lon="0.7011">
        <ele>217.8</ele>
        <time>2016-10-21T09:05:34Z</time>
      </trkpt>
      <trkpt lat="43.45129" lon="0.70117">
        <ele>217.87</ele>
        <time>2016-10-21T09:05:49Z</time>
      </trkpt>
      <trkpt lat="43.45132" lon="0.70118">
        <ele>217.79</ele>
        <time>2016-10-21T09:05:51Z</time>
      </trkpt>
      <trkpt lat="43.4515" lon="0.70126">
        <ele>216.62</ele>
        <time>2016-10-21T09:06:07Z</time>
      </trkpt>
      <trkpt lat="43.45163" lon="0.70133">
        <ele>215.93</ele>
        <time>2016-10-21T09:06:20Z</time>
      </trkpt>
      <trkpt lat="43.45183" lon="0.70142">
        <ele>215.93</ele>
        <time>2016-10-21T09:06:36Z</time>
      </trkpt>
      <trkpt lat="43.45194" lon="0.70146">
        <ele>214.82</ele>
        <time>2016-10-21T09:06:46Z</time>
      </trkpt>
      <trkpt lat="43.45201" lon="0.70147">
        <ele>215.6</ele>
        <time>2016-10-21T09:06:52Z</time>
      </trkpt>
      <trkpt lat="43.4522" lon="0.70151">
        <ele>216.76</ele>
        <time>2016-10-21T09:07:07Z</time>
      </trkpt>
      <trkpt lat="43.45232" lon="0.70155">
        <ele>217.36</ele>
        <time>2016-10-21T09:07:21Z</time>
      </trkpt>
      <trkpt lat="43.45237" lon="0.70159">
        <ele>217.48</ele>
        <time>2016-10-21T09:07:27Z</time>
      </trkpt>
      <trkpt lat="43.45247" lon="0.70167">
        <ele>217.37</ele>
        <time>2016-10-21T09:07:39Z</time>
      </trkpt>
      <trkpt lat="43.45251" lon="0.7017">
        <ele>217.45</ele>
        <time>2016-10-21T09:07:43Z</time>
      </trkpt>
      <trkpt lat="43.45265" lon="0.70181">
        <ele>217.34</ele>
        <time>2016-10-21T09:07:59Z</time>
      </trkpt>
      <trkpt lat="43.45286" lon="0.70194">
        <ele>216.76</ele>
        <time>2016-10-21T09:08:18Z</time>
      </trkpt>
      <trkpt lat="43.45303" lon="0.70201">
        <ele>216.48</ele>
        <time>2016-10-21T09:08:33Z</time>
      </trkpt>
      <trkpt lat="43.4532" lon="0.70207">
        <ele>215.96</ele>
        <time>2016-10-21T09:08:47Z</time>
      </trkpt>
      <trkpt lat="43.45338" lon="0.70212">
        <ele>214.27</ele>
        <time>2016-10-21T09:09:02Z</time>
      </trkpt>
      <trkpt lat="43.45361" lon="0.70229">
        <ele>212.34</ele>
        <time>2016-10-21T09:09:23Z</time>
      </trkpt>
      <trkpt lat="43.45378" lon="0.70239">
        <ele>212.16</ele>
        <time>2016-10-21T09:09:39Z</time>
      </trkpt>
      <trkpt lat="43.45383" lon="0.70239">
        <ele>211.98</ele>
        <time>2016-10-21T09:09:43Z</time>
      </trkpt>
      <trkpt lat="43.454" lon="0.70241">
        <ele>212.79</ele>
        <time>2016-10-21T09:09:59Z</time>
      </trkpt>
      <trkpt lat="43.45417" lon="0.7024">
        <ele>213.86</ele>
        <time>2016-10-21T09:10:13Z</time>
      </trkpt>
      <trkpt lat="43.45435" lon="0.70241">
        <ele>214.49</ele>
        <time>2016-10-21T09:10:29Z</time>
      </trkpt>
      <trkpt lat="43.45459" lon="0.70254">
        <ele>216.39</ele>
        <time>2016-10-21T09:10:52Z</time>
      </trkpt>
      <trkpt lat="43.45474" lon="0.70266">
        <ele>217.27</ele>
        <time>2016-10-21T09:11:08Z</time>
      </trkpt>
      <trkpt lat="43.45494" lon="0.70286">
        <ele>217.38</ele>
        <time>2016-10-21T09:11:29Z</time>
      </trkpt>
      <trkpt lat="43.4551" lon="0.70307">
        <ele>216.95</ele>
        <time>2016-10-21T09:11:50Z</time>
      </trkpt>
      <trkpt lat="43.45514" lon="0.70308">
        <ele>216.97</ele>
        <time>2016-10-21T09:12:13Z</time>
      </trkpt>
      <trkpt lat="43.45515" lon="0.70308">
        <ele>217.04</ele>
        <time>2016-10-21T09:12:40Z</time>
      </trkpt>
      <trkpt lat="43.45515" lon="0.70308">
        <ele>216.8</ele>
        <time>2016-10-21T09:12:48Z</time>
      </trkpt>
      <trkpt lat="43.45517" lon="0.70312">
        <ele>216.89</ele>
        <time>2016-10-21T09:12:51Z</time>
      </trkpt>
      <trkpt lat="43.45533" lon="0.70336">
        <ele>215.93</ele>
        <time>2016-10-21T09:13:09Z</time>
      </trkpt>
      <trkpt lat="43.4555" lon="0.70349">
        <ele>215.49</ele>
        <time>2016-10-21T09:13:24Z</time>
      </trkpt>
      <trkpt lat="43.45561" lon="0.70356">
        <ele>215.05</ele>
        <time>2016-10-21T09:13:33Z</time>
      </trkpt>
      <trkpt lat="43.45582" lon="0.70369">
        <ele>214.69</ele>
        <time>2016-10-21T09:13:50Z</time>
      </trkpt>
      <trkpt lat="43.45599" lon="0.70378">
        <ele>214.25</ele>
        <time>2016-10-21T09:14:07Z</time>
      </trkpt>
      <trkpt lat="43.45612" lon="0.7039">
        <ele>214.66</ele>
        <time>2016-10-21T09:14:23Z</time>
      </trkpt>
      <trkpt lat="43.45632" lon="0.704">
        <ele>212.03</ele>
        <time>2016-10-21T09:14:39Z</time>
      </trkpt>
      <trkpt lat="43.45659" lon="0.70414">
        <ele>209.34</ele>
        <time>2016-10-21T09:14:59Z</time>
      </trkpt>
      <trkpt lat="43.45687" lon="0.70425">
        <ele>208.39</ele>
        <time>2016-10-21T09:15:19Z</time>
      </trkpt>
      <trkpt lat="43.45719" lon="0.70441">
        <ele>207.17</ele>
        <time>2016-10-21T09:15:44Z</time>
      </trkpt>
      <trkpt lat="43.45742" lon="0.70454">
        <ele>207.98</ele>
        <time>2016-10-21T09:16:02Z</time>
      </trkpt>
      <trkpt lat="43.4576" lon="0.70464">
        <ele>209.53</ele>
        <time>2016-10-21T09:16:17Z</time>
      </trkpt>
      <trkpt lat="43.45778" lon="0.70471">
        <ele>211.34</ele>
        <time>2016-10-21T09:16:34Z</time>
      </trkpt>
      <trkpt lat="43.45803" lon="0.70483">
        <ele>213.33</ele>
        <time>2016-10-21T09:16:57Z</time>
      </trkpt>
      <trkpt lat="43.45824" lon="0.70494">
        <ele>213.91</ele>
        <time>2016-10-21T09:17:16Z</time>
      </trkpt>
      <trkpt lat="43.45846" lon="0.70506">
        <ele>213.4</ele>
        <time>2016-10-21T09:17:35Z</time>
      </trkpt>
      <trkpt lat="43.45861" lon="0.70518">
        <ele>213.93</ele>
        <time>2016-10-21T09:17:50Z</time>
      </trkpt>
      <trkpt lat="43.45884" lon="0.70529">
        <ele>213.29</ele>
        <time>2016-10-21T09:18:07Z</time>
      </trkpt>
      <trkpt lat="43.45906" lon="0.70543">
        <ele>211.71</ele>
        <time>2016-10-21T09:18:24Z</time>
      </trkpt>
      <trkpt lat="43.45929" lon="0.70559">
        <ele>210.05</ele>
        <time>2016-10-21T09:18:43Z</time>
      </trkpt>
      <trkpt lat="43.45951" lon="0.70575">
        <ele>208.1</ele>
        <time>2016-10-21T09:19:02Z</time>
      </trkpt>
      <trkpt lat="43.45972" lon="0.70589">
        <ele>206.33</ele>
        <time>2016-10-21T09:19:20Z</time>
      </trkpt>
      <trkpt lat="43.4599" lon="0.70604">
        <ele>205.33</ele>
        <time>2016-10-21T09:19:38Z</time>
      </trkpt>
      <trkpt lat="43.46006" lon="0.7062">
        <ele>205.87</ele>
        <time>2016-10-21T09:19:54Z</time>
      </trkpt>
      <trkpt lat="43.46022" lon="0.70635">
        <ele>205.17</ele>
        <time>2016-10-21T09:20:09Z</time>
      </trkpt>
      <trkpt lat="43.4603" lon="0.70644">
        <ele>205.02</ele>
        <time>2016-10-21T09:20:17Z</time>
      </trkpt>
      <trkpt lat="43.46038" lon="0.70652">
        <ele>204.76</ele>
        <time>2016-10-21T09:20:25Z</time>
      </trkpt>
      <trkpt lat="43.46056" lon="0.7067">
        <ele>204.33</ele>
        <time>2016-10-21T09:20:42Z</time>
      </trkpt>
      <trkpt lat="43.46074" lon="0.70689">
        <ele>204.54</ele>
        <time>2016-10-21T09:21:01Z</time>
      </trkpt>
      <trkpt lat="43.46086" lon="0.70699">
        <ele>203.61</ele>
        <time>2016-10-21T09:21:13Z</time>
      </trkpt>
      <trkpt lat="43.46094" lon="0.70705">
        <ele>203.4</ele>
        <time>2016-10-21T09:21:21Z</time>
      </trkpt>
      <trkpt lat="43.46095" lon="0.70708">
        <ele>203.91</ele>
        <time>2016-10-21T09:21:23Z</time>
      </trkpt>
      <trkpt lat="43.46098" lon="0.70715">
        <ele>204.37</ele>
        <time>2016-10-21T09:21:29Z</time>
      </trkpt>
      <trkpt lat="43.46108" lon="0.70731">
        <ele>204.94</ele>
        <time>2016-10-21T09:21:41Z</time>
      </trkpt>
      <trkpt lat="43.46114" lon="0.7074">
        <ele>205.98</ele>
        <time>2016-10-21T09:21:49Z</time>
      </trkpt>
      <trkpt lat="43.46127" lon="0.70761">
        <ele>207.11</ele>
        <time>2016-10-21T09:22:07Z</time>
      </trkpt>
      <trkpt lat="43.46139" lon="0.70774">
        <ele>206.56</ele>
        <time>2016-10-21T09:22:21Z</time>
      </trkpt>
      <trkpt lat="43.46142" lon="0.70776">
        <ele>206.45</ele>
        <time>2016-10-21T09:22:24Z</time>
      </trkpt>
      <trkpt lat="43.46161" lon="0.70791">
        <ele>206.28</ele>
        <time>2016-10-21T09:22:43Z</time>
      </trkpt>
      <trkpt lat="43.46171" lon="0.70801">
        <ele>206.63</ele>
        <time>2016-10-21T09:22:57Z</time>
      </trkpt>
      <trkpt lat="43.4619" lon="0.70822">
        <ele>207.22</ele>
        <time>2016-10-21T09:23:18Z</time>
      </trkpt>
      <trkpt lat="43.462" lon="0.7084">
        <ele>209.45</ele>
        <time>2016-10-21T09:23:37Z</time>
      </trkpt>
      <trkpt lat="43.46212" lon="0.70862">
        <ele>211.19</ele>
        <time>2016-10-21T09:23:57Z</time>
      </trkpt>
      <trkpt lat="43.46223" lon="0.70874">
        <ele>209.91</ele>
        <time>2016-10-21T09:24:08Z</time>
      </trkpt>
      <trkpt lat="43.46239" lon="0.70896">
        <ele>209.28</ele>
        <time>2016-10-21T09:24:29Z</time>
      </trkpt>
      <trkpt lat="43.46258" lon="0.70905">
        <ele>209.93</ele>
        <time>2016-10-21T09:24:44Z</time>
      </trkpt>
      <trkpt lat="43.46281" lon="0.70903">
        <ele>211.57</ele>
        <time>2016-10-21T09:25:01Z</time>
      </trkpt>
      <trkpt lat="43.46299" lon="0.70902">
        <ele>211.82</ele>
        <time>2016-10-21T09:25:15Z</time>
      </trkpt>
      <trkpt lat="43.46316" lon="0.70905">
        <ele>209.9</ele>
        <time>2016-10-21T09:25:30Z</time>
      </trkpt>
      <trkpt lat="43.46341" lon="0.7091">
        <ele>207.7</ele>
        <time>2016-10-21T09:25:53Z</time>
      </trkpt>
      <trkpt lat="43.46362" lon="0.70914">
        <ele>207.01</ele>
        <time>2016-10-21T09:26:09Z</time>
      </trkpt>
      <trkpt lat="43.46368" lon="0.70916">
        <ele>206.23</ele>
        <time>2016-10-21T09:26:14Z</time>
      </trkpt>
      <trkpt lat="43.46388" lon="0.70924">
        <ele>205</ele>
        <time>2016-10-21T09:26:31Z</time>
      </trkpt>
      <trkpt lat="43.46409" lon="0.70931">
        <ele>204.76</ele>
        <time>2016-10-21T09:26:47Z</time>
      </trkpt>
      <trkpt lat="43.4643" lon="0.70937">
        <ele>204.17</ele>
        <time>2016-10-21T09:27:03Z</time>
      </trkpt>
      <trkpt lat="43.46449" lon="0.70942">
        <ele>203.53</ele>
        <time>2016-10-21T09:27:17Z</time>
      </trkpt>
      <trkpt lat="43.46462" lon="0.70951">
        <ele>203.81</ele>
        <time>2016-10-21T09:27:31Z</time>
      </trkpt>
      <trkpt lat="43.46464" lon="0.70952">
        <ele>203.59</ele>
        <time>2016-10-21T09:27:33Z</time>
      </trkpt>
      <trkpt lat="43.46475" lon="0.70955">
        <ele>205.09</ele>
        <time>2016-10-21T09:27:46Z</time>
      </trkpt>
      <trkpt lat="43.4648" lon="0.70955">
        <ele>205.19</ele>
        <time>2016-10-21T09:27:50Z</time>
      </trkpt>
      <trkpt lat="43.46497" lon="0.70953">
        <ele>207</ele>
        <time>2016-10-21T09:28:05Z</time>
      </trkpt>
      <trkpt lat="43.46516" lon="0.7095">
        <ele>207.81</ele>
        <time>2016-10-21T09:28:20Z</time>
      </trkpt>
      <trkpt lat="43.46534" lon="0.70947">
        <ele>207.84</ele>
        <time>2016-10-21T09:28:35Z</time>
      </trkpt>
      <trkpt lat="43.46547" lon="0.70943">
        <ele>207.55</ele>
        <time>2016-10-21T09:28:49Z</time>
      </trkpt>
      <trkpt lat="43.46569" lon="0.70932">
        <ele>208.04</ele>
        <time>2016-10-21T09:29:08Z</time>
      </trkpt>
      <trkpt lat="43.46586" lon="0.70921">
        <ele>208.58</ele>
        <time>2016-10-21T09:29:22Z</time>
      </trkpt>
      <trkpt lat="43.46604" lon="0.70904">
        <ele>208.54</ele>
        <time>2016-10-21T09:29:39Z</time>
      </trkpt>
      <trkpt lat="43.46624" lon="0.70887">
        <ele>208.22</ele>
        <time>2016-10-21T09:29:59Z</time>
      </trkpt>
      <trkpt lat="43.46626" lon="0.70886">
        <ele>209.03</ele>
        <time>2016-10-21T09:30:21Z</time>
      </trkpt>
      <trkpt lat="43.46628" lon="0.70882">
        <ele>208.12</ele>
        <time>2016-10-21T09:30:41Z</time>
      </trkpt>
      <trkpt lat="43.46629" lon="0.7088">
        <ele>207.63</ele>
        <time>2016-10-21T09:30:43Z</time>
      </trkpt>
      <trkpt lat="43.46641" lon="0.70869">
        <ele>205.65</ele>
        <time>2016-10-21T09:31:02Z</time>
      </trkpt>
      <trkpt lat="43.46648" lon="0.70866">
        <ele>204.24</ele>
        <time>2016-10-21T09:31:10Z</time>
      </trkpt>
      <trkpt lat="43.46673" lon="0.70853">
        <ele>203.33</ele>
        <time>2016-10-21T09:31:35Z</time>
      </trkpt>
      <trkpt lat="43.46689" lon="0.70849">
        <ele>204.4</ele>
        <time>2016-10-21T09:31:50Z</time>
      </trkpt>
      <trkpt lat="43.46699" lon="0.70856">
        <ele>206.32</ele>
        <time>2016-10-21T09:32:02Z</time>
      </trkpt>
      <trkpt lat="43.46712" lon="0.70862">
        <ele>207.6</ele>
        <time>2016-10-21T09:32:12Z</time>
      </trkpt>
      <trkpt lat="43.46726" lon="0.70868">
        <ele>208</ele>
        <time>2016-10-21T09:32:25Z</time>
      </trkpt>
      <trkpt lat="43.46742" lon="0.70876">
        <ele>208.14</ele>
        <time>2016-10-21T09:32:40Z</time>
      </trkpt>
      <trkpt lat="43.46764" lon="0.70891">
        <ele>208.89</ele>
        <time>2016-10-21T09:33:03Z</time>
      </trkpt>
      <trkpt lat="43.46779" lon="0.70904">
        <ele>209.7</ele>
        <time>2016-10-21T09:33:19Z</time>
      </trkpt>
      <trkpt lat="43.46782" lon="0.70906">
        <ele>210.2</ele>
        <time>2016-10-21T09:33:22Z</time>
      </trkpt>
      <trkpt lat="43.46798" lon="0.7092">
        <ele>210.07</ele>
        <time>2016-10-21T09:33:38Z</time>
      </trkpt>
      <trkpt lat="43.46816" lon="0.70936">
        <ele>209.45</ele>
        <time>2016-10-21T09:33:54Z</time>
      </trkpt>
      <trkpt lat="43.46827" lon="0.70947">
        <ele>209.05</ele>
        <time>2016-10-21T09:34:09Z</time>
      </trkpt>
      <trkpt lat="43.46827" lon="0.70948">
        <ele>209.33</ele>
        <time>2016-10-21T09:34:10Z</time>
      </trkpt>
      <trkpt lat="43.46832" lon="0.70952">
        <ele>209.54</ele>
        <time>2016-10-21T09:34:14Z</time>
      </trkpt>
      <trkpt lat="43.46845" lon="0.70966">
        <ele>208.71</ele>
        <time>2016-10-21T09:34:29Z</time>
      </trkpt>
      <trkpt lat="43.46861" lon="0.70988">
        <ele>208.08</ele>
        <time>2016-10-21T09:34:47Z</time>
      </trkpt>
      <trkpt lat="43.4687" lon="0.71008">
        <ele>207.04</ele>
        <time>2016-10-21T09:35:03Z</time>
      </trkpt>
      <trkpt lat="43.46877" lon="0.71033">
        <ele>205.04</ele>
        <time>2016-10-21T09:35:24Z</time>
      </trkpt>
      <trkpt lat="43.46878" lon="0.71047">
        <ele>204.42</ele>
        <time>2016-10-21T09:35:33Z</time>
      </trkpt>
      <trkpt lat="43.46873" lon="0.71067">
        <ele>204.98</ele>
        <time>2016-10-21T09:35:46Z</time>
      </trkpt>
      <trkpt lat="43.46871" lon="0.7108">
        <ele>204.48</ele>
        <time>2016-10-21T09:35:53Z</time>
      </trkpt>
      <trkpt lat="43.46871" lon="0.71087">
        <ele>204.31</ele>
        <time>2016-10-21T09:35:57Z</time>
      </trkpt>
      <trkpt lat="43.4687" lon="0.71095">
        <ele>204.81</ele>
        <time>2016-10-21T09:36:01Z</time>
      </trkpt>
      <trkpt lat="43.46871" lon="0.711">
        <ele>204.73</ele>
        <time>2016-10-21T09:36:04Z</time>
      </trkpt>
      <trkpt lat="43.46875" lon="0.71108">
        <ele>204.23</ele>
        <time>2016-10-21T09:36:10Z</time>
      </trkpt>
      <trkpt lat="43.46878" lon="0.7111">
        <ele>204.06</ele>
        <time>2016-10-21T09:36:12Z</time>
      </trkpt>
      <trkpt lat="43.46895" lon="0.71125">
        <ele>204.45</ele>
        <time>2016-10-21T09:36:28Z</time>
      </trkpt>
      <trkpt lat="43.46905" lon="0.71128">
        <ele>204.31</ele>
        <time>2016-10-21T09:36:42Z</time>
      </trkpt>
      <trkpt lat="43.46917" lon="0.71135">
        <ele>207.05</ele>
        <time>2016-10-21T09:37:03Z</time>
      </trkpt>
      <trkpt lat="43.4692" lon="0.71136">
        <ele>207.35</ele>
        <time>2016-10-21T09:37:06Z</time>
      </trkpt>
      <trkpt lat="43.46922" lon="0.71138">
        <ele>207.18</ele>
        <time>2016-10-21T09:37:08Z</time>
      </trkpt>
      <trkpt lat="43.46936" lon="0.71146">
        <ele>208.27</ele>
        <time>2016-10-21T09:37:22Z</time>
      </trkpt>
      <trkpt lat="43.46951" lon="0.71155">
        <ele>210.18</ele>
        <time>2016-10-21T09:37:38Z</time>
      </trkpt>
      <trkpt lat="43.46961" lon="0.71163">
        <ele>210.92</ele>
        <time>2016-10-21T09:37:49Z</time>
      </trkpt>
      <trkpt lat="43.46963" lon="0.71164">
        <ele>209.99</ele>
        <time>2016-10-21T09:37:51Z</time>
      </trkpt>
      <trkpt lat="43.46977" lon="0.71177">
        <ele>210.67</ele>
        <time>2016-10-21T09:38:07Z</time>
      </trkpt>
      <trkpt lat="43.46989" lon="0.7119">
        <ele>210.62</ele>
        <time>2016-10-21T09:38:22Z</time>
      </trkpt>
      <trkpt lat="43.47004" lon="0.71204">
        <ele>209.69</ele>
        <time>2016-10-21T09:38:38Z</time>
      </trkpt>
      <trkpt lat="43.47017" lon="0.71216">
        <ele>210.03</ele>
        <time>2016-10-21T09:38:51Z</time>
      </trkpt>
      <trkpt lat="43.47035" lon="0.71232">
        <ele>208.97</ele>
        <time>2016-10-21T09:39:09Z</time>
      </trkpt>
      <trkpt lat="43.47055" lon="0.71243">
        <ele>208.7</ele>
        <time>2016-10-21T09:39:26Z</time>
      </trkpt>
      <trkpt lat="43.47073" lon="0.71252">
        <ele>207.86</ele>
        <time>2016-10-21T09:39:42Z</time>
      </trkpt>
      <trkpt lat="43.47096" lon="0.71266">
        <ele>208.13</ele>
        <time>2016-10-21T09:40:03Z</time>
      </trkpt>
      <trkpt lat="43.47114" lon="0.71277">
        <ele>206.72</ele>
        <time>2016-10-21T09:40:19Z</time>
      </trkpt>
      <trkpt lat="43.47128" lon="0.71286">
        <ele>205.24</ele>
        <time>2016-10-21T09:40:34Z</time>
      </trkpt>
      <trkpt lat="43.47132" lon="0.71288">
        <ele>203.85</ele>
        <time>2016-10-21T09:40:39Z</time>
      </trkpt>
      <trkpt lat="43.47154" lon="0.71294">
        <ele>201.23</ele>
        <time>2016-10-21T09:40:57Z</time>
      </trkpt>
      <trkpt lat="43.47174" lon="0.713">
        <ele>198.96</ele>
        <time>2016-10-21T09:41:14Z</time>
      </trkpt>
      <trkpt lat="43.47195" lon="0.71305">
        <ele>199.2</ele>
        <time>2016-10-21T09:41:30Z</time>
      </trkpt>
      <trkpt lat="43.47216" lon="0.71309">
        <ele>198.73</ele>
        <time>2016-10-21T09:41:47Z</time>
      </trkpt>
      <trkpt lat="43.47234" lon="0.71313">
        <ele>198.11</ele>
        <time>2016-10-21T09:42:01Z</time>
      </trkpt>
      <trkpt lat="43.47248" lon="0.71321">
        <ele>198.68</ele>
        <time>2016-10-21T09:42:15Z</time>
      </trkpt>
      <trkpt lat="43.47261" lon="0.7133">
        <ele>199.77</ele>
        <time>2016-10-21T09:42:31Z</time>
      </trkpt>
      <trkpt lat="43.47265" lon="0.71336">
        <ele>199.91</ele>
        <time>2016-10-21T09:42:36Z</time>
      </trkpt>
      <trkpt lat="43.47277" lon="0.71347">
        <ele>201.02</ele>
        <time>2016-10-21T09:42:50Z</time>
      </trkpt>
      <trkpt lat="43.47291" lon="0.71355">
        <ele>201.64</ele>
        <time>2016-10-21T09:43:03Z</time>
      </trkpt>
      <trkpt lat="43.47308" lon="0.71365">
        <ele>201.35</ele>
        <time>2016-10-21T09:43:20Z</time>
      </trkpt>
      <trkpt lat="43.4732" lon="0.71373">
        <ele>201.74</ele>
        <time>2016-10-21T09:43:34Z</time>
      </trkpt>
      <trkpt lat="43.4734" lon="0.71378">
        <ele>199.74</ele>
        <time>2016-10-21T09:43:56Z</time>
      </trkpt>
      <trkpt lat="43.47359" lon="0.71381">
        <ele>199.72</ele>
        <time>2016-10-21T09:44:14Z</time>
      </trkpt>
      <trkpt lat="43.47375" lon="0.71386">
        <ele>198.9</ele>
        <time>2016-10-21T09:44:28Z</time>
      </trkpt>
      <trkpt lat="43.47386" lon="0.71393">
        <ele>198.85</ele>
        <time>2016-10-21T09:44:39Z</time>
      </trkpt>
      <trkpt lat="43.47402" lon="0.714">
        <ele>199.49</ele>
        <time>2016-10-21T09:44:52Z</time>
      </trkpt>
      <trkpt lat="43.47403" lon="0.71401">
        <ele>199.75</ele>
        <time>2016-10-21T09:44:53Z</time>
      </trkpt>
      <trkpt lat="43.47417" lon="0.71416">
        <ele>199.06</ele>
        <time>2016-10-21T09:45:10Z</time>
      </trkpt>
      <trkpt lat="43.47434" lon="0.7143">
        <ele>197.72</ele>
        <time>2016-10-21T09:45:30Z</time>
      </trkpt>
      <trkpt lat="43.47438" lon="0.71434">
        <ele>197.76</ele>
        <time>2016-10-21T09:45:35Z</time>
      </trkpt>
      <trkpt lat="43.4744" lon="0.71436">
        <ele>197.82</ele>
        <time>2016-10-21T09:45:37Z</time>
      </trkpt>
      <trkpt lat="43.47464" lon="0.71455">
        <ele>196.78</ele>
        <time>2016-10-21T09:46:01Z</time>
      </trkpt>
      <trkpt lat="43.47488" lon="0.7147">
        <ele>196.18</ele>
        <time>2016-10-21T09:46:25Z</time>
      </trkpt>
      <trkpt lat="43.47511" lon="0.7148">
        <ele>195.4</ele>
        <time>2016-10-21T09:46:43Z</time>
      </trkpt>
      <trkpt lat="43.47528" lon="0.7149">
        <ele>196.4</ele>
        <time>2016-10-21T09:46:57Z</time>
      </trkpt>
      <trkpt lat="43.47551" lon="0.71504">
        <ele>195.76</ele>
        <time>2016-10-21T09:47:17Z</time>
      </trkpt>
      <trkpt lat="43.47561" lon="0.71514">
        <ele>195.57</ele>
        <time>2016-10-21T09:47:29Z</time>
      </trkpt>
      <trkpt lat="43.47577" lon="0.7152">
        <ele>195.9</ele>
        <time>2016-10-21T09:47:42Z</time>
      </trkpt>
      <trkpt lat="43.4759" lon="0.71528">
        <ele>195.93</ele>
        <time>2016-10-21T09:47:56Z</time>
      </trkpt>
      <trkpt lat="43.4761" lon="0.71539">
        <ele>195.15</ele>
        <time>2016-10-21T09:48:16Z</time>
      </trkpt>
      <trkpt lat="43.47627" lon="0.71554">
        <ele>194.48</ele>
        <time>2016-10-21T09:48:33Z</time>
      </trkpt>
      <trkpt lat="43.4764" lon="0.71566">
        <ele>194.42</ele>
        <time>2016-10-21T09:48:47Z</time>
      </trkpt>
      <trkpt lat="43.47657" lon="0.71579">
        <ele>194.09</ele>
        <time>2016-10-21T09:49:04Z</time>
      </trkpt>
      <trkpt lat="43.47671" lon="0.71593">
        <ele>193.58</ele>
        <time>2016-10-21T09:49:17Z</time>
      </trkpt>
      <trkpt lat="43.47687" lon="0.71603">
        <ele>193.72</ele>
        <time>2016-10-21T09:49:29Z</time>
      </trkpt>
      <trkpt lat="43.47704" lon="0.71613">
        <ele>194.11</ele>
        <time>2016-10-21T09:49:50Z</time>
      </trkpt>
      <trkpt lat="43.4772" lon="0.71619">
        <ele>195.08</ele>
        <time>2016-10-21T09:50:09Z</time>
      </trkpt>
      <trkpt lat="43.47721" lon="0.71622">
        <ele>194.46</ele>
        <time>2016-10-21T09:50:11Z</time>
      </trkpt>
      <trkpt lat="43.47726" lon="0.71627">
        <ele>194.39</ele>
        <time>2016-10-21T09:50:16Z</time>
      </trkpt>
      <trkpt lat="43.47756" lon="0.71632">
        <ele>193.84</ele>
        <time>2016-10-21T09:50:34Z</time>
      </trkpt>
      <trkpt lat="43.47782" lon="0.71636">
        <ele>193.76</ele>
        <time>2016-10-21T09:50:57Z</time>
      </trkpt>
      <trkpt lat="43.47804" lon="0.7164">
        <ele>193.31</ele>
        <time>2016-10-21T09:51:19Z</time>
      </trkpt>
      <trkpt lat="43.47822" lon="0.71644">
        <ele>193.71</ele>
        <time>2016-10-21T09:51:33Z</time>
      </trkpt>
      <trkpt lat="43.47853" lon="0.71641">
        <ele>193.69</ele>
        <time>2016-10-21T09:51:55Z</time>
      </trkpt>
      <trkpt lat="43.4786" lon="0.71641">
        <ele>193.87</ele>
        <time>2016-10-21T09:52:00Z</time>
      </trkpt>
      <trkpt lat="43.47867" lon="0.7164">
        <ele>194.02</ele>
        <time>2016-10-21T09:52:04Z</time>
      </trkpt>
      <trkpt lat="43.47875" lon="0.71639">
        <ele>194.48</ele>
        <time>2016-10-21T09:52:12Z</time>
      </trkpt>
      <trkpt lat="43.47896" lon="0.71637">
        <ele>194.65</ele>
        <time>2016-10-21T09:52:30Z</time>
      </trkpt>
      <trkpt lat="43.47911" lon="0.71634">
        <ele>195.26</ele>
        <time>2016-10-21T09:52:47Z</time>
      </trkpt>
      <trkpt lat="43.47933" lon="0.71636">
        <ele>197.01</ele>
        <time>2016-10-21T09:53:09Z</time>
      </trkpt>
      <trkpt lat="43.47951" lon="0.71637">
        <ele>200.31</ele>
        <time>2016-10-21T09:53:29Z</time>
      </trkpt>
      <trkpt lat="43.47961" lon="0.71639">
        <ele>201.93</ele>
        <time>2016-10-21T09:53:40Z</time>
      </trkpt>
      <trkpt lat="43.4798" lon="0.71646">
        <ele>204</ele>
        <time>2016-10-21T09:54:03Z</time>
      </trkpt>
      <trkpt lat="43.47995" lon="0.71653">
        <ele>200.22</ele>
        <time>2016-10-21T09:54:18Z</time>
      </trkpt>
      <trkpt lat="43.47997" lon="0.71654">
        <ele>200.01</ele>
        <time>2016-10-21T09:54:19Z</time>
      </trkpt>
      <trkpt lat="43.48007" lon="0.71666">
        <ele>198.05</ele>
        <time>2016-10-21T09:54:31Z</time>
      </trkpt>
      <trkpt lat="43.48021" lon="0.71682">
        <ele>196.28</ele>
        <time>2016-10-21T09:54:45Z</time>
      </trkpt>
      <trkpt lat="43.48044" lon="0.71673">
        <ele>196.04</ele>
        <time>2016-10-21T09:55:06Z</time>
      </trkpt>
      <trkpt lat="43.48075" lon="0.71664">
        <ele>195.88</ele>
        <time>2016-10-21T09:55:28Z</time>
      </trkpt>
      <trkpt lat="43.48095" lon="0.71675">
        <ele>195.05</ele>
        <time>2016-10-21T09:55:51Z</time>
      </trkpt>
      <trkpt lat="43.48103" lon="0.71681">
        <ele>194.93</ele>
        <time>2016-10-21T09:55:57Z</time>
      </trkpt>
      <trkpt lat="43.48131" lon="0.71702">
        <ele>194.27</ele>
        <time>2016-10-21T09:56:22Z</time>
      </trkpt>
      <trkpt lat="43.48149" lon="0.71727">
        <ele>194.35</ele>
        <time>2016-10-21T09:56:42Z</time>
      </trkpt>
      <trkpt lat="43.48156" lon="0.71761">
        <ele>196.66</ele>
        <time>2016-10-21T09:57:04Z</time>
      </trkpt>
      <trkpt lat="43.48159" lon="0.71766">
        <ele>197.25</ele>
        <time>2016-10-21T09:57:08Z</time>
      </trkpt>
      <trkpt lat="43.48164" lon="0.71776">
        <ele>197.21</ele>
        <time>2016-10-21T09:57:16Z</time>
      </trkpt>
      <trkpt lat="43.48166" lon="0.71779">
        <ele>197.81</ele>
        <time>2016-10-21T09:57:18Z</time>
      </trkpt>
      <trkpt lat="43.48174" lon="0.71792">
        <ele>197.05</ele>
        <time>2016-10-21T09:57:28Z</time>
      </trkpt>
      <trkpt lat="43.4818" lon="0.71802">
        <ele>197.32</ele>
        <time>2016-10-21T09:57:35Z</time>
      </trkpt>
      <trkpt lat="43.48184" lon="0.7181">
        <ele>196.87</ele>
        <time>2016-10-21T09:57:40Z</time>
      </trkpt>
      <trkpt lat="43.48197" lon="0.71821">
        <ele>196.51</ele>
        <time>2016-10-21T09:57:50Z</time>
      </trkpt>
      <trkpt lat="43.48215" lon="0.71836">
        <ele>195.55</ele>
        <time>2016-10-21T09:58:06Z</time>
      </trkpt>
      <trkpt lat="43.48228" lon="0.71849">
        <ele>194.62</ele>
        <time>2016-10-21T09:58:18Z</time>
      </trkpt>
      <trkpt lat="43.48235" lon="0.71852">
        <ele>193.95</ele>
        <time>2016-10-21T09:58:22Z</time>
      </trkpt>
      <trkpt lat="43.48245" lon="0.71863">
        <ele>193.36</ele>
        <time>2016-10-21T09:58:32Z</time>
      </trkpt>
      <trkpt lat="43.48252" lon="0.71871">
        <ele>192.8</ele>
        <time>2016-10-21T09:58:39Z</time>
      </trkpt>
      <trkpt lat="43.48267" lon="0.71889">
        <ele>191.86</ele>
        <time>2016-10-21T09:58:54Z</time>
      </trkpt>
      <trkpt lat="43.48277" lon="0.71899">
        <ele>191.49</ele>
        <time>2016-10-21T09:59:03Z</time>
      </trkpt>
      <trkpt lat="43.48292" lon="0.7191">
        <ele>191.91</ele>
        <time>2016-10-21T09:59:17Z</time>
      </trkpt>
      <trkpt lat="43.48304" lon="0.71916">
        <ele>191.71</ele>
        <time>2016-10-21T09:59:31Z</time>
      </trkpt>
      <trkpt lat="43.48311" lon="0.71922">
        <ele>192.09</ele>
        <time>2016-10-21T09:59:50Z</time>
      </trkpt>
      <trkpt lat="43.48312" lon="0.71924">
        <ele>191.99</ele>
        <time>2016-10-21T10:00:28Z</time>
      </trkpt>
      <trkpt lat="43.48312" lon="0.71925">
        <ele>192.11</ele>
        <time>2016-10-21T10:00:52Z</time>
      </trkpt>
      <trkpt lat="43.48315" lon="0.71924">
        <ele>192.16</ele>
        <time>2016-10-21T10:01:20Z</time>
      </trkpt>
      <trkpt lat="43.48312" lon="0.71926">
        <ele>192.33</ele>
        <time>2016-10-21T10:01:55Z</time>
      </trkpt>
      <trkpt lat="43.4831" lon="0.71925">
        <ele>191.99</ele>
        <time>2016-10-21T10:02:22Z</time>
      </trkpt>
      <trkpt lat="43.48312" lon="0.71922">
        <ele>192.17</ele>
        <time>2016-10-21T10:02:49Z</time>
      </trkpt>
      <trkpt lat="43.48313" lon="0.71926">
        <ele>191.75</ele>
        <time>2016-10-21T10:03:10Z</time>
      </trkpt>
      <trkpt lat="43.48307" lon="0.71924">
        <ele>192.01</ele>
        <time>2016-10-21T10:03:26Z</time>
      </trkpt>
      <trkpt lat="43.48318" lon="0.71932">
        <ele>192.02</ele>
        <time>2016-10-21T10:03:39Z</time>
      </trkpt>
      <trkpt lat="43.48332" lon="0.71948">
        <ele>192.47</ele>
        <time>2016-10-21T10:03:55Z</time>
      </trkpt>
      <trkpt lat="43.48341" lon="0.71965">
        <ele>191.79</ele>
        <time>2016-10-21T10:04:09Z</time>
      </trkpt>
      <trkpt lat="43.48357" lon="0.7199">
        <ele>192</ele>
        <time>2016-10-21T10:04:28Z</time>
      </trkpt>
      <trkpt lat="43.48374" lon="0.72017">
        <ele>192.18</ele>
        <time>2016-10-21T10:04:46Z</time>
      </trkpt>
      <trkpt lat="43.48379" lon="0.72024">
        <ele>192.54</ele>
        <time>2016-10-21T10:04:51Z</time>
      </trkpt>
      <trkpt lat="43.48391" lon="0.72041">
        <ele>192.09</ele>
        <time>2016-10-21T10:05:06Z</time>
      </trkpt>
      <trkpt lat="43.48409" lon="0.72063">
        <ele>192.61</ele>
        <time>2016-10-21T10:05:25Z</time>
      </trkpt>
      <trkpt lat="43.48419" lon="0.72074">
        <ele>192.11</ele>
        <time>2016-10-21T10:05:37Z</time>
      </trkpt>
      <trkpt lat="43.48449" lon="0.72088">
        <ele>189.54</ele>
        <time>2016-10-21T10:06:02Z</time>
      </trkpt>
      <trkpt lat="43.48469" lon="0.72097">
        <ele>188.68</ele>
        <time>2016-10-21T10:06:15Z</time>
      </trkpt>
      <trkpt lat="43.48471" lon="0.721">
        <ele>188.72</ele>
        <time>2016-10-21T10:06:16Z</time>
      </trkpt>
      <trkpt lat="43.4848" lon="0.72103">
        <ele>188.29</ele>
        <time>2016-10-21T10:06:23Z</time>
      </trkpt>
      <trkpt lat="43.4849" lon="0.72104">
        <ele>188.21</ele>
        <time>2016-10-21T10:06:27Z</time>
      </trkpt>
      <trkpt lat="43.48503" lon="0.72106">
        <ele>187.35</ele>
        <time>2016-10-21T10:06:34Z</time>
      </trkpt>
      <trkpt lat="43.48526" lon="0.72112">
        <ele>187.67</ele>
        <time>2016-10-21T10:06:47Z</time>
      </trkpt>
      <trkpt lat="43.48548" lon="0.72128">
        <ele>187.75</ele>
        <time>2016-10-21T10:07:07Z</time>
      </trkpt>
      <trkpt lat="43.48569" lon="0.72148">
        <ele>187.57</ele>
        <time>2016-10-21T10:07:29Z</time>
      </trkpt>
      <trkpt lat="43.48587" lon="0.72165">
        <ele>187.24</ele>
        <time>2016-10-21T10:07:49Z</time>
      </trkpt>
      <trkpt lat="43.48601" lon="0.72178">
        <ele>187.98</ele>
        <time>2016-10-21T10:08:06Z</time>
      </trkpt>
      <trkpt lat="43.48624" lon="0.72194">
        <ele>188.41</ele>
        <time>2016-10-21T10:08:29Z</time>
      </trkpt>
      <trkpt lat="43.48625" lon="0.72195">
        <ele>188.54</ele>
        <time>2016-10-21T10:08:30Z</time>
      </trkpt>
      <trkpt lat="43.48648" lon="0.72207">
        <ele>188.85</ele>
        <time>2016-10-21T10:08:46Z</time>
      </trkpt>
      <trkpt lat="43.48664" lon="0.72218">
        <ele>188.53</ele>
        <time>2016-10-21T10:09:00Z</time>
      </trkpt>
      <trkpt lat="43.48676" lon="0.72231">
        <ele>188.81</ele>
        <time>2016-10-21T10:09:14Z</time>
      </trkpt>
      <trkpt lat="43.48683" lon="0.72243">
        <ele>189.29</ele>
        <time>2016-10-21T10:09:24Z</time>
      </trkpt>
      <trkpt lat="43.487" lon="0.72265">
        <ele>188.87</ele>
        <time>2016-10-21T10:09:41Z</time>
      </trkpt>
      <trkpt lat="43.48712" lon="0.72281">
        <ele>187.81</ele>
        <time>2016-10-21T10:09:56Z</time>
      </trkpt>
      <trkpt lat="43.48725" lon="0.72299">
        <ele>188.24</ele>
        <time>2016-10-21T10:10:12Z</time>
      </trkpt>
      <trkpt lat="43.48726" lon="0.72301">
        <ele>188.32</ele>
        <time>2016-10-21T10:10:13Z</time>
      </trkpt>
      <trkpt lat="43.48737" lon="0.72321">
        <ele>188.01</ele>
        <time>2016-10-21T10:10:28Z</time>
      </trkpt>
      <trkpt lat="43.48746" lon="0.72338">
        <ele>188.08</ele>
        <time>2016-10-21T10:10:41Z</time>
      </trkpt>
      <trkpt lat="43.4875" lon="0.72344">
        <ele>187.81</ele>
        <time>2016-10-21T10:10:46Z</time>
      </trkpt>
      <trkpt lat="43.48762" lon="0.72364">
        <ele>187.24</ele>
        <time>2016-10-21T10:11:02Z</time>
      </trkpt>
      <trkpt lat="43.4877" lon="0.72375">
        <ele>186.5</ele>
        <time>2016-10-21T10:11:10Z</time>
      </trkpt>
      <trkpt lat="43.48775" lon="0.72384">
        <ele>187.54</ele>
        <time>2016-10-21T10:11:17Z</time>
      </trkpt>
      <trkpt lat="43.48794" lon="0.72397">
        <ele>187.81</ele>
        <time>2016-10-21T10:11:31Z</time>
      </trkpt>
      <trkpt lat="43.48817" lon="0.72411">
        <ele>187.06</ele>
        <time>2016-10-21T10:11:46Z</time>
      </trkpt>
      <trkpt lat="43.48833" lon="0.72422">
        <ele>185.98</ele>
        <time>2016-10-21T10:11:59Z</time>
      </trkpt>
      <trkpt lat="43.48843" lon="0.72434">
        <ele>186.13</ele>
        <time>2016-10-21T10:12:14Z</time>
      </trkpt>
      <trkpt lat="43.4886" lon="0.72442">
        <ele>186.23</ele>
        <time>2016-10-21T10:12:31Z</time>
      </trkpt>
      <trkpt lat="43.48876" lon="0.7245">
        <ele>185.58</ele>
        <time>2016-10-21T10:12:44Z</time>
      </trkpt>
      <trkpt lat="43.48893" lon="0.72459">
        <ele>184.83</ele>
        <time>2016-10-21T10:12:59Z</time>
      </trkpt>
      <trkpt lat="43.48909" lon="0.72469">
        <ele>185.06</ele>
        <time>2016-10-21T10:13:14Z</time>
      </trkpt>
      <trkpt lat="43.48926" lon="0.7248">
        <ele>183.63</ele>
        <time>2016-10-21T10:13:34Z</time>
      </trkpt>
      <trkpt lat="43.48948" lon="0.72492">
        <ele>183.52</ele>
        <time>2016-10-21T10:13:53Z</time>
      </trkpt>
      <trkpt lat="43.48966" lon="0.72503">
        <ele>182.63</ele>
        <time>2016-10-21T10:14:08Z</time>
      </trkpt>
      <trkpt lat="43.48983" lon="0.72512">
        <ele>183.12</ele>
        <time>2016-10-21T10:14:24Z</time>
      </trkpt>
      <trkpt lat="43.48996" lon="0.72523">
        <ele>183.61</ele>
        <time>2016-10-21T10:14:37Z</time>
      </trkpt>
      <trkpt lat="43.49014" lon="0.72535">
        <ele>183.61</ele>
        <time>2016-10-21T10:14:54Z</time>
      </trkpt>
      <trkpt lat="43.49032" lon="0.72547">
        <ele>182.72</ele>
        <time>2016-10-21T10:15:10Z</time>
      </trkpt>
      <trkpt lat="43.49062" lon="0.72561">
        <ele>182.06</ele>
        <time>2016-10-21T10:15:34Z</time>
      </trkpt>
      <trkpt lat="43.49074" lon="0.72568">
        <ele>182.63</ele>
        <time>2016-10-21T10:15:42Z</time>
      </trkpt>
      <trkpt lat="43.4908" lon="0.72569">
        <ele>182.58</ele>
        <time>2016-10-21T10:15:46Z</time>
      </trkpt>
      <trkpt lat="43.49086" lon="0.72574">
        <ele>182.75</ele>
        <time>2016-10-21T10:15:52Z</time>
      </trkpt>
      <trkpt lat="43.49092" lon="0.72577">
        <ele>183.51</ele>
        <time>2016-10-21T10:15:56Z</time>
      </trkpt>
      <trkpt lat="43.4911" lon="0.72588">
        <ele>182.53</ele>
        <time>2016-10-21T10:16:11Z</time>
      </trkpt>
      <trkpt lat="43.49125" lon="0.72598">
        <ele>183.17</ele>
        <time>2016-10-21T10:16:28Z</time>
      </trkpt>
      <trkpt lat="43.49143" lon="0.72604">
        <ele>183.23</ele>
        <time>2016-10-21T10:16:45Z</time>
      </trkpt>
      <trkpt lat="43.49164" lon="0.72609">
        <ele>183.16</ele>
        <time>2016-10-21T10:17:02Z</time>
      </trkpt>
      <trkpt lat="43.49179" lon="0.72614">
        <ele>182.96</ele>
        <time>2016-10-21T10:17:15Z</time>
      </trkpt>
      <trkpt lat="43.49196" lon="0.72625">
        <ele>183.17</ele>
        <time>2016-10-21T10:17:30Z</time>
      </trkpt>
      <trkpt lat="43.49213" lon="0.72636">
        <ele>182.99</ele>
        <time>2016-10-21T10:17:46Z</time>
      </trkpt>
      <trkpt lat="43.49214" lon="0.72637">
        <ele>183.43</ele>
        <time>2016-10-21T10:17:47Z</time>
      </trkpt>
      <trkpt lat="43.49221" lon="0.72643">
        <ele>183.74</ele>
        <time>2016-10-21T10:17:57Z</time>
      </trkpt>
      <trkpt lat="43.4924" lon="0.72659">
        <ele>182.58</ele>
        <time>2016-10-21T10:18:14Z</time>
      </trkpt>
      <trkpt lat="43.49257" lon="0.72673">
        <ele>181.64</ele>
        <time>2016-10-21T10:18:29Z</time>
      </trkpt>
      <trkpt lat="43.49262" lon="0.7268">
        <ele>181.69</ele>
        <time>2016-10-21T10:18:36Z</time>
      </trkpt>
      <trkpt lat="43.49275" lon="0.72696">
        <ele>182.6</ele>
        <time>2016-10-21T10:18:52Z</time>
      </trkpt>
      <trkpt lat="43.49295" lon="0.72705">
        <ele>183.68</ele>
        <time>2016-10-21T10:19:08Z</time>
      </trkpt>
      <trkpt lat="43.49317" lon="0.72724">
        <ele>183.38</ele>
        <time>2016-10-21T10:19:25Z</time>
      </trkpt>
      <trkpt lat="43.49333" lon="0.72741">
        <ele>183.34</ele>
        <time>2016-10-21T10:19:40Z</time>
      </trkpt>
      <trkpt lat="43.49352" lon="0.72758">
        <ele>182.79</ele>
        <time>2016-10-21T10:19:57Z</time>
      </trkpt>
      <trkpt lat="43.49375" lon="0.72771">
        <ele>183.25</ele>
        <time>2016-10-21T10:20:16Z</time>
      </trkpt>
      <trkpt lat="43.49386" lon="0.72779">
        <ele>184.65</ele>
        <time>2016-10-21T10:20:33Z</time>
      </trkpt>
      <trkpt lat="43.49386" lon="0.72779">
        <ele>184.16</ele>
        <time>2016-10-21T10:20:57Z</time>
      </trkpt>
      <trkpt lat="43.49386" lon="0.72777">
        <ele>184.27</ele>
        <time>2016-10-21T10:21:23Z</time>
      </trkpt>
      <trkpt lat="43.49385" lon="0.72777">
        <ele>184.4</ele>
        <time>2016-10-21T10:21:52Z</time>
      </trkpt>
      <trkpt lat="43.49384" lon="0.72778">
        <ele>184.41</ele>
        <time>2016-10-21T10:22:23Z</time>
      </trkpt>
      <trkpt lat="43.49384" lon="0.72778">
        <ele>184.38</ele>
        <time>2016-10-21T10:22:49Z</time>
      </trkpt>
      <trkpt lat="43.49387" lon="0.7278">
        <ele>184.31</ele>
        <time>2016-10-21T10:23:19Z</time>
      </trkpt>
      <trkpt lat="43.49396" lon="0.72782">
        <ele>185.68</ele>
        <time>2016-10-21T10:23:34Z</time>
      </trkpt>
      <trkpt lat="43.4941" lon="0.72786">
        <ele>186.4</ele>
        <time>2016-10-21T10:23:52Z</time>
      </trkpt>
      <trkpt lat="43.49425" lon="0.72788">
        <ele>186.85</ele>
        <time>2016-10-21T10:24:06Z</time>
      </trkpt>
      <trkpt lat="43.49442" lon="0.72793">
        <ele>186.39</ele>
        <time>2016-10-21T10:24:21Z</time>
      </trkpt>
      <trkpt lat="43.4945" lon="0.72793">
        <ele>185.02</ele>
        <time>2016-10-21T10:24:31Z</time>
      </trkpt>
      <trkpt lat="43.49456" lon="0.72795">
        <ele>183.65</ele>
        <time>2016-10-21T10:24:35Z</time>
      </trkpt>
      <trkpt lat="43.49474" lon="0.72806">
        <ele>184.17</ele>
        <time>2016-10-21T10:24:51Z</time>
      </trkpt>
      <trkpt lat="43.49491" lon="0.72817">
        <ele>184.49</ele>
        <time>2016-10-21T10:25:05Z</time>
      </trkpt>
      <trkpt lat="43.49507" lon="0.72829">
        <ele>184.04</ele>
        <time>2016-10-21T10:25:20Z</time>
      </trkpt>
      <trkpt lat="43.49521" lon="0.72844">
        <ele>183.97</ele>
        <time>2016-10-21T10:25:36Z</time>
      </trkpt>
      <trkpt lat="43.49529" lon="0.72858">
        <ele>184.29</ele>
        <time>2016-10-21T10:25:50Z</time>
      </trkpt>
      <trkpt lat="43.49543" lon="0.72875">
        <ele>184.46</ele>
        <time>2016-10-21T10:26:05Z</time>
      </trkpt>
      <trkpt lat="43.49559" lon="0.72895">
        <ele>184.47</ele>
        <time>2016-10-21T10:26:20Z</time>
      </trkpt>
      <trkpt lat="43.49575" lon="0.72915">
        <ele>184.15</ele>
        <time>2016-10-21T10:26:35Z</time>
      </trkpt>
      <trkpt lat="43.49577" lon="0.72919">
        <ele>183.69</ele>
        <time>2016-10-21T10:26:38Z</time>
      </trkpt>
      <trkpt lat="43.49592" lon="0.72942">
        <ele>184.12</ele>
        <time>2016-10-21T10:26:54Z</time>
      </trkpt>
      <trkpt lat="43.49596" lon="0.72949">
        <ele>184.15</ele>
        <time>2016-10-21T10:27:00Z</time>
      </trkpt>
      <trkpt lat="43.49611" lon="0.72974">
        <ele>183.89</ele>
        <time>2016-10-21T10:27:17Z</time>
      </trkpt>
      <trkpt lat="43.49631" lon="0.73006">
        <ele>182.74</ele>
        <time>2016-10-21T10:27:42Z</time>
      </trkpt>
      <trkpt lat="43.49648" lon="0.73029">
        <ele>181.27</ele>
        <time>2016-10-21T10:28:01Z</time>
      </trkpt>
      <trkpt lat="43.49667" lon="0.73052">
        <ele>180.82</ele>
        <time>2016-10-21T10:28:19Z</time>
      </trkpt>
      <trkpt lat="43.49685" lon="0.73073">
        <ele>181.02</ele>
        <time>2016-10-21T10:28:37Z</time>
      </trkpt>
      <trkpt lat="43.497" lon="0.73091">
        <ele>181.35</ele>
        <time>2016-10-21T10:28:54Z</time>
      </trkpt>
      <trkpt lat="43.49711" lon="0.73096">
        <ele>180.9</ele>
        <time>2016-10-21T10:29:07Z</time>
      </trkpt>
      <trkpt lat="43.49724" lon="0.73109">
        <ele>182.99</ele>
        <time>2016-10-21T10:29:30Z</time>
      </trkpt>
      <trkpt lat="43.49738" lon="0.73122">
        <ele>185.28</ele>
        <time>2016-10-21T10:29:48Z</time>
      </trkpt>
      <trkpt lat="43.49751" lon="0.73135">
        <ele>185.84</ele>
        <time>2016-10-21T10:30:07Z</time>
      </trkpt>
      <trkpt lat="43.49757" lon="0.73142">
        <ele>186.74</ele>
        <time>2016-10-21T10:30:16Z</time>
      </trkpt>
      <trkpt lat="43.49776" lon="0.73161">
        <ele>186.57</ele>
        <time>2016-10-21T10:30:37Z</time>
      </trkpt>
      <trkpt lat="43.49793" lon="0.73178">
        <ele>185.48</ele>
        <time>2016-10-21T10:30:55Z</time>
      </trkpt>
      <trkpt lat="43.49815" lon="0.73203">
        <ele>184.06</ele>
        <time>2016-10-21T10:31:20Z</time>
      </trkpt>
      <trkpt lat="43.49834" lon="0.73222">
        <ele>182.56</ele>
        <time>2016-10-21T10:31:40Z</time>
      </trkpt>
      <trkpt lat="43.49849" lon="0.73238">
        <ele>181.83</ele>
        <time>2016-10-21T10:31:56Z</time>
      </trkpt>
      <trkpt lat="43.49869" lon="0.73258">
        <ele>180.24</ele>
        <time>2016-10-21T10:32:16Z</time>
      </trkpt>
      <trkpt lat="43.49887" lon="0.73273">
        <ele>180.15</ele>
        <time>2016-10-21T10:32:32Z</time>
      </trkpt>
      <trkpt lat="43.49907" lon="0.7328">
        <ele>178.99</ele>
        <time>2016-10-21T10:32:50Z</time>
      </trkpt>
      <trkpt lat="43.49923" lon="0.73305">
        <ele>179.6</ele>
        <time>2016-10-21T10:33:10Z</time>
      </trkpt>
      <trkpt lat="43.49934" lon="0.7332">
        <ele>179.83</ele>
        <time>2016-10-21T10:33:25Z</time>
      </trkpt>
      <trkpt lat="43.49946" lon="0.7334">
        <ele>179.96</ele>
        <time>2016-10-21T10:33:42Z</time>
      </trkpt>
      <trkpt lat="43.49955" lon="0.73356">
        <ele>180.32</ele>
        <time>2016-10-21T10:33:58Z</time>
      </trkpt>
      <trkpt lat="43.49965" lon="0.73378">
        <ele>180.32</ele>
        <time>2016-10-21T10:34:16Z</time>
      </trkpt>
      <trkpt lat="43.49977" lon="0.73399">
        <ele>179.3</ele>
        <time>2016-10-21T10:34:34Z</time>
      </trkpt>
      <trkpt lat="43.49989" lon="0.73418">
        <ele>178.72</ele>
        <time>2016-10-21T10:34:51Z</time>
      </trkpt>
      <trkpt lat="43.50002" lon="0.73436">
        <ele>178.31</ele>
        <time>2016-10-21T10:35:10Z</time>
      </trkpt>
      <trkpt lat="43.50003" lon="0.73442">
        <ele>178.64</ele>
        <time>2016-10-21T10:35:37Z</time>
      </trkpt>
      <trkpt lat="43.50009" lon="0.7345">
        <ele>177.66</ele>
        <time>2016-10-21T10:35:55Z</time>
      </trkpt>
      <trkpt lat="43.50013" lon="0.73455">
        <ele>177.52</ele>
        <time>2016-10-21T10:36:05Z</time>
      </trkpt>
      <trkpt lat="43.5002" lon="0.73469">
        <ele>177.36</ele>
        <time>2016-10-21T10:36:15Z</time>
      </trkpt>
      <trkpt lat="43.50023" lon="0.73473">
        <ele>177.37</ele>
        <time>2016-10-21T10:36:19Z</time>
      </trkpt>
      <trkpt lat="43.50037" lon="0.73495">
        <ele>177.38</ele>
        <time>2016-10-21T10:36:37Z</time>
      </trkpt>
      <trkpt lat="43.5005" lon="0.7352">
        <ele>177.89</ele>
        <time>2016-10-21T10:36:55Z</time>
      </trkpt>
      <trkpt lat="43.50064" lon="0.73546">
        <ele>177.39</ele>
        <time>2016-10-21T10:37:13Z</time>
      </trkpt>
      <trkpt lat="43.50078" lon="0.73576">
        <ele>176.81</ele>
        <time>2016-10-21T10:37:33Z</time>
      </trkpt>
      <trkpt lat="43.50092" lon="0.73607">
        <ele>176.65</ele>
        <time>2016-10-21T10:37:52Z</time>
      </trkpt>
      <trkpt lat="43.50094" lon="0.73617">
        <ele>176.85</ele>
        <time>2016-10-21T10:38:05Z</time>
      </trkpt>
      <trkpt lat="43.50095" lon="0.73618">
        <ele>177</ele>
        <time>2016-10-21T10:38:06Z</time>
      </trkpt>
      <trkpt lat="43.50097" lon="0.73621">
        <ele>176.53</ele>
        <time>2016-10-21T10:38:09Z</time>
      </trkpt>
      <trkpt lat="43.50112" lon="0.73641">
        <ele>174.89</ele>
        <time>2016-10-21T10:38:27Z</time>
      </trkpt>
      <trkpt lat="43.50128" lon="0.73662">
        <ele>175.2</ele>
        <time>2016-10-21T10:38:48Z</time>
      </trkpt>
      <trkpt lat="43.50134" lon="0.7367">
        <ele>175.87</ele>
        <time>2016-10-21T10:39:02Z</time>
      </trkpt>
      <trkpt lat="43.5013" lon="0.73669">
        <ele>175.66</ele>
        <time>2016-10-21T10:39:06Z</time>
      </trkpt>
      <trkpt lat="43.50123" lon="0.73674">
        <ele>175.95</ele>
        <time>2016-10-21T10:39:23Z</time>
      </trkpt>
      <trkpt lat="43.50124" lon="0.73672">
        <ele>175.79</ele>
        <time>2016-10-21T10:39:37Z</time>
      </trkpt>
      <trkpt lat="43.50125" lon="0.73672">
        <ele>175.74</ele>
        <time>2016-10-21T10:39:39Z</time>
      </trkpt>
      <trkpt lat="43.50126" lon="0.73672">
        <ele>176.12</ele>
        <time>2016-10-21T10:39:41Z</time>
      </trkpt>
      <trkpt lat="43.50146" lon="0.73684">
        <ele>175.86</ele>
        <time>2016-10-21T10:39:59Z</time>
      </trkpt>
      <trkpt lat="43.50159" lon="0.73696">
        <ele>177.39</ele>
        <time>2016-10-21T10:40:14Z</time>
      </trkpt>
      <trkpt lat="43.50172" lon="0.73711">
        <ele>178.85</ele>
        <time>2016-10-21T10:40:31Z</time>
      </trkpt>
      <trkpt lat="43.50185" lon="0.73724">
        <ele>180.1</ele>
        <time>2016-10-21T10:40:47Z</time>
      </trkpt>
      <trkpt lat="43.50203" lon="0.73738">
        <ele>179.83</ele>
        <time>2016-10-21T10:41:02Z</time>
      </trkpt>
      <trkpt lat="43.50223" lon="0.73758">
        <ele>177.97</ele>
        <time>2016-10-21T10:41:20Z</time>
      </trkpt>
      <trkpt lat="43.50244" lon="0.7378">
        <ele>175.77</ele>
        <time>2016-10-21T10:41:40Z</time>
      </trkpt>
      <trkpt lat="43.50262" lon="0.73801">
        <ele>176.62</ele>
        <time>2016-10-21T10:41:58Z</time>
      </trkpt>
      <trkpt lat="43.50277" lon="0.73817">
        <ele>176.9</ele>
        <time>2016-10-21T10:42:12Z</time>
      </trkpt>
      <trkpt lat="43.50295" lon="0.73832">
        <ele>176.83</ele>
        <time>2016-10-21T10:42:29Z</time>
      </trkpt>
      <trkpt lat="43.50314" lon="0.73844">
        <ele>176.3</ele>
        <time>2016-10-21T10:42:46Z</time>
      </trkpt>
      <trkpt lat="43.50329" lon="0.73856">
        <ele>176.87</ele>
        <time>2016-10-21T10:43:00Z</time>
      </trkpt>
      <trkpt lat="43.50346" lon="0.73873">
        <ele>177.79</ele>
        <time>2016-10-21T10:43:18Z</time>
      </trkpt>
      <trkpt lat="43.5036" lon="0.73889">
        <ele>177.78</ele>
        <time>2016-10-21T10:43:34Z</time>
      </trkpt>
      <trkpt lat="43.50372" lon="0.73906">
        <ele>176.36</ele>
        <time>2016-10-21T10:43:51Z</time>
      </trkpt>
      <trkpt lat="43.50385" lon="0.73923">
        <ele>176.51</ele>
        <time>2016-10-21T10:44:11Z</time>
      </trkpt>
      <trkpt lat="43.50395" lon="0.73932">
        <ele>176.15</ele>
        <time>2016-10-21T10:44:27Z</time>
      </trkpt>
      <trkpt lat="43.50401" lon="0.73935">
        <ele>175.72</ele>
        <time>2016-10-21T10:44:34Z</time>
      </trkpt>
      <trkpt lat="43.50403" lon="0.73936">
        <ele>176.03</ele>
        <time>2016-10-21T10:44:36Z</time>
      </trkpt>
      <trkpt lat="43.50419" lon="0.73943">
        <ele>174.61</ele>
        <time>2016-10-21T10:44:53Z</time>
      </trkpt>
      <trkpt lat="43.50429" lon="0.73947">
        <ele>173.85</ele>
        <time>2016-10-21T10:45:09Z</time>
      </trkpt>
      <trkpt lat="43.50456" lon="0.73956">
        <ele>173.45</ele>
        <time>2016-10-21T10:45:34Z</time>
      </trkpt>
      <trkpt lat="43.50462" lon="0.73957">
        <ele>173.43</ele>
        <time>2016-10-21T10:45:52Z</time>
      </trkpt>
      <trkpt lat="43.50473" lon="0.7396">
        <ele>173.36</ele>
        <time>2016-10-21T10:46:05Z</time>
      </trkpt>
      <trkpt lat="43.50476" lon="0.73961">
        <ele>172.96</ele>
        <time>2016-10-21T10:46:08Z</time>
      </trkpt>
      <trkpt lat="43.5049" lon="0.73972">
        <ele>174.39</ele>
        <time>2016-10-21T10:46:25Z</time>
      </trkpt>
      <trkpt lat="43.50506" lon="0.73981">
        <ele>174.66</ele>
        <time>2016-10-21T10:46:43Z</time>
      </trkpt>
      <trkpt lat="43.5052" lon="0.73984">
        <ele>175.3</ele>
        <time>2016-10-21T10:46:58Z</time>
      </trkpt>
      <trkpt lat="43.5054" lon="0.73986">
        <ele>177.06</ele>
        <time>2016-10-21T10:47:18Z</time>
      </trkpt>
      <trkpt lat="43.50563" lon="0.73976">
        <ele>178.46</ele>
        <time>2016-10-21T10:47:39Z</time>
      </trkpt>
      <trkpt lat="43.50583" lon="0.73965">
        <ele>177.61</ele>
        <time>2016-10-21T10:47:59Z</time>
      </trkpt>
      <trkpt lat="43.50604" lon="0.73948">
        <ele>176.58</ele>
        <time>2016-10-21T10:48:21Z</time>
      </trkpt>
      <trkpt lat="43.5062" lon="0.73941">
        <ele>175.99</ele>
        <time>2016-10-21T10:48:37Z</time>
      </trkpt>
      <trkpt lat="43.50641" lon="0.73938">
        <ele>175.45</ele>
        <time>2016-10-21T10:48:57Z</time>
      </trkpt>
      <trkpt lat="43.5066" lon="0.73935">
        <ele>175.55</ele>
        <time>2016-10-21T10:49:14Z</time>
      </trkpt>
      <trkpt lat="43.50674" lon="0.73942">
        <ele>174.3</ele>
        <time>2016-10-21T10:49:28Z</time>
      </trkpt>
      <trkpt lat="43.50691" lon="0.73958">
        <ele>174.19</ele>
        <time>2016-10-21T10:49:46Z</time>
      </trkpt>
      <trkpt lat="43.50706" lon="0.73973">
        <ele>172.83</ele>
        <time>2016-10-21T10:50:04Z</time>
      </trkpt>
      <trkpt lat="43.5071" lon="0.73979">
        <ele>172.77</ele>
        <time>2016-10-21T10:50:11Z</time>
      </trkpt>
      <trkpt lat="43.50725" lon="0.74001">
        <ele>171.15</ele>
        <time>2016-10-21T10:50:33Z</time>
      </trkpt>
      <trkpt lat="43.50742" lon="0.74017">
        <ele>170.13</ele>
        <time>2016-10-21T10:50:50Z</time>
      </trkpt>
      <trkpt lat="43.50761" lon="0.7404">
        <ele>170.45</ele>
        <time>2016-10-21T10:51:13Z</time>
      </trkpt>
      <trkpt lat="43.50776" lon="0.74063">
        <ele>172</ele>
        <time>2016-10-21T10:51:33Z</time>
      </trkpt>
      <trkpt lat="43.50789" lon="0.74088">
        <ele>171.26</ele>
        <time>2016-10-21T10:51:49Z</time>
      </trkpt>
      <trkpt lat="43.50792" lon="0.74095">
        <ele>170.58</ele>
        <time>2016-10-21T10:51:54Z</time>
      </trkpt>
      <trkpt lat="43.50802" lon="0.74114">
        <ele>169.92</ele>
        <time>2016-10-21T10:52:09Z</time>
      </trkpt>
      <trkpt lat="43.50812" lon="0.74132">
        <ele>170.48</ele>
        <time>2016-10-21T10:52:24Z</time>
      </trkpt>
      <trkpt lat="43.50827" lon="0.7415">
        <ele>170.03</ele>
        <time>2016-10-21T10:52:41Z</time>
      </trkpt>
      <trkpt lat="43.50828" lon="0.74151">
        <ele>170.26</ele>
        <time>2016-10-21T10:52:42Z</time>
      </trkpt>
      <trkpt lat="43.50841" lon="0.74165">
        <ele>170.4</ele>
        <time>2016-10-21T10:52:59Z</time>
      </trkpt>
      <trkpt lat="43.50846" lon="0.74177">
        <ele>171.51</ele>
        <time>2016-10-21T10:53:09Z</time>
      </trkpt>
      <trkpt lat="43.50857" lon="0.74195">
        <ele>172.66</ele>
        <time>2016-10-21T10:53:26Z</time>
      </trkpt>
      <trkpt lat="43.50868" lon="0.74211">
        <ele>173.37</ele>
        <time>2016-10-21T10:53:43Z</time>
      </trkpt>
      <trkpt lat="43.50882" lon="0.74229">
        <ele>174.31</ele>
        <time>2016-10-21T10:54:02Z</time>
      </trkpt>
      <trkpt lat="43.50899" lon="0.74248">
        <ele>175.45</ele>
        <time>2016-10-21T10:54:21Z</time>
      </trkpt>
      <trkpt lat="43.50902" lon="0.7425">
        <ele>175.35</ele>
        <time>2016-10-21T10:54:24Z</time>
      </trkpt>
      <trkpt lat="43.5092" lon="0.74269">
        <ele>174.65</ele>
        <time>2016-10-21T10:54:41Z</time>
      </trkpt>
      <trkpt lat="43.50926" lon="0.74278">
        <ele>174.48</ele>
        <time>2016-10-21T10:54:48Z</time>
      </trkpt>
      <trkpt lat="43.50935" lon="0.74287">
        <ele>174.67</ele>
        <time>2016-10-21T10:54:57Z</time>
      </trkpt>
      <trkpt lat="43.50942" lon="0.74296">
        <ele>175.18</ele>
        <time>2016-10-21T10:55:04Z</time>
      </trkpt>
      <trkpt lat="43.50944" lon="0.74302">
        <ele>175.62</ele>
        <time>2016-10-21T10:55:09Z</time>
      </trkpt>
      <trkpt lat="43.50959" lon="0.74321">
        <ele>176.1</ele>
        <time>2016-10-21T10:55:26Z</time>
      </trkpt>
      <trkpt lat="43.50973" lon="0.74339">
        <ele>174.85</ele>
        <time>2016-10-21T10:55:40Z</time>
      </trkpt>
      <trkpt lat="43.50991" lon="0.74364">
        <ele>172.6</ele>
        <time>2016-10-21T10:55:59Z</time>
      </trkpt>
      <trkpt lat="43.51003" lon="0.74379">
        <ele>172.38</ele>
        <time>2016-10-21T10:56:14Z</time>
      </trkpt>
      <trkpt lat="43.51013" lon="0.74386">
        <ele>172.18</ele>
        <time>2016-10-21T10:56:27Z</time>
      </trkpt>
      <trkpt lat="43.51014" lon="0.74387">
        <ele>171.54</ele>
        <time>2016-10-21T10:56:28Z</time>
      </trkpt>
      <trkpt lat="43.5102" lon="0.74391">
        <ele>171.78</ele>
        <time>2016-10-21T10:56:34Z</time>
      </trkpt>
      <trkpt lat="43.51035" lon="0.74405">
        <ele>172.28</ele>
        <time>2016-10-21T10:56:49Z</time>
      </trkpt>
      <trkpt lat="43.51045" lon="0.7441">
        <ele>173.09</ele>
        <time>2016-10-21T10:57:10Z</time>
      </trkpt>
      <trkpt lat="43.51045" lon="0.7441">
        <ele>173.98</ele>
        <time>2016-10-21T10:57:27Z</time>
      </trkpt>
      <trkpt lat="43.51048" lon="0.74412">
        <ele>174.02</ele>
        <time>2016-10-21T10:57:41Z</time>
      </trkpt>
      <trkpt lat="43.51049" lon="0.74408">
        <ele>174.04</ele>
        <time>2016-10-21T10:58:09Z</time>
      </trkpt>
      <trkpt lat="43.51051" lon="0.74411">
        <ele>173.99</ele>
        <time>2016-10-21T10:58:37Z</time>
      </trkpt>
      <trkpt lat="43.51053" lon="0.74412">
        <ele>173.87</ele>
        <time>2016-10-21T10:59:07Z</time>
      </trkpt>
      <trkpt lat="43.51052" lon="0.74411">
        <ele>174.77</ele>
        <time>2016-10-21T10:59:34Z</time>
      </trkpt>
      <trkpt lat="43.51054" lon="0.74416">
        <ele>174.7</ele>
        <time>2016-10-21T11:00:03Z</time>
      </trkpt>
      <trkpt lat="43.5106" lon="0.74418">
        <ele>174.65</ele>
        <time>2016-10-21T11:00:25Z</time>
      </trkpt>
      <trkpt lat="43.51068" lon="0.74422">
        <ele>175.28</ele>
        <time>2016-10-21T11:00:40Z</time>
      </trkpt>
      <trkpt lat="43.51075" lon="0.74433">
        <ele>175.78</ele>
        <time>2016-10-21T11:00:56Z</time>
      </trkpt>
      <trkpt lat="43.5108" lon="0.74437">
        <ele>175.8</ele>
        <time>2016-10-21T11:01:12Z</time>
      </trkpt>
      <trkpt lat="43.5108" lon="0.74437">
        <ele>175.78</ele>
        <time>2016-10-21T11:01:44Z</time>
      </trkpt>
      <trkpt lat="43.5108" lon="0.74436">
        <ele>176.01</ele>
        <time>2016-10-21T11:02:22Z</time>
      </trkpt>
      <trkpt lat="43.5108" lon="0.74436">
        <ele>176.47</ele>
        <time>2016-10-21T11:02:52Z</time>
      </trkpt>
      <trkpt lat="43.51079" lon="0.74438">
        <ele>176.33</ele>
        <time>2016-10-21T11:03:17Z</time>
      </trkpt>
      <trkpt lat="43.5108" lon="0.74438">
        <ele>176.76</ele>
        <time>2016-10-21T11:04:18Z</time>
      </trkpt>
      <trkpt lat="43.5108" lon="0.74436">
        <ele>176.34</ele>
        <time>2016-10-21T11:04:50Z</time>
      </trkpt>
      <trkpt lat="43.5108" lon="0.74436">
        <ele>176.51</ele>
        <time>2016-10-21T11:05:38Z</time>
      </trkpt>
      <trkpt lat="43.51079" lon="0.74436">
        <ele>176.36</ele>
        <time>2016-10-21T11:06:20Z</time>
      </trkpt>
      <trkpt lat="43.51079" lon="0.74437">
        <ele>176.05</ele>
        <time>2016-10-21T11:07:00Z</time>
      </trkpt>
      <trkpt lat="43.51079" lon="0.74436">
        <ele>176.2</ele>
        <time>2016-10-21T11:07:38Z</time>
      </trkpt>
      <trkpt lat="43.51078" lon="0.74437">
        <ele>177.08</ele>
        <time>2016-10-21T11:08:28Z</time>
      </trkpt>
      <trkpt lat="43.51079" lon="0.74436">
        <ele>176.59</ele>
        <time>2016-10-21T11:09:19Z</time>
      </trkpt>
      <trkpt lat="43.5108" lon="0.74435">
        <ele>177.55</ele>
        <time>2016-10-21T11:10:16Z</time>
      </trkpt>
      <trkpt lat="43.51081" lon="0.74437">
        <ele>177.35</ele>
        <time>2016-10-21T11:11:01Z</time>
      </trkpt>
      <trkpt lat="43.5108" lon="0.7444">
        <ele>176.92</ele>
        <time>2016-10-21T11:11:55Z</time>
      </trkpt>
      <trkpt lat="43.5108" lon="0.74437">
        <ele>177.29</ele>
        <time>2016-10-21T11:12:42Z</time>
      </trkpt>
      <trkpt lat="43.5108" lon="0.7444">
        <ele>177.45</ele>
        <time>2016-10-21T11:13:33Z</time>
      </trkpt>
      <trkpt lat="43.51081" lon="0.74438">
        <ele>178.02</ele>
        <time>2016-10-21T11:14:26Z</time>
      </trkpt>
      <trkpt lat="43.51081" lon="0.7444">
        <ele>177.61</ele>
        <time>2016-10-21T11:15:11Z</time>
      </trkpt>
      <trkpt lat="43.5108" lon="0.74442">
        <ele>178.48</ele>
        <time>2016-10-21T11:15:49Z</time>
      </trkpt>
      <trkpt lat="43.51081" lon="0.74441">
        <ele>178.69</ele>
        <time>2016-10-21T11:16:44Z</time>
      </trkpt>
      <trkpt lat="43.51082" lon="0.74442">
        <ele>179.05</ele>
        <time>2016-10-21T11:17:36Z</time>
      </trkpt>
      <trkpt lat="43.5108" lon="0.74442">
        <ele>179.73</ele>
        <time>2016-10-21T11:18:30Z</time>
      </trkpt>
      <trkpt lat="43.51082" lon="0.74443">
        <ele>179.66</ele>
        <time>2016-10-21T11:19:21Z</time>
      </trkpt>
      <trkpt lat="43.51082" lon="0.74442">
        <ele>180.15</ele>
        <time>2016-10-21T11:20:16Z</time>
      </trkpt>
      <trkpt lat="43.51082" lon="0.74441">
        <ele>180.16</ele>
        <time>2016-10-21T11:21:02Z</time>
      </trkpt>
      <trkpt lat="43.51081" lon="0.74443">
        <ele>180.54</ele>
        <time>2016-10-21T11:21:48Z</time>
      </trkpt>
      <trkpt lat="43.51081" lon="0.74441">
        <ele>180.52</ele>
        <time>2016-10-21T11:22:47Z</time>
      </trkpt>
      <trkpt lat="43.51081" lon="0.7444">
        <ele>181.05</ele>
        <time>2016-10-21T11:23:45Z</time>
      </trkpt>
      <trkpt lat="43.51081" lon="0.74439">
        <ele>180.77</ele>
        <time>2016-10-21T11:24:38Z</time>
      </trkpt>
      <trkpt lat="43.5108" lon="0.74439">
        <ele>181.79</ele>
        <time>2016-10-21T11:25:30Z</time>
      </trkpt>
      <trkpt lat="43.51081" lon="0.74439">
        <ele>181.27</ele>
        <time>2016-10-21T11:26:17Z</time>
      </trkpt>
      <trkpt lat="43.51081" lon="0.74441">
        <ele>181.79</ele>
        <time>2016-10-21T11:27:08Z</time>
      </trkpt>
      <trkpt lat="43.5108" lon="0.7444">
        <ele>182.19</ele>
        <time>2016-10-21T11:27:51Z</time>
      </trkpt>
      <trkpt lat="43.51082" lon="0.74434">
        <ele>181.58</ele>
        <time>2016-10-21T11:28:21Z</time>
      </trkpt>
      <trkpt lat="43.51082" lon="0.74434">
        <ele>182.18</ele>
        <time>2016-10-21T11:28:43Z</time>
      </trkpt>
      <trkpt lat="43.51083" lon="0.74437">
        <ele>182.16</ele>
        <time>2016-10-21T11:29:13Z</time>
      </trkpt>
      <trkpt lat="43.51084" lon="0.74438">
        <ele>182.24</ele>
        <time>2016-10-21T11:29:44Z</time>
      </trkpt>
      <trkpt lat="43.51082" lon="0.74436">
        <ele>181.97</ele>
        <time>2016-10-21T11:30:13Z</time>
      </trkpt>
      <trkpt lat="43.5108" lon="0.74438">
        <ele>182.51</ele>
        <time>2016-10-21T11:30:44Z</time>
      </trkpt>
      <trkpt lat="43.51079" lon="0.74437">
        <ele>182.36</ele>
        <time>2016-10-21T11:31:15Z</time>
      </trkpt>
      <trkpt lat="43.51078" lon="0.74435">
        <ele>182.66</ele>
        <time>2016-10-21T11:31:46Z</time>
      </trkpt>
      <trkpt lat="43.51078" lon="0.74436">
        <ele>182.76</ele>
        <time>2016-10-21T11:32:18Z</time>
      </trkpt>
      <trkpt lat="43.51078" lon="0.74435">
        <ele>182.92</ele>
        <time>2016-10-21T11:32:48Z</time>
      </trkpt>
      <trkpt lat="43.51077" lon="0.74436">
        <ele>183.25</ele>
        <time>2016-10-21T11:33:15Z</time>
      </trkpt>
      <trkpt lat="43.51076" lon="0.74434">
        <ele>183.59</ele>
        <time>2016-10-21T11:33:39Z</time>
      </trkpt>
      <trkpt lat="43.51075" lon="0.74433">
        <ele>183.08</ele>
        <time>2016-10-21T11:34:10Z</time>
      </trkpt>
      <trkpt lat="43.51075" lon="0.74433">
        <ele>183.44</ele>
        <time>2016-10-21T11:34:50Z</time>
      </trkpt>
      <trkpt lat="43.51076" lon="0.74433">
        <ele>183.46</ele>
        <time>2016-10-21T11:35:23Z</time>
      </trkpt>
      <trkpt lat="43.51077" lon="0.74438">
        <ele>183.86</ele>
        <time>2016-10-21T11:35:43Z</time>
      </trkpt>
      <trkpt lat="43.51084" lon="0.74449">
        <ele>184.48</ele>
        <time>2016-10-21T11:36:00Z</time>
      </trkpt>
      <trkpt lat="43.51094" lon="0.74459">
        <ele>185.72</ele>
        <time>2016-10-21T11:36:13Z</time>
      </trkpt>
      <trkpt lat="43.51104" lon="0.74469">
        <ele>185.91</ele>
        <time>2016-10-21T11:36:26Z</time>
      </trkpt>
      <trkpt lat="43.5112" lon="0.74479">
        <ele>186.11</ele>
        <time>2016-10-21T11:36:44Z</time>
      </trkpt>
      <trkpt lat="43.51136" lon="0.74486">
        <ele>183.99</ele>
        <time>2016-10-21T11:37:05Z</time>
      </trkpt>
      <trkpt lat="43.51158" lon="0.74491">
        <ele>184.91</ele>
        <time>2016-10-21T11:37:27Z</time>
      </trkpt>
      <trkpt lat="43.51178" lon="0.74496">
        <ele>185.29</ele>
        <time>2016-10-21T11:37:51Z</time>
      </trkpt>
      <trkpt lat="43.51195" lon="0.745">
        <ele>183.63</ele>
        <time>2016-10-21T11:38:12Z</time>
      </trkpt>
      <trkpt lat="43.51198" lon="0.74501">
        <ele>182.92</ele>
        <time>2016-10-21T11:38:15Z</time>
      </trkpt>
      <trkpt lat="43.51222" lon="0.7451">
        <ele>181.67</ele>
        <time>2016-10-21T11:38:35Z</time>
      </trkpt>
      <trkpt lat="43.51238" lon="0.74519">
        <ele>182.7</ele>
        <time>2016-10-21T11:38:51Z</time>
      </trkpt>
      <trkpt lat="43.51245" lon="0.74526">
        <ele>182.53</ele>
        <time>2016-10-21T11:39:07Z</time>
      </trkpt>
      <trkpt lat="43.51248" lon="0.74529">
        <ele>182.35</ele>
        <time>2016-10-21T11:39:11Z</time>
      </trkpt>
      <trkpt lat="43.51262" lon="0.74541">
        <ele>183.13</ele>
        <time>2016-10-21T11:39:25Z</time>
      </trkpt>
      <trkpt lat="43.51275" lon="0.74552">
        <ele>184.72</ele>
        <time>2016-10-21T11:39:40Z</time>
      </trkpt>
      <trkpt lat="43.51295" lon="0.74559">
        <ele>184.29</ele>
        <time>2016-10-21T11:39:59Z</time>
      </trkpt>
      <trkpt lat="43.51309" lon="0.74559">
        <ele>181.97</ele>
        <time>2016-10-21T11:40:16Z</time>
      </trkpt>
      <trkpt lat="43.51311" lon="0.74562">
        <ele>181.36</ele>
        <time>2016-10-21T11:40:31Z</time>
      </trkpt>
      <trkpt lat="43.51309" lon="0.74561">
        <ele>181.6</ele>
        <time>2016-10-21T11:40:55Z</time>
      </trkpt>
      <trkpt lat="43.51322" lon="0.74554">
        <ele>179.81</ele>
        <time>2016-10-21T11:41:12Z</time>
      </trkpt>
      <trkpt lat="43.51335" lon="0.74556">
        <ele>179.36</ele>
        <time>2016-10-21T11:41:24Z</time>
      </trkpt>
      <trkpt lat="43.51342" lon="0.74563">
        <ele>178.13</ele>
        <time>2016-10-21T11:41:30Z</time>
      </trkpt>
      <trkpt lat="43.51342" lon="0.74578">
        <ele>178.69</ele>
        <time>2016-10-21T11:41:40Z</time>
      </trkpt>
      <trkpt lat="43.5134" lon="0.74584">
        <ele>179.1</ele>
        <time>2016-10-21T11:41:44Z</time>
      </trkpt>
      <trkpt lat="43.51331" lon="0.74607">
        <ele>180.68</ele>
        <time>2016-10-21T11:42:01Z</time>
      </trkpt>
      <trkpt lat="43.51325" lon="0.74624">
        <ele>181.38</ele>
        <time>2016-10-21T11:42:15Z</time>
      </trkpt>
      <trkpt lat="43.51324" lon="0.7463">
        <ele>181.46</ele>
        <time>2016-10-21T11:42:32Z</time>
      </trkpt>
      <trkpt lat="43.51318" lon="0.74642">
        <ele>182.45</ele>
        <time>2016-10-21T11:42:46Z</time>
      </trkpt>
      <trkpt lat="43.51311" lon="0.74661">
        <ele>183.16</ele>
        <time>2016-10-21T11:43:01Z</time>
      </trkpt>
      <trkpt lat="43.51305" lon="0.74681">
        <ele>184.24</ele>
        <time>2016-10-21T11:43:16Z</time>
      </trkpt>
      <trkpt lat="43.51305" lon="0.74683">
        <ele>184.45</ele>
        <time>2016-10-21T11:43:18Z</time>
      </trkpt>
      <trkpt lat="43.51308" lon="0.74708">
        <ele>185.58</ele>
        <time>2016-10-21T11:43:34Z</time>
      </trkpt>
      <trkpt lat="43.51313" lon="0.74728">
        <ele>186.99</ele>
        <time>2016-10-21T11:43:48Z</time>
      </trkpt>
      <trkpt lat="43.51316" lon="0.7475">
        <ele>188.12</ele>
        <time>2016-10-21T11:44:02Z</time>
      </trkpt>
      <trkpt lat="43.51319" lon="0.74767">
        <ele>189.49</ele>
        <time>2016-10-21T11:44:16Z</time>
      </trkpt>
      <trkpt lat="43.51322" lon="0.74779">
        <ele>191.03</ele>
        <time>2016-10-21T11:44:36Z</time>
      </trkpt>
      <trkpt lat="43.51323" lon="0.74783">
        <ele>190.8</ele>
        <time>2016-10-21T11:44:40Z</time>
      </trkpt>
      <trkpt lat="43.51328" lon="0.748">
        <ele>192.72</ele>
        <time>2016-10-21T11:44:56Z</time>
      </trkpt>
      <trkpt lat="43.51331" lon="0.74816">
        <ele>193.77</ele>
        <time>2016-10-21T11:45:12Z</time>
      </trkpt>
      <trkpt lat="43.51336" lon="0.74832">
        <ele>194.84</ele>
        <time>2016-10-21T11:45:28Z</time>
      </trkpt>
      <trkpt lat="43.5134" lon="0.7485">
        <ele>197.32</ele>
        <time>2016-10-21T11:45:46Z</time>
      </trkpt>
      <trkpt lat="43.51341" lon="0.74868">
        <ele>198.6</ele>
        <time>2016-10-21T11:46:03Z</time>
      </trkpt>
      <trkpt lat="43.51344" lon="0.74886">
        <ele>200.2</ele>
        <time>2016-10-21T11:46:19Z</time>
      </trkpt>
      <trkpt lat="43.51347" lon="0.7491">
        <ele>201.28</ele>
        <time>2016-10-21T11:46:41Z</time>
      </trkpt>
      <trkpt lat="43.51349" lon="0.7493">
        <ele>202.78</ele>
        <time>2016-10-21T11:46:58Z</time>
      </trkpt>
      <trkpt lat="43.5135" lon="0.74952">
        <ele>203.86</ele>
        <time>2016-10-21T11:47:14Z</time>
      </trkpt>
      <trkpt lat="43.51351" lon="0.74972">
        <ele>204.69</ele>
        <time>2016-10-21T11:47:29Z</time>
      </trkpt>
      <trkpt lat="43.51352" lon="0.74996">
        <ele>206.55</ele>
        <time>2016-10-21T11:47:48Z</time>
      </trkpt>
      <trkpt lat="43.51349" lon="0.75022">
        <ele>207.07</ele>
        <time>2016-10-21T11:48:05Z</time>
      </trkpt>
      <trkpt lat="43.51347" lon="0.7504">
        <ele>207.84</ele>
        <time>2016-10-21T11:48:18Z</time>
      </trkpt>
      <trkpt lat="43.51343" lon="0.75062">
        <ele>209.08</ele>
        <time>2016-10-21T11:48:32Z</time>
      </trkpt>
      <trkpt lat="43.51341" lon="0.75081">
        <ele>210.45</ele>
        <time>2016-10-21T11:48:47Z</time>
      </trkpt>
      <trkpt lat="43.51337" lon="0.75103">
        <ele>211.5</ele>
        <time>2016-10-21T11:49:02Z</time>
      </trkpt>
      <trkpt lat="43.51334" lon="0.75119">
        <ele>212.83</ele>
        <time>2016-10-21T11:49:15Z</time>
      </trkpt>
      <trkpt lat="43.51332" lon="0.75131">
        <ele>213.74</ele>
        <time>2016-10-21T11:49:24Z</time>
      </trkpt>
      <trkpt lat="43.51331" lon="0.75146">
        <ele>214.11</ele>
        <time>2016-10-21T11:49:37Z</time>
      </trkpt>
      <trkpt lat="43.51327" lon="0.75163">
        <ele>215.64</ele>
        <time>2016-10-21T11:49:50Z</time>
      </trkpt>
      <trkpt lat="43.5132" lon="0.75168">
        <ele>216.42</ele>
        <time>2016-10-21T11:50:06Z</time>
      </trkpt>
      <trkpt lat="43.51319" lon="0.75171">
        <ele>216.23</ele>
        <time>2016-10-21T11:50:29Z</time>
      </trkpt>
      <trkpt lat="43.51319" lon="0.7517">
        <ele>216.36</ele>
        <time>2016-10-21T11:51:02Z</time>
      </trkpt>
      <trkpt lat="43.51319" lon="0.75169">
        <ele>216.08</ele>
        <time>2016-10-21T11:51:33Z</time>
      </trkpt>
      <trkpt lat="43.51317" lon="0.75167">
        <ele>216.91</ele>
        <time>2016-10-21T11:51:56Z</time>
      </trkpt>
      <trkpt lat="43.51303" lon="0.75156">
        <ele>217.29</ele>
        <time>2016-10-21T11:52:15Z</time>
      </trkpt>
      <trkpt lat="43.51298" lon="0.75152">
        <ele>217.27</ele>
        <time>2016-10-21T11:52:21Z</time>
      </trkpt>
      <trkpt lat="43.5128" lon="0.75137">
        <ele>217.45</ele>
        <time>2016-10-21T11:52:42Z</time>
      </trkpt>
      <trkpt lat="43.51263" lon="0.75123">
        <ele>218.65</ele>
        <time>2016-10-21T11:53:01Z</time>
      </trkpt>
      <trkpt lat="43.5125" lon="0.75112">
        <ele>218.84</ele>
        <time>2016-10-21T11:53:18Z</time>
      </trkpt>
      <trkpt lat="43.51247" lon="0.7511">
        <ele>219.01</ele>
        <time>2016-10-21T11:53:33Z</time>
      </trkpt>
      <trkpt lat="43.51235" lon="0.75101">
        <ele>219.12</ele>
        <time>2016-10-21T11:53:49Z</time>
      </trkpt>
      <trkpt lat="43.5122" lon="0.75088">
        <ele>219.01</ele>
        <time>2016-10-21T11:54:07Z</time>
      </trkpt>
      <trkpt lat="43.51203" lon="0.75075">
        <ele>219.58</ele>
        <time>2016-10-21T11:54:26Z</time>
      </trkpt>
      <trkpt lat="43.51186" lon="0.7506">
        <ele>219.48</ele>
        <time>2016-10-21T11:54:46Z</time>
      </trkpt>
      <trkpt lat="43.51167" lon="0.75043">
        <ele>219.7</ele>
        <time>2016-10-21T11:55:06Z</time>
      </trkpt>
      <trkpt lat="43.5115" lon="0.75028">
        <ele>218.28</ele>
        <time>2016-10-21T11:55:22Z</time>
      </trkpt>
      <trkpt lat="43.51134" lon="0.75012">
        <ele>218.76</ele>
        <time>2016-10-21T11:55:38Z</time>
      </trkpt>
      <trkpt lat="43.51121" lon="0.75001">
        <ele>218.75</ele>
        <time>2016-10-21T11:55:51Z</time>
      </trkpt>
      <trkpt lat="43.51103" lon="0.74986">
        <ele>219.34</ele>
        <time>2016-10-21T11:56:08Z</time>
      </trkpt>
      <trkpt lat="43.51085" lon="0.74968">
        <ele>218.87</ele>
        <time>2016-10-21T11:56:25Z</time>
      </trkpt>
      <trkpt lat="43.51065" lon="0.74951">
        <ele>218.64</ele>
        <time>2016-10-21T11:56:45Z</time>
      </trkpt>
      <trkpt lat="43.51047" lon="0.74937">
        <ele>219.21</ele>
        <time>2016-10-21T11:57:03Z</time>
      </trkpt>
      <trkpt lat="43.51025" lon="0.74927">
        <ele>219.44</ele>
        <time>2016-10-21T11:57:24Z</time>
      </trkpt>
      <trkpt lat="43.51009" lon="0.74921">
        <ele>219.58</ele>
        <time>2016-10-21T11:57:40Z</time>
      </trkpt>
      <trkpt lat="43.5099" lon="0.74917">
        <ele>220.45</ele>
        <time>2016-10-21T11:57:57Z</time>
      </trkpt>
      <trkpt lat="43.50975" lon="0.74912">
        <ele>220.8</ele>
        <time>2016-10-21T11:58:12Z</time>
      </trkpt>
      <trkpt lat="43.50956" lon="0.74905">
        <ele>220.77</ele>
        <time>2016-10-21T11:58:29Z</time>
      </trkpt>
      <trkpt lat="43.50931" lon="0.74897">
        <ele>221.25</ele>
        <time>2016-10-21T11:58:52Z</time>
      </trkpt>
      <trkpt lat="43.5091" lon="0.74889">
        <ele>222.21</ele>
        <time>2016-10-21T11:59:10Z</time>
      </trkpt>
      <trkpt lat="43.50893" lon="0.74882">
        <ele>223.39</ele>
        <time>2016-10-21T11:59:26Z</time>
      </trkpt>
      <trkpt lat="43.50881" lon="0.74879">
        <ele>222.96</ele>
        <time>2016-10-21T11:59:41Z</time>
      </trkpt>
      <trkpt lat="43.50871" lon="0.74879">
        <ele>223.35</ele>
        <time>2016-10-21T11:59:57Z</time>
      </trkpt>
      <trkpt lat="43.50866" lon="0.74875">
        <ele>223.81</ele>
        <time>2016-10-21T12:00:19Z</time>
      </trkpt>
      <trkpt lat="43.50866" lon="0.74875">
        <ele>222.8</ele>
        <time>2016-10-21T12:00:38Z</time>
      </trkpt>
      <trkpt lat="43.50864" lon="0.74878">
        <ele>223.6</ele>
        <time>2016-10-21T12:00:55Z</time>
      </trkpt>
      <trkpt lat="43.50862" lon="0.74876">
        <ele>223.36</ele>
        <time>2016-10-21T12:01:13Z</time>
      </trkpt>
      <trkpt lat="43.50862" lon="0.74876">
        <ele>224.55</ele>
        <time>2016-10-21T12:01:40Z</time>
      </trkpt>
      <trkpt lat="43.50856" lon="0.74877">
        <ele>224.39</ele>
        <time>2016-10-21T12:01:56Z</time>
      </trkpt>
      <trkpt lat="43.50846" lon="0.74875">
        <ele>224.77</ele>
        <time>2016-10-21T12:02:07Z</time>
      </trkpt>
      <trkpt lat="43.50844" lon="0.74874">
        <ele>224.77</ele>
        <time>2016-10-21T12:02:10Z</time>
      </trkpt>
      <trkpt lat="43.5082" lon="0.7487">
        <ele>225.99</ele>
        <time>2016-10-21T12:02:30Z</time>
      </trkpt>
      <trkpt lat="43.50798" lon="0.74862">
        <ele>226.89</ele>
        <time>2016-10-21T12:02:48Z</time>
      </trkpt>
      <trkpt lat="43.50776" lon="0.74853">
        <ele>228.73</ele>
        <time>2016-10-21T12:03:07Z</time>
      </trkpt>
      <trkpt lat="43.50752" lon="0.74845">
        <ele>230.72</ele>
        <time>2016-10-21T12:03:27Z</time>
      </trkpt>
      <trkpt lat="43.50732" lon="0.74837">
        <ele>232.74</ele>
        <time>2016-10-21T12:03:44Z</time>
      </trkpt>
      <trkpt lat="43.50725" lon="0.74834">
        <ele>233.04</ele>
        <time>2016-10-21T12:03:51Z</time>
      </trkpt>
      <trkpt lat="43.50713" lon="0.74826">
        <ele>233.95</ele>
        <time>2016-10-21T12:04:05Z</time>
      </trkpt>
      <trkpt lat="43.50712" lon="0.74826">
        <ele>234.61</ele>
        <time>2016-10-21T12:04:06Z</time>
      </trkpt>
      <trkpt lat="43.50705" lon="0.74822">
        <ele>234.77</ele>
        <time>2016-10-21T12:04:12Z</time>
      </trkpt>
      <trkpt lat="43.50682" lon="0.74811">
        <ele>235.78</ele>
        <time>2016-10-21T12:04:31Z</time>
      </trkpt>
      <trkpt lat="43.50666" lon="0.74798">
        <ele>235.64</ele>
        <time>2016-10-21T12:04:46Z</time>
      </trkpt>
      <trkpt lat="43.50653" lon="0.74786">
        <ele>234.3</ele>
        <time>2016-10-21T12:04:59Z</time>
      </trkpt>
      <trkpt lat="43.50647" lon="0.74781">
        <ele>233.61</ele>
        <time>2016-10-21T12:05:04Z</time>
      </trkpt>
      <trkpt lat="43.50643" lon="0.74777">
        <ele>233.93</ele>
        <time>2016-10-21T12:05:08Z</time>
      </trkpt>
      <trkpt lat="43.50628" lon="0.74761">
        <ele>232.21</ele>
        <time>2016-10-21T12:05:24Z</time>
      </trkpt>
      <trkpt lat="43.50615" lon="0.74746">
        <ele>229.16</ele>
        <time>2016-10-21T12:05:37Z</time>
      </trkpt>
      <trkpt lat="43.50613" lon="0.74745">
        <ele>235.58</ele>
        <time>2016-10-21T12:05:38Z</time>
      </trkpt>
      <trkpt lat="43.50612" lon="0.74744">
        <ele>231.71</ele>
        <time>2016-10-21T12:05:39Z</time>
      </trkpt>
      <trkpt lat="43.50593" lon="0.74731">
        <ele>230.26</ele>
        <time>2016-10-21T12:05:56Z</time>
      </trkpt>
      <trkpt lat="43.50572" lon="0.74724">
        <ele>230.14</ele>
        <time>2016-10-21T12:06:18Z</time>
      </trkpt>
      <trkpt lat="43.50569" lon="0.74724">
        <ele>230.15</ele>
        <time>2016-10-21T12:06:33Z</time>
      </trkpt>
      <trkpt lat="43.50566" lon="0.74723">
        <ele>229.78</ele>
        <time>2016-10-21T12:06:50Z</time>
      </trkpt>
      <trkpt lat="43.50565" lon="0.74724">
        <ele>230.5</ele>
        <time>2016-10-21T12:07:18Z</time>
      </trkpt>
      <trkpt lat="43.50565" lon="0.74727">
        <ele>230.15</ele>
        <time>2016-10-21T12:07:42Z</time>
      </trkpt>
      <trkpt lat="43.50564" lon="0.74741">
        <ele>229.26</ele>
        <time>2016-10-21T12:08:01Z</time>
      </trkpt>
      <trkpt lat="43.50564" lon="0.74743">
        <ele>229.3</ele>
        <time>2016-10-21T12:08:03Z</time>
      </trkpt>
      <trkpt lat="43.50564" lon="0.74746">
        <ele>228.62</ele>
        <time>2016-10-21T12:08:05Z</time>
      </trkpt>
      <trkpt lat="43.50563" lon="0.74783">
        <ele>227.8</ele>
        <time>2016-10-21T12:08:26Z</time>
      </trkpt>
      <trkpt lat="43.50561" lon="0.74822">
        <ele>227.13</ele>
        <time>2016-10-21T12:08:47Z</time>
      </trkpt>
      <trkpt lat="43.50561" lon="0.74855">
        <ele>226.33</ele>
        <time>2016-10-21T12:09:05Z</time>
      </trkpt>
      <trkpt lat="43.5056" lon="0.74894">
        <ele>226.9</ele>
        <time>2016-10-21T12:09:26Z</time>
      </trkpt>
      <trkpt lat="43.50559" lon="0.74946">
        <ele>226.23</ele>
        <time>2016-10-21T12:09:53Z</time>
      </trkpt>
      <trkpt lat="43.50558" lon="0.75004">
        <ele>225.03</ele>
        <time>2016-10-21T12:10:22Z</time>
      </trkpt>
      <trkpt lat="43.50557" lon="0.75039">
        <ele>225</ele>
        <time>2016-10-21T12:10:40Z</time>
      </trkpt>
      <trkpt lat="43.50557" lon="0.7506">
        <ele>225.65</ele>
        <time>2016-10-21T12:10:51Z</time>
      </trkpt>
      <trkpt lat="43.50557" lon="0.75093">
        <ele>222.67</ele>
        <time>2016-10-21T12:11:09Z</time>
      </trkpt>
      <trkpt lat="43.50555" lon="0.75137">
        <ele>223.04</ele>
        <time>2016-10-21T12:11:34Z</time>
      </trkpt>
      <trkpt lat="43.50555" lon="0.75157">
        <ele>222.04</ele>
        <time>2016-10-21T12:11:52Z</time>
      </trkpt>
      <trkpt lat="43.50554" lon="0.7518">
        <ele>220.56</ele>
        <time>2016-10-21T12:12:13Z</time>
      </trkpt>
      <trkpt lat="43.50555" lon="0.75213">
        <ele>218.7</ele>
        <time>2016-10-21T12:12:39Z</time>
      </trkpt>
      <trkpt lat="43.50554" lon="0.75243">
        <ele>217.3</ele>
        <time>2016-10-21T12:13:01Z</time>
      </trkpt>
      <trkpt lat="43.50553" lon="0.75284">
        <ele>215.29</ele>
        <time>2016-10-21T12:13:25Z</time>
      </trkpt>
      <trkpt lat="43.50553" lon="0.75319">
        <ele>212.49</ele>
        <time>2016-10-21T12:13:45Z</time>
      </trkpt>
      <trkpt lat="43.50551" lon="0.75362">
        <ele>211.85</ele>
        <time>2016-10-21T12:14:09Z</time>
      </trkpt>
      <trkpt lat="43.5055" lon="0.75399">
        <ele>210.42</ele>
        <time>2016-10-21T12:14:29Z</time>
      </trkpt>
      <trkpt lat="43.5055" lon="0.75407">
        <ele>209.35</ele>
        <time>2016-10-21T12:14:33Z</time>
      </trkpt>
      <trkpt lat="43.5055" lon="0.75448">
        <ele>207.33</ele>
        <time>2016-10-21T12:14:55Z</time>
      </trkpt>
      <trkpt lat="43.50548" lon="0.75485">
        <ele>206.9</ele>
        <time>2016-10-21T12:15:14Z</time>
      </trkpt>
      <trkpt lat="43.50549" lon="0.75529">
        <ele>206.62</ele>
        <time>2016-10-21T12:15:38Z</time>
      </trkpt>
      <trkpt lat="43.50548" lon="0.75566">
        <ele>206.16</ele>
        <time>2016-10-21T12:16:02Z</time>
      </trkpt>
      <trkpt lat="43.50547" lon="0.75601">
        <ele>205.35</ele>
        <time>2016-10-21T12:16:24Z</time>
      </trkpt>
      <trkpt lat="43.50548" lon="0.7563">
        <ele>205.54</ele>
        <time>2016-10-21T12:16:45Z</time>
      </trkpt>
      <trkpt lat="43.50547" lon="0.75637">
        <ele>204.71</ele>
        <time>2016-10-21T12:17:02Z</time>
      </trkpt>
      <trkpt lat="43.50548" lon="0.75642">
        <ele>204.55</ele>
        <time>2016-10-21T12:17:20Z</time>
      </trkpt>
      <trkpt lat="43.50548" lon="0.75647">
        <ele>204.59</ele>
        <time>2016-10-21T12:17:24Z</time>
      </trkpt>
      <trkpt lat="43.50546" lon="0.75667">
        <ele>203.84</ele>
        <time>2016-10-21T12:17:37Z</time>
      </trkpt>
      <trkpt lat="43.50545" lon="0.75677">
        <ele>203.08</ele>
        <time>2016-10-21T12:17:44Z</time>
      </trkpt>
      <trkpt lat="43.50545" lon="0.75681">
        <ele>203.32</ele>
        <time>2016-10-21T12:17:47Z</time>
      </trkpt>
      <trkpt lat="43.50544" lon="0.75684">
        <ele>203.16</ele>
        <time>2016-10-21T12:17:49Z</time>
      </trkpt>
      <trkpt lat="43.50542" lon="0.75695">
        <ele>203.1</ele>
        <time>2016-10-21T12:17:54Z</time>
      </trkpt>
      <trkpt lat="43.50543" lon="0.75698">
        <ele>203.27</ele>
        <time>2016-10-21T12:17:56Z</time>
      </trkpt>
      <trkpt lat="43.50543" lon="0.75703">
        <ele>203.19</ele>
        <time>2016-10-21T12:17:59Z</time>
      </trkpt>
      <trkpt lat="43.50541" lon="0.75712">
        <ele>202.7</ele>
        <time>2016-10-21T12:18:04Z</time>
      </trkpt>
      <trkpt lat="43.50541" lon="0.75741">
        <ele>201.14</ele>
        <time>2016-10-21T12:18:20Z</time>
      </trkpt>
      <trkpt lat="43.50538" lon="0.75765">
        <ele>199.32</ele>
        <time>2016-10-21T12:18:32Z</time>
      </trkpt>
      <trkpt lat="43.50537" lon="0.75785">
        <ele>198.38</ele>
        <time>2016-10-21T12:18:43Z</time>
      </trkpt>
      <trkpt lat="43.50535" lon="0.75797">
        <ele>198.06</ele>
        <time>2016-10-21T12:18:50Z</time>
      </trkpt>
      <trkpt lat="43.50535" lon="0.7581">
        <ele>197.29</ele>
        <time>2016-10-21T12:18:57Z</time>
      </trkpt>
      <trkpt lat="43.50537" lon="0.75816">
        <ele>197.17</ele>
        <time>2016-10-21T12:19:05Z</time>
      </trkpt>
      <trkpt lat="43.50539" lon="0.75827">
        <ele>196.11</ele>
        <time>2016-10-21T12:19:13Z</time>
      </trkpt>
      <trkpt lat="43.50538" lon="0.75849">
        <ele>194.24</ele>
        <time>2016-10-21T12:19:25Z</time>
      </trkpt>
      <trkpt lat="43.50537" lon="0.75873">
        <ele>193.39</ele>
        <time>2016-10-21T12:19:37Z</time>
      </trkpt>
      <trkpt lat="43.50538" lon="0.7589">
        <ele>192.71</ele>
        <time>2016-10-21T12:19:45Z</time>
      </trkpt>
      <trkpt lat="43.50536" lon="0.75908">
        <ele>191.41</ele>
        <time>2016-10-21T12:19:56Z</time>
      </trkpt>
      <trkpt lat="43.50537" lon="0.75911">
        <ele>191.24</ele>
        <time>2016-10-21T12:19:58Z</time>
      </trkpt>
      <trkpt lat="43.50537" lon="0.75935">
        <ele>190.21</ele>
        <time>2016-10-21T12:20:11Z</time>
      </trkpt>
      <trkpt lat="43.50536" lon="0.75957">
        <ele>189.75</ele>
        <time>2016-10-21T12:20:23Z</time>
      </trkpt>
      <trkpt lat="43.50537" lon="0.75979">
        <ele>189.61</ele>
        <time>2016-10-21T12:20:36Z</time>
      </trkpt>
      <trkpt lat="43.50537" lon="0.75984">
        <ele>189.59</ele>
        <time>2016-10-21T12:20:38Z</time>
      </trkpt>
      <trkpt lat="43.50535" lon="0.75999">
        <ele>189.64</ele>
        <time>2016-10-21T12:20:48Z</time>
      </trkpt>
      <trkpt lat="43.50535" lon="0.76003">
        <ele>189.36</ele>
        <time>2016-10-21T12:20:50Z</time>
      </trkpt>
      <trkpt lat="43.50534" lon="0.7602">
        <ele>188.49</ele>
        <time>2016-10-21T12:20:59Z</time>
      </trkpt>
      <trkpt lat="43.50534" lon="0.76024">
        <ele>188.6</ele>
        <time>2016-10-21T12:21:01Z</time>
      </trkpt>
      <trkpt lat="43.50532" lon="0.76049">
        <ele>188.13</ele>
        <time>2016-10-21T12:21:13Z</time>
      </trkpt>
      <trkpt lat="43.50531" lon="0.76065">
        <ele>187.59</ele>
        <time>2016-10-21T12:21:22Z</time>
      </trkpt>
      <trkpt lat="43.50531" lon="0.76078">
        <ele>187.89</ele>
        <time>2016-10-21T12:21:28Z</time>
      </trkpt>
      <trkpt lat="43.50531" lon="0.76103">
        <ele>187.72</ele>
        <time>2016-10-21T12:21:42Z</time>
      </trkpt>
      <trkpt lat="43.50531" lon="0.76124">
        <ele>186.52</ele>
        <time>2016-10-21T12:21:55Z</time>
      </trkpt>
      <trkpt lat="43.5053" lon="0.76145">
        <ele>187.06</ele>
        <time>2016-10-21T12:22:07Z</time>
      </trkpt>
      <trkpt lat="43.5053" lon="0.76156">
        <ele>186.79</ele>
        <time>2016-10-21T12:22:17Z</time>
      </trkpt>
      <trkpt lat="43.50529" lon="0.7616">
        <ele>187.12</ele>
        <time>2016-10-21T12:22:20Z</time>
      </trkpt>
      <trkpt lat="43.50527" lon="0.76178">
        <ele>186.87</ele>
        <time>2016-10-21T12:22:36Z</time>
      </trkpt>
      <trkpt lat="43.50526" lon="0.76181">
        <ele>186.83</ele>
        <time>2016-10-21T12:22:53Z</time>
      </trkpt>
      <trkpt lat="43.50528" lon="0.76179">
        <ele>187.22</ele>
        <time>2016-10-21T12:23:20Z</time>
      </trkpt>
      <trkpt lat="43.50529" lon="0.76179">
        <ele>187.01</ele>
        <time>2016-10-21T12:23:39Z</time>
      </trkpt>
      <trkpt lat="43.50529" lon="0.76179">
        <ele>187.43</ele>
        <time>2016-10-21T12:24:00Z</time>
      </trkpt>
      <trkpt lat="43.5053" lon="0.76179">
        <ele>187.21</ele>
        <time>2016-10-21T12:24:16Z</time>
      </trkpt>
      <trkpt lat="43.50529" lon="0.76178">
        <ele>186.99</ele>
        <time>2016-10-21T12:24:39Z</time>
      </trkpt>
      <trkpt lat="43.50524" lon="0.76182">
        <ele>187.2</ele>
        <time>2016-10-21T12:24:56Z</time>
      </trkpt>
      <trkpt lat="43.50515" lon="0.7619">
        <ele>187.16</ele>
        <time>2016-10-21T12:25:15Z</time>
      </trkpt>
      <trkpt lat="43.50509" lon="0.76194">
        <ele>187.04</ele>
        <time>2016-10-21T12:25:22Z</time>
      </trkpt>
      <trkpt lat="43.50497" lon="0.76202">
        <ele>187.12</ele>
        <time>2016-10-21T12:25:35Z</time>
      </trkpt>
      <trkpt lat="43.50486" lon="0.7621">
        <ele>186.9</ele>
        <time>2016-10-21T12:25:44Z</time>
      </trkpt>
      <trkpt lat="43.50477" lon="0.76218">
        <ele>187.55</ele>
        <time>2016-10-21T12:25:53Z</time>
      </trkpt>
      <trkpt lat="43.5047" lon="0.76219">
        <ele>186.93</ele>
        <time>2016-10-21T12:26:04Z</time>
      </trkpt>
      <trkpt lat="43.50461" lon="0.7623">
        <ele>186.78</ele>
        <time>2016-10-21T12:26:26Z</time>
      </trkpt>
      <trkpt lat="43.5046" lon="0.76233">
        <ele>186.49</ele>
        <time>2016-10-21T12:26:28Z</time>
      </trkpt>
      <trkpt lat="43.50457" lon="0.76243">
        <ele>186.01</ele>
        <time>2016-10-21T12:26:35Z</time>
      </trkpt>
      <trkpt lat="43.50455" lon="0.76246">
        <ele>185.63</ele>
        <time>2016-10-21T12:26:37Z</time>
      </trkpt>
      <trkpt lat="43.5045" lon="0.76258">
        <ele>185.54</ele>
        <time>2016-10-21T12:26:45Z</time>
      </trkpt>
      <trkpt lat="43.50438" lon="0.76257">
        <ele>185.43</ele>
        <time>2016-10-21T12:27:01Z</time>
      </trkpt>
      <trkpt lat="43.50436" lon="0.76257">
        <ele>185.2</ele>
        <time>2016-10-21T12:27:04Z</time>
      </trkpt>
      <trkpt lat="43.50424" lon="0.76259">
        <ele>185.03</ele>
        <time>2016-10-21T12:27:14Z</time>
      </trkpt>
      <trkpt lat="43.50416" lon="0.7627">
        <ele>184.34</ele>
        <time>2016-10-21T12:27:28Z</time>
      </trkpt>
      <trkpt lat="43.50414" lon="0.76274">
        <ele>184.46</ele>
        <time>2016-10-21T12:27:31Z</time>
      </trkpt>
      <trkpt lat="43.50411" lon="0.76286">
        <ele>184.69</ele>
        <time>2016-10-21T12:27:40Z</time>
      </trkpt>
      <trkpt lat="43.50407" lon="0.7631">
        <ele>184.86</ele>
        <time>2016-10-21T12:27:55Z</time>
      </trkpt>
      <trkpt lat="43.50407" lon="0.76313">
        <ele>184.98</ele>
        <time>2016-10-21T12:27:57Z</time>
      </trkpt>
      <trkpt lat="43.50403" lon="0.76321">
        <ele>184.48</ele>
        <time>2016-10-21T12:28:01Z</time>
      </trkpt>
      <trkpt lat="43.50399" lon="0.76342">
        <ele>184.44</ele>
        <time>2016-10-21T12:28:12Z</time>
      </trkpt>
      <trkpt lat="43.50396" lon="0.76358">
        <ele>184.31</ele>
        <time>2016-10-21T12:28:22Z</time>
      </trkpt>
      <trkpt lat="43.50394" lon="0.76364">
        <ele>184.35</ele>
        <time>2016-10-21T12:28:26Z</time>
      </trkpt>
      <trkpt lat="43.50395" lon="0.76372">
        <ele>183.54</ele>
        <time>2016-10-21T12:28:30Z</time>
      </trkpt>
      <trkpt lat="43.50393" lon="0.76378">
        <ele>183.43</ele>
        <time>2016-10-21T12:28:35Z</time>
      </trkpt>
      <trkpt lat="43.50392" lon="0.76382">
        <ele>183.44</ele>
        <time>2016-10-21T12:28:37Z</time>
      </trkpt>
      <trkpt lat="43.50387" lon="0.76402">
        <ele>183.66</ele>
        <time>2016-10-21T12:28:52Z</time>
      </trkpt>
      <trkpt lat="43.50382" lon="0.76418">
        <ele>183.05</ele>
        <time>2016-10-21T12:29:01Z</time>
      </trkpt>
      <trkpt lat="43.50382" lon="0.76419">
        <ele>183.19</ele>
        <time>2016-10-21T12:29:02Z</time>
      </trkpt>
      <trkpt lat="43.50381" lon="0.76429">
        <ele>182.99</ele>
        <time>2016-10-21T12:29:07Z</time>
      </trkpt>
      <trkpt lat="43.50378" lon="0.76436">
        <ele>183.14</ele>
        <time>2016-10-21T12:29:11Z</time>
      </trkpt>
      <trkpt lat="43.50374" lon="0.76455">
        <ele>182.98</ele>
        <time>2016-10-21T12:29:21Z</time>
      </trkpt>
      <trkpt lat="43.50372" lon="0.76458">
        <ele>182.66</ele>
        <time>2016-10-21T12:29:24Z</time>
      </trkpt>
      <trkpt lat="43.50371" lon="0.76464">
        <ele>182.67</ele>
        <time>2016-10-21T12:29:28Z</time>
      </trkpt>
      <trkpt lat="43.50369" lon="0.76469">
        <ele>182.36</ele>
        <time>2016-10-21T12:29:30Z</time>
      </trkpt>
      <trkpt lat="43.50365" lon="0.76475">
        <ele>182.25</ele>
        <time>2016-10-21T12:29:34Z</time>
      </trkpt>
      <trkpt lat="43.50357" lon="0.76492">
        <ele>181.57</ele>
        <time>2016-10-21T12:29:47Z</time>
      </trkpt>
      <trkpt lat="43.50351" lon="0.76504">
        <ele>181.49</ele>
        <time>2016-10-21T12:29:57Z</time>
      </trkpt>
      <trkpt lat="43.50348" lon="0.76503">
        <ele>180.87</ele>
        <time>2016-10-21T12:30:00Z</time>
      </trkpt>
      <trkpt lat="43.50335" lon="0.76498">
        <ele>180.48</ele>
        <time>2016-10-21T12:30:14Z</time>
      </trkpt>
      <trkpt lat="43.50322" lon="0.76496">
        <ele>179.91</ele>
        <time>2016-10-21T12:30:26Z</time>
      </trkpt>
      <trkpt lat="43.503" lon="0.7649">
        <ele>180.09</ele>
        <time>2016-10-21T12:30:45Z</time>
      </trkpt>
      <trkpt lat="43.50275" lon="0.76485">
        <ele>179.12</ele>
        <time>2016-10-21T12:31:04Z</time>
      </trkpt>
      <trkpt lat="43.50257" lon="0.7648">
        <ele>179.27</ele>
        <time>2016-10-21T12:31:18Z</time>
      </trkpt>
      <trkpt lat="43.50248" lon="0.76478">
        <ele>179.34</ele>
        <time>2016-10-21T12:31:28Z</time>
      </trkpt>
      <trkpt lat="43.50226" lon="0.76471">
        <ele>178.4</ele>
        <time>2016-10-21T12:31:48Z</time>
      </trkpt>
      <trkpt lat="43.5021" lon="0.76469">
        <ele>178.37</ele>
        <time>2016-10-21T12:31:58Z</time>
      </trkpt>
      <trkpt lat="43.50192" lon="0.76467">
        <ele>179.96</ele>
        <time>2016-10-21T12:32:09Z</time>
      </trkpt>
      <trkpt lat="43.50173" lon="0.76464">
        <ele>178.72</ele>
        <time>2016-10-21T12:32:23Z</time>
      </trkpt>
      <trkpt lat="43.50161" lon="0.76463">
        <ele>178.5</ele>
        <time>2016-10-21T12:32:36Z</time>
      </trkpt>
      <trkpt lat="43.50144" lon="0.76458">
        <ele>178.27</ele>
        <time>2016-10-21T12:32:50Z</time>
      </trkpt>
      <trkpt lat="43.50124" lon="0.76452">
        <ele>177.76</ele>
        <time>2016-10-21T12:33:04Z</time>
      </trkpt>
      <trkpt lat="43.50107" lon="0.76445">
        <ele>177.34</ele>
        <time>2016-10-21T12:33:18Z</time>
      </trkpt>
      <trkpt lat="43.50103" lon="0.76444">
        <ele>174.27</ele>
        <time>2016-10-21T12:33:21Z</time>
      </trkpt>
      <trkpt lat="43.50102" lon="0.76443">
        <ele>179.7</ele>
        <time>2016-10-21T12:33:22Z</time>
      </trkpt>
      <trkpt lat="43.50094" lon="0.76441">
        <ele>178.13</ele>
        <time>2016-10-21T12:33:30Z</time>
      </trkpt>
      <trkpt lat="43.50084" lon="0.7644">
        <ele>178.19</ele>
        <time>2016-10-21T12:33:38Z</time>
      </trkpt>
      <trkpt lat="43.50066" lon="0.76438">
        <ele>177.89</ele>
        <time>2016-10-21T12:33:52Z</time>
      </trkpt>
      <trkpt lat="43.5005" lon="0.76433">
        <ele>176.35</ele>
        <time>2016-10-21T12:34:06Z</time>
      </trkpt>
      <trkpt lat="43.50033" lon="0.76427">
        <ele>176.7</ele>
        <time>2016-10-21T12:34:22Z</time>
      </trkpt>
      <trkpt lat="43.50019" lon="0.76426">
        <ele>176.23</ele>
        <time>2016-10-21T12:34:33Z</time>
      </trkpt>
      <trkpt lat="43.50001" lon="0.76421">
        <ele>176.41</ele>
        <time>2016-10-21T12:34:47Z</time>
      </trkpt>
      <trkpt lat="43.49991" lon="0.76418">
        <ele>176.37</ele>
        <time>2016-10-21T12:34:54Z</time>
      </trkpt>
      <trkpt lat="43.4997" lon="0.76411">
        <ele>176.43</ele>
        <time>2016-10-21T12:35:12Z</time>
      </trkpt>
      <trkpt lat="43.49948" lon="0.76406">
        <ele>176.72</ele>
        <time>2016-10-21T12:35:28Z</time>
      </trkpt>
      <trkpt lat="43.49929" lon="0.76401">
        <ele>176.52</ele>
        <time>2016-10-21T12:35:45Z</time>
      </trkpt>
      <trkpt lat="43.49927" lon="0.764">
        <ele>176.52</ele>
        <time>2016-10-21T12:35:46Z</time>
      </trkpt>
      <trkpt lat="43.49919" lon="0.764">
        <ele>176.86</ele>
        <time>2016-10-21T12:36:03Z</time>
      </trkpt>
      <trkpt lat="43.49918" lon="0.764">
        <ele>176.89</ele>
        <time>2016-10-21T12:36:27Z</time>
      </trkpt>
      <trkpt lat="43.49918" lon="0.76403">
        <ele>176.6</ele>
        <time>2016-10-21T12:37:02Z</time>
      </trkpt>
      <trkpt lat="43.49916" lon="0.76402">
        <ele>176.92</ele>
        <time>2016-10-21T12:37:38Z</time>
      </trkpt>
      <trkpt lat="43.49916" lon="0.76404">
        <ele>176.68</ele>
        <time>2016-10-21T12:38:21Z</time>
      </trkpt>
      <trkpt lat="43.49914" lon="0.76402">
        <ele>177.11</ele>
        <time>2016-10-21T12:38:55Z</time>
      </trkpt>
      <trkpt lat="43.49913" lon="0.764">
        <ele>176.78</ele>
        <time>2016-10-21T12:39:17Z</time>
      </trkpt>
      <trkpt lat="43.49914" lon="0.76399">
        <ele>177.44</ele>
        <time>2016-10-21T12:39:49Z</time>
      </trkpt>
      <trkpt lat="43.49913" lon="0.76398">
        <ele>177.28</ele>
        <time>2016-10-21T12:40:12Z</time>
      </trkpt>
      <trkpt lat="43.49909" lon="0.76397">
        <ele>177.54</ele>
        <time>2016-10-21T12:40:38Z</time>
      </trkpt>
      <trkpt lat="43.49905" lon="0.76405">
        <ele>177.8</ele>
        <time>2016-10-21T12:41:00Z</time>
      </trkpt>
      <trkpt lat="43.49904" lon="0.7641">
        <ele>177.17</ele>
        <time>2016-10-21T12:41:12Z</time>
      </trkpt>
      <trkpt lat="43.49902" lon="0.76416">
        <ele>177.19</ele>
        <time>2016-10-21T12:41:16Z</time>
      </trkpt>
      <trkpt lat="43.49898" lon="0.76445">
        <ele>176.79</ele>
        <time>2016-10-21T12:41:32Z</time>
      </trkpt>
      <trkpt lat="43.49892" lon="0.76468">
        <ele>176.62</ele>
        <time>2016-10-21T12:41:46Z</time>
      </trkpt>
      <trkpt lat="43.49889" lon="0.76479">
        <ele>176.89</ele>
        <time>2016-10-21T12:41:55Z</time>
      </trkpt>
      <trkpt lat="43.49888" lon="0.76511">
        <ele>176.22</ele>
        <time>2016-10-21T12:42:12Z</time>
      </trkpt>
      <trkpt lat="43.49889" lon="0.76527">
        <ele>175.59</ele>
        <time>2016-10-21T12:42:21Z</time>
      </trkpt>
      <trkpt lat="43.49897" lon="0.76559">
        <ele>174.54</ele>
        <time>2016-10-21T12:42:40Z</time>
      </trkpt>
      <trkpt lat="43.499" lon="0.76565">
        <ele>174.57</ele>
        <time>2016-10-21T12:42:48Z</time>
      </trkpt>
      <trkpt lat="43.499" lon="0.76568">
        <ele>174.63</ele>
        <time>2016-10-21T12:42:50Z</time>
      </trkpt>
      <trkpt lat="43.49919" lon="0.76593">
        <ele>174.44</ele>
        <time>2016-10-21T12:43:10Z</time>
      </trkpt>
      <trkpt lat="43.49934" lon="0.76608">
        <ele>174.46</ele>
        <time>2016-10-21T12:43:27Z</time>
      </trkpt>
      <trkpt lat="43.4994" lon="0.76612">
        <ele>174.66</ele>
        <time>2016-10-21T12:43:44Z</time>
      </trkpt>
      <trkpt lat="43.49944" lon="0.76613">
        <ele>174.92</ele>
        <time>2016-10-21T12:44:08Z</time>
      </trkpt>
      <trkpt lat="43.49945" lon="0.7662">
        <ele>174.59</ele>
        <time>2016-10-21T12:44:24Z</time>
      </trkpt>
      <trkpt lat="43.49945" lon="0.76631">
        <ele>174.11</ele>
        <time>2016-10-21T12:44:30Z</time>
      </trkpt>
      <trkpt lat="43.49929" lon="0.76661">
        <ele>174.38</ele>
        <time>2016-10-21T12:44:50Z</time>
      </trkpt>
      <trkpt lat="43.49916" lon="0.76677">
        <ele>174.3</ele>
        <time>2016-10-21T12:45:05Z</time>
      </trkpt>
      <trkpt lat="43.49915" lon="0.76677">
        <ele>174.36</ele>
        <time>2016-10-21T12:45:06Z</time>
      </trkpt>
      <trkpt lat="43.49906" lon="0.76684">
        <ele>174.61</ele>
        <time>2016-10-21T12:45:23Z</time>
      </trkpt>
      <trkpt lat="43.49908" lon="0.76683">
        <ele>173.64</ele>
        <time>2016-10-21T12:45:40Z</time>
      </trkpt>
      <trkpt lat="43.49908" lon="0.76682">
        <ele>173.17</ele>
        <time>2016-10-21T12:46:01Z</time>
      </trkpt>
      <trkpt lat="43.49904" lon="0.76686">
        <ele>173.53</ele>
        <time>2016-10-21T12:46:26Z</time>
      </trkpt>
      <trkpt lat="43.49885" lon="0.76709">
        <ele>173.36</ele>
        <time>2016-10-21T12:46:48Z</time>
      </trkpt>
      <trkpt lat="43.49869" lon="0.76736">
        <ele>173.16</ele>
        <time>2016-10-21T12:47:09Z</time>
      </trkpt>
      <trkpt lat="43.49856" lon="0.76759">
        <ele>173.08</ele>
        <time>2016-10-21T12:47:26Z</time>
      </trkpt>
      <trkpt lat="43.49844" lon="0.76779">
        <ele>173.82</ele>
        <time>2016-10-21T12:47:41Z</time>
      </trkpt>
      <trkpt lat="43.49827" lon="0.76803">
        <ele>173.38</ele>
        <time>2016-10-21T12:48:00Z</time>
      </trkpt>
      <trkpt lat="43.49803" lon="0.76838">
        <ele>172.85</ele>
        <time>2016-10-21T12:48:27Z</time>
      </trkpt>
      <trkpt lat="43.49781" lon="0.76871">
        <ele>173.38</ele>
        <time>2016-10-21T12:48:52Z</time>
      </trkpt>
      <trkpt lat="43.49762" lon="0.76899">
        <ele>174.06</ele>
        <time>2016-10-21T12:49:16Z</time>
      </trkpt>
      <trkpt lat="43.49747" lon="0.76918">
        <ele>174.46</ele>
        <time>2016-10-21T12:49:36Z</time>
      </trkpt>
      <trkpt lat="43.49744" lon="0.76925">
        <ele>175.16</ele>
        <time>2016-10-21T12:49:51Z</time>
      </trkpt>
      <trkpt lat="43.49744" lon="0.76924">
        <ele>175.08</ele>
        <time>2016-10-21T12:50:05Z</time>
      </trkpt>
      <trkpt lat="43.49743" lon="0.76924">
        <ele>174.96</ele>
        <time>2016-10-21T12:50:06Z</time>
      </trkpt>
      <trkpt lat="43.4973" lon="0.76901">
        <ele>174.68</ele>
        <time>2016-10-21T12:50:25Z</time>
      </trkpt>
      <trkpt lat="43.49714" lon="0.76862">
        <ele>174.37</ele>
        <time>2016-10-21T12:50:50Z</time>
      </trkpt>
      <trkpt lat="43.49697" lon="0.76838">
        <ele>174.46</ele>
        <time>2016-10-21T12:51:08Z</time>
      </trkpt>
      <trkpt lat="43.49683" lon="0.76817">
        <ele>174.73</ele>
        <time>2016-10-21T12:51:26Z</time>
      </trkpt>
      <trkpt lat="43.49663" lon="0.7679">
        <ele>173.61</ele>
        <time>2016-10-21T12:51:49Z</time>
      </trkpt>
      <trkpt lat="43.49642" lon="0.76761">
        <ele>174.12</ele>
        <time>2016-10-21T12:52:14Z</time>
      </trkpt>
      <trkpt lat="43.49624" lon="0.76736">
        <ele>174.8</ele>
        <time>2016-10-21T12:52:36Z</time>
      </trkpt>
      <trkpt lat="43.49607" lon="0.76716">
        <ele>174.74</ele>
        <time>2016-10-21T12:52:55Z</time>
      </trkpt>
      <trkpt lat="43.4959" lon="0.76693">
        <ele>174.38</ele>
        <time>2016-10-21T12:53:16Z</time>
      </trkpt>
      <trkpt lat="43.49584" lon="0.76687">
        <ele>174.73</ele>
        <time>2016-10-21T12:53:23Z</time>
      </trkpt>
      <trkpt lat="43.4957" lon="0.7667">
        <ele>175.66</ele>
        <time>2016-10-21T12:53:41Z</time>
      </trkpt>
      <trkpt lat="43.49552" lon="0.76647">
        <ele>175.64</ele>
        <time>2016-10-21T12:54:03Z</time>
      </trkpt>
      <trkpt lat="43.49533" lon="0.76623">
        <ele>173.86</ele>
        <time>2016-10-21T12:54:26Z</time>
      </trkpt>
      <trkpt lat="43.49517" lon="0.76599">
        <ele>175.06</ele>
        <time>2016-10-21T12:54:47Z</time>
      </trkpt>
      <trkpt lat="43.49503" lon="0.76575">
        <ele>176.03</ele>
        <time>2016-10-21T12:55:08Z</time>
      </trkpt>
      <trkpt lat="43.49486" lon="0.76549">
        <ele>176.39</ele>
        <time>2016-10-21T12:55:31Z</time>
      </trkpt>
      <trkpt lat="43.49474" lon="0.76524">
        <ele>176.86</ele>
        <time>2016-10-21T12:55:51Z</time>
      </trkpt>
      <trkpt lat="43.49465" lon="0.76494">
        <ele>176.71</ele>
        <time>2016-10-21T12:56:13Z</time>
      </trkpt>
      <trkpt lat="43.49458" lon="0.76465">
        <ele>178.03</ele>
        <time>2016-10-21T12:56:34Z</time>
      </trkpt>
      <trkpt lat="43.49447" lon="0.76444">
        <ele>177.87</ele>
        <time>2016-10-21T12:56:52Z</time>
      </trkpt>
      <trkpt lat="43.49443" lon="0.76438">
        <ele>178.72</ele>
        <time>2016-10-21T12:56:58Z</time>
      </trkpt>
      <trkpt lat="43.49431" lon="0.76429">
        <ele>178.63</ele>
        <time>2016-10-21T12:57:14Z</time>
      </trkpt>
      <trkpt lat="43.49417" lon="0.76416">
        <ele>180.2</ele>
        <time>2016-10-21T12:57:32Z</time>
      </trkpt>
      <trkpt lat="43.49394" lon="0.76397">
        <ele>182.76</ele>
        <time>2016-10-21T12:57:56Z</time>
      </trkpt>
      <trkpt lat="43.49379" lon="0.76384">
        <ele>183.48</ele>
        <time>2016-10-21T12:58:13Z</time>
      </trkpt>
      <trkpt lat="43.49375" lon="0.76381">
        <ele>183.92</ele>
        <time>2016-10-21T12:58:17Z</time>
      </trkpt>
      <trkpt lat="43.49374" lon="0.76379">
        <ele>184.04</ele>
        <time>2016-10-21T12:58:19Z</time>
      </trkpt>
      <trkpt lat="43.49361" lon="0.76369">
        <ele>184.26</ele>
        <time>2016-10-21T12:58:38Z</time>
      </trkpt>
      <trkpt lat="43.49354" lon="0.76363">
        <ele>184.33</ele>
        <time>2016-10-21T12:58:45Z</time>
      </trkpt>
      <trkpt lat="43.49337" lon="0.76347">
        <ele>180.1</ele>
        <time>2016-10-21T12:59:04Z</time>
      </trkpt>
      <trkpt lat="43.49327" lon="0.76339">
        <ele>179.65</ele>
        <time>2016-10-21T12:59:22Z</time>
      </trkpt>
      <trkpt lat="43.49325" lon="0.76338">
        <ele>179.85</ele>
        <time>2016-10-21T12:59:34Z</time>
      </trkpt>
      <trkpt lat="43.49324" lon="0.76336">
        <ele>179.07</ele>
        <time>2016-10-21T12:59:36Z</time>
      </trkpt>
      <trkpt lat="43.49302" lon="0.76318">
        <ele>180.3</ele>
        <time>2016-10-21T13:00:00Z</time>
      </trkpt>
      <trkpt lat="43.49284" lon="0.76302">
        <ele>181.77</ele>
        <time>2016-10-21T13:00:22Z</time>
      </trkpt>
      <trkpt lat="43.4927" lon="0.7629">
        <ele>182.54</ele>
        <time>2016-10-21T13:00:40Z</time>
      </trkpt>
      <trkpt lat="43.49269" lon="0.76289">
        <ele>182.66</ele>
        <time>2016-10-21T13:00:41Z</time>
      </trkpt>
      <trkpt lat="43.49254" lon="0.76278">
        <ele>184.2</ele>
        <time>2016-10-21T13:01:00Z</time>
      </trkpt>
      <trkpt lat="43.49236" lon="0.76261">
        <ele>184.32</ele>
        <time>2016-10-21T13:01:18Z</time>
      </trkpt>
      <trkpt lat="43.49217" lon="0.76241">
        <ele>184.54</ele>
        <time>2016-10-21T13:01:39Z</time>
      </trkpt>
      <trkpt lat="43.49198" lon="0.76225">
        <ele>184.05</ele>
        <time>2016-10-21T13:02:01Z</time>
      </trkpt>
      <trkpt lat="43.49183" lon="0.76211">
        <ele>184.24</ele>
        <time>2016-10-21T13:02:18Z</time>
      </trkpt>
      <trkpt lat="43.49164" lon="0.76196">
        <ele>182.55</ele>
        <time>2016-10-21T13:02:40Z</time>
      </trkpt>
      <trkpt lat="43.49139" lon="0.76179">
        <ele>180.76</ele>
        <time>2016-10-21T13:03:06Z</time>
      </trkpt>
      <trkpt lat="43.49118" lon="0.76168">
        <ele>180.48</ele>
        <time>2016-10-21T13:03:26Z</time>
      </trkpt>
      <trkpt lat="43.49096" lon="0.76161">
        <ele>180.69</ele>
        <time>2016-10-21T13:03:46Z</time>
      </trkpt>
      <trkpt lat="43.49077" lon="0.76156">
        <ele>179.93</ele>
        <time>2016-10-21T13:04:03Z</time>
      </trkpt>
      <trkpt lat="43.49053" lon="0.76146">
        <ele>179.63</ele>
        <time>2016-10-21T13:04:27Z</time>
      </trkpt>
      <trkpt lat="43.49031" lon="0.76135">
        <ele>175.82</ele>
        <time>2016-10-21T13:04:51Z</time>
      </trkpt>
      <trkpt lat="43.49031" lon="0.76135">
        <ele>179.6</ele>
        <time>2016-10-21T13:04:52Z</time>
      </trkpt>
      <trkpt lat="43.4903" lon="0.76135">
        <ele>179.71</ele>
        <time>2016-10-21T13:05:15Z</time>
      </trkpt>
      <trkpt lat="43.4903" lon="0.76135">
        <ele>179.89</ele>
        <time>2016-10-21T13:05:42Z</time>
      </trkpt>
      <trkpt lat="43.49029" lon="0.76135">
        <ele>178.9</ele>
        <time>2016-10-21T13:06:02Z</time>
      </trkpt>
      <trkpt lat="43.49025" lon="0.76132">
        <ele>179.77</ele>
        <time>2016-10-21T13:06:28Z</time>
      </trkpt>
      <trkpt lat="43.49005" lon="0.76121">
        <ele>179.13</ele>
        <time>2016-10-21T13:06:49Z</time>
      </trkpt>
      <trkpt lat="43.4899" lon="0.76108">
        <ele>179.32</ele>
        <time>2016-10-21T13:07:09Z</time>
      </trkpt>
      <trkpt lat="43.4899" lon="0.76109">
        <ele>179.75</ele>
        <time>2016-10-21T13:07:25Z</time>
      </trkpt>
      <trkpt lat="43.48987" lon="0.76106">
        <ele>179.07</ele>
        <time>2016-10-21T13:07:50Z</time>
      </trkpt>
      <trkpt lat="43.48974" lon="0.76089">
        <ele>179.79</ele>
        <time>2016-10-21T13:08:07Z</time>
      </trkpt>
      <trkpt lat="43.48958" lon="0.76069">
        <ele>180.03</ele>
        <time>2016-10-21T13:08:28Z</time>
      </trkpt>
      <trkpt lat="43.48946" lon="0.76059">
        <ele>180.54</ele>
        <time>2016-10-21T13:08:43Z</time>
      </trkpt>
      <trkpt lat="43.48945" lon="0.76058">
        <ele>180.47</ele>
        <time>2016-10-21T13:08:44Z</time>
      </trkpt>
      <trkpt lat="43.48944" lon="0.76057">
        <ele>180.43</ele>
        <time>2016-10-21T13:08:46Z</time>
      </trkpt>
      <trkpt lat="43.48938" lon="0.76052">
        <ele>180.33</ele>
        <time>2016-10-21T13:08:52Z</time>
      </trkpt>
      <trkpt lat="43.48914" lon="0.76029">
        <ele>180.82</ele>
        <time>2016-10-21T13:09:17Z</time>
      </trkpt>
      <trkpt lat="43.48893" lon="0.76011">
        <ele>180.69</ele>
        <time>2016-10-21T13:09:40Z</time>
      </trkpt>
      <trkpt lat="43.4888" lon="0.75988">
        <ele>180.9</ele>
        <time>2016-10-21T13:10:00Z</time>
      </trkpt>
      <trkpt lat="43.48872" lon="0.75956">
        <ele>181.43</ele>
        <time>2016-10-21T13:10:21Z</time>
      </trkpt>
      <trkpt lat="43.48854" lon="0.75924">
        <ele>181.26</ele>
        <time>2016-10-21T13:10:43Z</time>
      </trkpt>
      <trkpt lat="43.48836" lon="0.759">
        <ele>180.85</ele>
        <time>2016-10-21T13:11:04Z</time>
      </trkpt>
      <trkpt lat="43.48819" lon="0.7588">
        <ele>181.33</ele>
        <time>2016-10-21T13:11:24Z</time>
      </trkpt>
      <trkpt lat="43.4881" lon="0.75871">
        <ele>182.89</ele>
        <time>2016-10-21T13:11:42Z</time>
      </trkpt>
      <trkpt lat="43.48809" lon="0.75869">
        <ele>182.32</ele>
        <time>2016-10-21T13:11:45Z</time>
      </trkpt>
      <trkpt lat="43.48807" lon="0.75856">
        <ele>181.45</ele>
        <time>2016-10-21T13:11:54Z</time>
      </trkpt>
      <trkpt lat="43.48807" lon="0.75852">
        <ele>180.83</ele>
        <time>2016-10-21T13:11:57Z</time>
      </trkpt>
      <trkpt lat="43.48803" lon="0.7581">
        <ele>180.26</ele>
        <time>2016-10-21T13:12:23Z</time>
      </trkpt>
      <trkpt lat="43.488" lon="0.75776">
        <ele>179.04</ele>
        <time>2016-10-21T13:12:44Z</time>
      </trkpt>
      <trkpt lat="43.48796" lon="0.75772">
        <ele>179.12</ele>
        <time>2016-10-21T13:12:51Z</time>
      </trkpt>
      <trkpt lat="43.48794" lon="0.7577">
        <ele>178.56</ele>
        <time>2016-10-21T13:12:54Z</time>
      </trkpt>
      <trkpt lat="43.48778" lon="0.75758">
        <ele>178.1</ele>
        <time>2016-10-21T13:13:09Z</time>
      </trkpt>
      <trkpt lat="43.48755" lon="0.75741">
        <ele>178.61</ele>
        <time>2016-10-21T13:13:30Z</time>
      </trkpt>
      <trkpt lat="43.48738" lon="0.75724">
        <ele>178.67</ele>
        <time>2016-10-21T13:13:47Z</time>
      </trkpt>
      <trkpt lat="43.4873" lon="0.75719">
        <ele>178.7</ele>
        <time>2016-10-21T13:13:54Z</time>
      </trkpt>
      <trkpt lat="43.48726" lon="0.75713">
        <ele>178.46</ele>
        <time>2016-10-21T13:14:04Z</time>
      </trkpt>
      <trkpt lat="43.48724" lon="0.75711">
        <ele>178.56</ele>
        <time>2016-10-21T13:14:07Z</time>
      </trkpt>
      <trkpt lat="43.487" lon="0.75694">
        <ele>178.03</ele>
        <time>2016-10-21T13:14:29Z</time>
      </trkpt>
      <trkpt lat="43.48672" lon="0.75677">
        <ele>179.75</ele>
        <time>2016-10-21T13:14:53Z</time>
      </trkpt>
      <trkpt lat="43.4865" lon="0.75663">
        <ele>182.25</ele>
        <time>2016-10-21T13:15:14Z</time>
      </trkpt>
      <trkpt lat="43.4862" lon="0.75641">
        <ele>182.95</ele>
        <time>2016-10-21T13:15:41Z</time>
      </trkpt>
      <trkpt lat="43.48596" lon="0.75624">
        <ele>184.42</ele>
        <time>2016-10-21T13:16:04Z</time>
      </trkpt>
      <trkpt lat="43.48577" lon="0.75607">
        <ele>187.55</ele>
        <time>2016-10-21T13:16:24Z</time>
      </trkpt>
      <trkpt lat="43.48565" lon="0.75594">
        <ele>189.07</ele>
        <time>2016-10-21T13:16:38Z</time>
      </trkpt>
      <trkpt lat="43.48564" lon="0.7559">
        <ele>189.06</ele>
        <time>2016-10-21T13:16:41Z</time>
      </trkpt>
      <trkpt lat="43.48548" lon="0.75573">
        <ele>189.74</ele>
        <time>2016-10-21T13:16:58Z</time>
      </trkpt>
      <trkpt lat="43.4853" lon="0.75562">
        <ele>192.52</ele>
        <time>2016-10-21T13:17:17Z</time>
      </trkpt>
      <trkpt lat="43.48519" lon="0.75559">
        <ele>192.93</ele>
        <time>2016-10-21T13:17:30Z</time>
      </trkpt>
      <trkpt lat="43.48512" lon="0.75556">
        <ele>193.18</ele>
        <time>2016-10-21T13:17:49Z</time>
      </trkpt>
      <trkpt lat="43.48509" lon="0.75554">
        <ele>192.17</ele>
        <time>2016-10-21T13:18:13Z</time>
      </trkpt>
      <trkpt lat="43.48505" lon="0.75553">
        <ele>191.88</ele>
        <time>2016-10-21T13:18:38Z</time>
      </trkpt>
      <trkpt lat="43.48489" lon="0.75546">
        <ele>190.88</ele>
        <time>2016-10-21T13:18:59Z</time>
      </trkpt>
      <trkpt lat="43.48469" lon="0.75533">
        <ele>188.72</ele>
        <time>2016-10-21T13:19:22Z</time>
      </trkpt>
      <trkpt lat="43.48453" lon="0.75526">
        <ele>186.57</ele>
        <time>2016-10-21T13:19:40Z</time>
      </trkpt>
      <trkpt lat="43.48443" lon="0.75524">
        <ele>185.56</ele>
        <time>2016-10-21T13:19:52Z</time>
      </trkpt>
      <trkpt lat="43.48429" lon="0.75527">
        <ele>184.76</ele>
        <time>2016-10-21T13:20:06Z</time>
      </trkpt>
      <trkpt lat="43.48407" lon="0.75534">
        <ele>183.11</ele>
        <time>2016-10-21T13:20:24Z</time>
      </trkpt>
      <trkpt lat="43.48387" lon="0.75536">
        <ele>182.33</ele>
        <time>2016-10-21T13:20:42Z</time>
      </trkpt>
      <trkpt lat="43.48366" lon="0.75535">
        <ele>182.25</ele>
        <time>2016-10-21T13:21:01Z</time>
      </trkpt>
      <trkpt lat="43.4835" lon="0.75533">
        <ele>182.15</ele>
        <time>2016-10-21T13:21:19Z</time>
      </trkpt>
      <trkpt lat="43.48348" lon="0.75534">
        <ele>182.21</ele>
        <time>2016-10-21T13:21:43Z</time>
      </trkpt>
      <trkpt lat="43.48348" lon="0.75532">
        <ele>182.34</ele>
        <time>2016-10-21T13:22:00Z</time>
      </trkpt>
      <trkpt lat="43.48345" lon="0.75531">
        <ele>182.3</ele>
        <time>2016-10-21T13:22:02Z</time>
      </trkpt>
      <trkpt lat="43.48338" lon="0.75529">
        <ele>182.15</ele>
        <time>2016-10-21T13:22:08Z</time>
      </trkpt>
      <trkpt lat="43.48317" lon="0.75519">
        <ele>182.11</ele>
        <time>2016-10-21T13:22:26Z</time>
      </trkpt>
      <trkpt lat="43.48291" lon="0.75503">
        <ele>182.33</ele>
        <time>2016-10-21T13:22:46Z</time>
      </trkpt>
      <trkpt lat="43.48273" lon="0.75495">
        <ele>182.6</ele>
        <time>2016-10-21T13:23:03Z</time>
      </trkpt>
      <trkpt lat="43.48257" lon="0.75491">
        <ele>184.86</ele>
        <time>2016-10-21T13:23:20Z</time>
      </trkpt>
      <trkpt lat="43.48236" lon="0.75485">
        <ele>185.6</ele>
        <time>2016-10-21T13:23:40Z</time>
      </trkpt>
      <trkpt lat="43.48215" lon="0.75479">
        <ele>185.46</ele>
        <time>2016-10-21T13:23:58Z</time>
      </trkpt>
      <trkpt lat="43.48188" lon="0.75475">
        <ele>186.43</ele>
        <time>2016-10-21T13:24:17Z</time>
      </trkpt>
      <trkpt lat="43.48158" lon="0.75466">
        <ele>187.57</ele>
        <time>2016-10-21T13:24:41Z</time>
      </trkpt>
      <trkpt lat="43.48132" lon="0.75459">
        <ele>186.16</ele>
        <time>2016-10-21T13:25:01Z</time>
      </trkpt>
      <trkpt lat="43.48104" lon="0.75456">
        <ele>186.19</ele>
        <time>2016-10-21T13:25:23Z</time>
      </trkpt>
      <trkpt lat="43.48071" lon="0.7545">
        <ele>187.11</ele>
        <time>2016-10-21T13:25:50Z</time>
      </trkpt>
      <trkpt lat="43.48039" lon="0.75447">
        <ele>187.23</ele>
        <time>2016-10-21T13:26:16Z</time>
      </trkpt>
      <trkpt lat="43.48009" lon="0.75445">
        <ele>188.24</ele>
        <time>2016-10-21T13:26:41Z</time>
      </trkpt>
      <trkpt lat="43.47977" lon="0.75449">
        <ele>188.42</ele>
        <time>2016-10-21T13:27:06Z</time>
      </trkpt>
      <trkpt lat="43.47954" lon="0.7545">
        <ele>189.71</ele>
        <time>2016-10-21T13:27:26Z</time>
      </trkpt>
      <trkpt lat="43.47946" lon="0.75447">
        <ele>190.89</ele>
        <time>2016-10-21T13:27:36Z</time>
      </trkpt>
      <trkpt lat="43.47926" lon="0.75435">
        <ele>193.61</ele>
        <time>2016-10-21T13:27:58Z</time>
      </trkpt>
      <trkpt lat="43.47908" lon="0.75418">
        <ele>194.54</ele>
        <time>2016-10-21T13:28:18Z</time>
      </trkpt>
      <trkpt lat="43.47889" lon="0.75401">
        <ele>195.12</ele>
        <time>2016-10-21T13:28:39Z</time>
      </trkpt>
      <trkpt lat="43.47873" lon="0.75386">
        <ele>196.21</ele>
        <time>2016-10-21T13:28:59Z</time>
      </trkpt>
      <trkpt lat="43.47853" lon="0.7537">
        <ele>198.41</ele>
        <time>2016-10-21T13:29:19Z</time>
      </trkpt>
      <trkpt lat="43.47839" lon="0.7536">
        <ele>203.02</ele>
        <time>2016-10-21T13:29:38Z</time>
      </trkpt>
      <trkpt lat="43.47839" lon="0.75359">
        <ele>200.01</ele>
        <time>2016-10-21T13:29:40Z</time>
      </trkpt>
      <trkpt lat="43.47837" lon="0.75358">
        <ele>200.34</ele>
        <time>2016-10-21T13:29:55Z</time>
      </trkpt>
      <trkpt lat="43.47838" lon="0.75359">
        <ele>200.81</ele>
        <time>2016-10-21T13:30:28Z</time>
      </trkpt>
      <trkpt lat="43.47839" lon="0.7536">
        <ele>200.54</ele>
        <time>2016-10-21T13:30:48Z</time>
      </trkpt>
      <trkpt lat="43.4784" lon="0.75359">
        <ele>200.41</ele>
        <time>2016-10-21T13:31:23Z</time>
      </trkpt>
      <trkpt lat="43.4784" lon="0.75359">
        <ele>200.69</ele>
        <time>2016-10-21T13:31:52Z</time>
      </trkpt>
      <trkpt lat="43.4784" lon="0.75358">
        <ele>200.61</ele>
        <time>2016-10-21T13:32:15Z</time>
      </trkpt>
      <trkpt lat="43.4784" lon="0.75359">
        <ele>200.47</ele>
        <time>2016-10-21T13:32:45Z</time>
      </trkpt>
      <trkpt lat="43.4784" lon="0.7536">
        <ele>200.16</ele>
        <time>2016-10-21T13:33:04Z</time>
      </trkpt>
      <trkpt lat="43.4784" lon="0.7536">
        <ele>201.46</ele>
        <time>2016-10-21T13:33:20Z</time>
      </trkpt>
      <trkpt lat="43.47838" lon="0.75359">
        <ele>200.6</ele>
        <time>2016-10-21T13:33:39Z</time>
      </trkpt>
      <trkpt lat="43.47836" lon="0.75358">
        <ele>201.13</ele>
        <time>2016-10-21T13:33:41Z</time>
      </trkpt>
      <trkpt lat="43.47832" lon="0.75355">
        <ele>200.54</ele>
        <time>2016-10-21T13:33:45Z</time>
      </trkpt>
      <trkpt lat="43.47804" lon="0.75345">
        <ele>199.6</ele>
        <time>2016-10-21T13:34:10Z</time>
      </trkpt>
      <trkpt lat="43.47783" lon="0.75338">
        <ele>198.41</ele>
        <time>2016-10-21T13:34:30Z</time>
      </trkpt>
      <trkpt lat="43.47768" lon="0.75332">
        <ele>198.42</ele>
        <time>2016-10-21T13:34:52Z</time>
      </trkpt>
      <trkpt lat="43.47763" lon="0.75331">
        <ele>196.03</ele>
        <time>2016-10-21T13:34:58Z</time>
      </trkpt>
      <trkpt lat="43.47752" lon="0.75325">
        <ele>196.05</ele>
        <time>2016-10-21T13:35:16Z</time>
      </trkpt>
      <trkpt lat="43.47738" lon="0.75321">
        <ele>196.07</ele>
        <time>2016-10-21T13:35:38Z</time>
      </trkpt>
      <trkpt lat="43.47724" lon="0.7532">
        <ele>196.11</ele>
        <time>2016-10-21T13:35:58Z</time>
      </trkpt>
      <trkpt lat="43.47705" lon="0.75318">
        <ele>196.41</ele>
        <time>2016-10-21T13:36:20Z</time>
      </trkpt>
      <trkpt lat="43.47685" lon="0.75321">
        <ele>195.16</ele>
        <time>2016-10-21T13:36:44Z</time>
      </trkpt>
      <trkpt lat="43.47666" lon="0.75321">
        <ele>195.19</ele>
        <time>2016-10-21T13:37:06Z</time>
      </trkpt>
      <trkpt lat="43.4765" lon="0.75322">
        <ele>193.01</ele>
        <time>2016-10-21T13:37:24Z</time>
      </trkpt>
      <trkpt lat="43.47633" lon="0.75322">
        <ele>191.86</ele>
        <time>2016-10-21T13:37:44Z</time>
      </trkpt>
      <trkpt lat="43.47611" lon="0.7532">
        <ele>191.92</ele>
        <time>2016-10-21T13:38:06Z</time>
      </trkpt>
      <trkpt lat="43.47586" lon="0.75316">
        <ele>192.27</ele>
        <time>2016-10-21T13:38:27Z</time>
      </trkpt>
      <trkpt lat="43.47559" lon="0.75313">
        <ele>189.05</ele>
        <time>2016-10-21T13:38:50Z</time>
      </trkpt>
      <trkpt lat="43.4753" lon="0.75305">
        <ele>186.82</ele>
        <time>2016-10-21T13:39:16Z</time>
      </trkpt>
      <trkpt lat="43.47515" lon="0.75288">
        <ele>188.83</ele>
        <time>2016-10-21T13:39:33Z</time>
      </trkpt>
      <trkpt lat="43.47508" lon="0.75262">
        <ele>190.8</ele>
        <time>2016-10-21T13:39:53Z</time>
      </trkpt>
      <trkpt lat="43.47498" lon="0.75239">
        <ele>190.22</ele>
        <time>2016-10-21T13:40:10Z</time>
      </trkpt>
      <trkpt lat="43.47496" lon="0.75233">
        <ele>189.98</ele>
        <time>2016-10-21T13:40:27Z</time>
      </trkpt>
      <trkpt lat="43.47496" lon="0.75232">
        <ele>189.27</ele>
        <time>2016-10-21T13:40:40Z</time>
      </trkpt>
      <trkpt lat="43.47494" lon="0.7523">
        <ele>189.75</ele>
        <time>2016-10-21T13:40:42Z</time>
      </trkpt>
      <trkpt lat="43.47485" lon="0.75216">
        <ele>188.08</ele>
        <time>2016-10-21T13:40:53Z</time>
      </trkpt>
      <trkpt lat="43.4747" lon="0.75193">
        <ele>185.38</ele>
        <time>2016-10-21T13:41:10Z</time>
      </trkpt>
      <trkpt lat="43.47453" lon="0.7517">
        <ele>185.12</ele>
        <time>2016-10-21T13:41:28Z</time>
      </trkpt>
      <trkpt lat="43.47426" lon="0.75137">
        <ele>184.84</ele>
        <time>2016-10-21T13:41:51Z</time>
      </trkpt>
      <trkpt lat="43.4739" lon="0.75104">
        <ele>185.4</ele>
        <time>2016-10-21T13:42:21Z</time>
      </trkpt>
      <trkpt lat="43.47355" lon="0.75077">
        <ele>186.21</ele>
        <time>2016-10-21T13:42:48Z</time>
      </trkpt>
      <trkpt lat="43.47337" lon="0.75062">
        <ele>186.31</ele>
        <time>2016-10-21T13:43:06Z</time>
      </trkpt>
      <trkpt lat="43.47323" lon="0.75049">
        <ele>186.82</ele>
        <time>2016-10-21T13:43:20Z</time>
      </trkpt>
      <trkpt lat="43.47319" lon="0.75046">
        <ele>187.04</ele>
        <time>2016-10-21T13:43:25Z</time>
      </trkpt>
      <trkpt lat="43.47313" lon="0.7504">
        <ele>186.52</ele>
        <time>2016-10-21T13:43:32Z</time>
      </trkpt>
      <trkpt lat="43.473" lon="0.75025">
        <ele>185.73</ele>
        <time>2016-10-21T13:43:49Z</time>
      </trkpt>
      <trkpt lat="43.47287" lon="0.75014">
        <ele>186.31</ele>
        <time>2016-10-21T13:44:07Z</time>
      </trkpt>
      <trkpt lat="43.47269" lon="0.75001">
        <ele>188.13</ele>
        <time>2016-10-21T13:44:30Z</time>
      </trkpt>
      <trkpt lat="43.47242" lon="0.74982">
        <ele>188.48</ele>
        <time>2016-10-21T13:44:55Z</time>
      </trkpt>
      <trkpt lat="43.47224" lon="0.74972">
        <ele>189.63</ele>
        <time>2016-10-21T13:45:11Z</time>
      </trkpt>
      <trkpt lat="43.47208" lon="0.74966">
        <ele>190.62</ele>
        <time>2016-10-21T13:45:26Z</time>
      </trkpt>
      <trkpt lat="43.4719" lon="0.74963">
        <ele>191.22</ele>
        <time>2016-10-21T13:45:51Z</time>
      </trkpt>
      <trkpt lat="43.47164" lon="0.74959">
        <ele>190.56</ele>
        <time>2016-10-21T13:46:12Z</time>
      </trkpt>
      <trkpt lat="43.47135" lon="0.74957">
        <ele>188.78</ele>
        <time>2016-10-21T13:46:33Z</time>
      </trkpt>
      <trkpt lat="43.4711" lon="0.74958">
        <ele>187.68</ele>
        <time>2016-10-21T13:46:51Z</time>
      </trkpt>
      <trkpt lat="43.47089" lon="0.74962">
        <ele>189.66</ele>
        <time>2016-10-21T13:47:10Z</time>
      </trkpt>
      <trkpt lat="43.47071" lon="0.74968">
        <ele>192.24</ele>
        <time>2016-10-21T13:47:32Z</time>
      </trkpt>
      <trkpt lat="43.47053" lon="0.74974">
        <ele>194.39</ele>
        <time>2016-10-21T13:47:55Z</time>
      </trkpt>
      <trkpt lat="43.47031" lon="0.74981">
        <ele>196.27</ele>
        <time>2016-10-21T13:48:19Z</time>
      </trkpt>
      <trkpt lat="43.47008" lon="0.74994">
        <ele>196.93</ele>
        <time>2016-10-21T13:48:42Z</time>
      </trkpt>
      <trkpt lat="43.46989" lon="0.75004">
        <ele>193.92</ele>
        <time>2016-10-21T13:49:01Z</time>
      </trkpt>
      <trkpt lat="43.46975" lon="0.7501">
        <ele>190.55</ele>
        <time>2016-10-21T13:49:16Z</time>
      </trkpt>
      <trkpt lat="43.4696" lon="0.75014">
        <ele>187.11</ele>
        <time>2016-10-21T13:49:31Z</time>
      </trkpt>
      <trkpt lat="43.46939" lon="0.75012">
        <ele>185.42</ele>
        <time>2016-10-21T13:49:49Z</time>
      </trkpt>
      <trkpt lat="43.46931" lon="0.7501">
        <ele>185.78</ele>
        <time>2016-10-21T13:50:06Z</time>
      </trkpt>
      <trkpt lat="43.4693" lon="0.75011">
        <ele>184.35</ele>
        <time>2016-10-21T13:50:33Z</time>
      </trkpt>
      <trkpt lat="43.46925" lon="0.75007">
        <ele>185.15</ele>
        <time>2016-10-21T13:51:08Z</time>
      </trkpt>
      <trkpt lat="43.46923" lon="0.75006">
        <ele>185.83</ele>
        <time>2016-10-21T13:51:26Z</time>
      </trkpt>
      <trkpt lat="43.46925" lon="0.75008">
        <ele>186.2</ele>
        <time>2016-10-21T13:52:02Z</time>
      </trkpt>
      <trkpt lat="43.46921" lon="0.75008">
        <ele>186.27</ele>
        <time>2016-10-21T13:52:35Z</time>
      </trkpt>
      <trkpt lat="43.46921" lon="0.75006">
        <ele>185.24</ele>
        <time>2016-10-21T13:52:59Z</time>
      </trkpt>
      <trkpt lat="43.46925" lon="0.75008">
        <ele>185.04</ele>
        <time>2016-10-21T13:53:26Z</time>
      </trkpt>
      <trkpt lat="43.46921" lon="0.75009">
        <ele>185.9</ele>
        <time>2016-10-21T13:53:48Z</time>
      </trkpt>
      <trkpt lat="43.46902" lon="0.75002">
        <ele>188.4</ele>
        <time>2016-10-21T13:54:12Z</time>
      </trkpt>
      <trkpt lat="43.46888" lon="0.74996">
        <ele>190.37</ele>
        <time>2016-10-21T13:54:27Z</time>
      </trkpt>
      <trkpt lat="43.46864" lon="0.74984">
        <ele>191.65</ele>
        <time>2016-10-21T13:54:50Z</time>
      </trkpt>
      <trkpt lat="43.4684" lon="0.74972">
        <ele>191.39</ele>
        <time>2016-10-21T13:55:11Z</time>
      </trkpt>
      <trkpt lat="43.46834" lon="0.74969">
        <ele>191.85</ele>
        <time>2016-10-21T13:55:19Z</time>
      </trkpt>
      <trkpt lat="43.46828" lon="0.74966">
        <ele>192.22</ele>
        <time>2016-10-21T13:55:23Z</time>
      </trkpt>
      <trkpt lat="43.46818" lon="0.74962">
        <ele>192.85</ele>
        <time>2016-10-21T13:55:30Z</time>
      </trkpt>
      <trkpt lat="43.46812" lon="0.74958">
        <ele>193.46</ele>
        <time>2016-10-21T13:55:36Z</time>
      </trkpt>
      <trkpt lat="43.46806" lon="0.74952">
        <ele>193.48</ele>
        <time>2016-10-21T13:55:41Z</time>
      </trkpt>
      <trkpt lat="43.46802" lon="0.7495">
        <ele>193.26</ele>
        <time>2016-10-21T13:55:44Z</time>
      </trkpt>
      <trkpt lat="43.46792" lon="0.74943">
        <ele>192.56</ele>
        <time>2016-10-21T13:55:55Z</time>
      </trkpt>
      <trkpt lat="43.46786" lon="0.74941">
        <ele>192.53</ele>
        <time>2016-10-21T13:56:00Z</time>
      </trkpt>
      <trkpt lat="43.46771" lon="0.74933">
        <ele>192.76</ele>
        <time>2016-10-21T13:56:10Z</time>
      </trkpt>
      <trkpt lat="43.46757" lon="0.74923">
        <ele>193.14</ele>
        <time>2016-10-21T13:56:21Z</time>
      </trkpt>
      <trkpt lat="43.46747" lon="0.74919">
        <ele>193.65</ele>
        <time>2016-10-21T13:56:29Z</time>
      </trkpt>
      <trkpt lat="43.46735" lon="0.74914">
        <ele>194.22</ele>
        <time>2016-10-21T13:56:40Z</time>
      </trkpt>
      <trkpt lat="43.46726" lon="0.7491">
        <ele>194.72</ele>
        <time>2016-10-21T13:56:47Z</time>
      </trkpt>
      <trkpt lat="43.46709" lon="0.74902">
        <ele>195.85</ele>
        <time>2016-10-21T13:57:00Z</time>
      </trkpt>
      <trkpt lat="43.46694" lon="0.74897">
        <ele>197.17</ele>
        <time>2016-10-21T13:57:12Z</time>
      </trkpt>
      <trkpt lat="43.46673" lon="0.74904">
        <ele>195.39</ele>
        <time>2016-10-21T13:57:26Z</time>
      </trkpt>
      <trkpt lat="43.46666" lon="0.74908">
        <ele>194.59</ele>
        <time>2016-10-21T13:57:33Z</time>
      </trkpt>
      <trkpt lat="43.46655" lon="0.74917">
        <ele>194.63</ele>
        <time>2016-10-21T13:57:46Z</time>
      </trkpt>
      <trkpt lat="43.46648" lon="0.74934">
        <ele>195.35</ele>
        <time>2016-10-21T13:58:00Z</time>
      </trkpt>
      <trkpt lat="43.46645" lon="0.74949">
        <ele>195.2</ele>
        <time>2016-10-21T13:58:10Z</time>
      </trkpt>
      <trkpt lat="43.4664" lon="0.74969">
        <ele>196.33</ele>
        <time>2016-10-21T13:58:24Z</time>
      </trkpt>
      <trkpt lat="43.46639" lon="0.74973">
        <ele>196.27</ele>
        <time>2016-10-21T13:58:27Z</time>
      </trkpt>
      <trkpt lat="43.46634" lon="0.74979">
        <ele>196.05</ele>
        <time>2016-10-21T13:58:36Z</time>
      </trkpt>
      <trkpt lat="43.46632" lon="0.74979">
        <ele>196.18</ele>
        <time>2016-10-21T13:58:38Z</time>
      </trkpt>
      <trkpt lat="43.46622" lon="0.74973">
        <ele>195.42</ele>
        <time>2016-10-21T13:58:52Z</time>
      </trkpt>
      <trkpt lat="43.46617" lon="0.74965">
        <ele>195.33</ele>
        <time>2016-10-21T13:59:09Z</time>
      </trkpt>
      <trkpt lat="43.46615" lon="0.74964">
        <ele>195.43</ele>
        <time>2016-10-21T13:59:11Z</time>
      </trkpt>
      <trkpt lat="43.46606" lon="0.74952">
        <ele>194.62</ele>
        <time>2016-10-21T13:59:23Z</time>
      </trkpt>
      <trkpt lat="43.46604" lon="0.7495">
        <ele>194.88</ele>
        <time>2016-10-21T13:59:25Z</time>
      </trkpt>
      <trkpt lat="43.46594" lon="0.74936">
        <ele>194.46</ele>
        <time>2016-10-21T13:59:39Z</time>
      </trkpt>
      <trkpt lat="43.46584" lon="0.74926">
        <ele>194.9</ele>
        <time>2016-10-21T13:59:52Z</time>
      </trkpt>
      <trkpt lat="43.46579" lon="0.7492">
        <ele>195.19</ele>
        <time>2016-10-21T13:59:57Z</time>
      </trkpt>
      <trkpt lat="43.46571" lon="0.74915">
        <ele>195.31</ele>
        <time>2016-10-21T14:00:08Z</time>
      </trkpt>
      <trkpt lat="43.46567" lon="0.74909">
        <ele>194.52</ele>
        <time>2016-10-21T14:00:14Z</time>
      </trkpt>
      <trkpt lat="43.46564" lon="0.74905">
        <ele>194.24</ele>
        <time>2016-10-21T14:00:18Z</time>
      </trkpt>
      <trkpt lat="43.46559" lon="0.749">
        <ele>194.06</ele>
        <time>2016-10-21T14:00:23Z</time>
      </trkpt>
      <trkpt lat="43.46557" lon="0.74897">
        <ele>194.07</ele>
        <time>2016-10-21T14:00:26Z</time>
      </trkpt>
      <trkpt lat="43.4654" lon="0.74879">
        <ele>192.26</ele>
        <time>2016-10-21T14:00:45Z</time>
      </trkpt>
      <trkpt lat="43.46529" lon="0.74865">
        <ele>191.66</ele>
        <time>2016-10-21T14:00:58Z</time>
      </trkpt>
      <trkpt lat="43.46528" lon="0.74863">
        <ele>191.81</ele>
        <time>2016-10-21T14:01:00Z</time>
      </trkpt>
      <trkpt lat="43.46523" lon="0.74859">
        <ele>191.01</ele>
        <time>2016-10-21T14:01:06Z</time>
      </trkpt>
      <trkpt lat="43.46521" lon="0.74859">
        <ele>190.91</ele>
        <time>2016-10-21T14:01:21Z</time>
      </trkpt>
      <trkpt lat="43.46518" lon="0.74857">
        <ele>191.07</ele>
        <time>2016-10-21T14:01:38Z</time>
      </trkpt>
      <trkpt lat="43.46518" lon="0.74857">
        <ele>190.97</ele>
        <time>2016-10-21T14:02:10Z</time>
      </trkpt>
      <trkpt lat="43.46515" lon="0.74856">
        <ele>191.35</ele>
        <time>2016-10-21T14:02:17Z</time>
      </trkpt>
      <trkpt lat="43.46499" lon="0.7484">
        <ele>190.16</ele>
        <time>2016-10-21T14:02:36Z</time>
      </trkpt>
      <trkpt lat="43.46479" lon="0.7482">
        <ele>189.57</ele>
        <time>2016-10-21T14:02:59Z</time>
      </trkpt>
      <trkpt lat="43.46466" lon="0.74807">
        <ele>188.46</ele>
        <time>2016-10-21T14:03:13Z</time>
      </trkpt>
      <trkpt lat="43.46464" lon="0.74805">
        <ele>189.65</ele>
        <time>2016-10-21T14:03:15Z</time>
      </trkpt>
      <trkpt lat="43.46462" lon="0.74803">
        <ele>188.37</ele>
        <time>2016-10-21T14:03:17Z</time>
      </trkpt>
      <trkpt lat="43.4645" lon="0.74792">
        <ele>189.82</ele>
        <time>2016-10-21T14:03:29Z</time>
      </trkpt>
      <trkpt lat="43.4644" lon="0.74782">
        <ele>187.86</ele>
        <time>2016-10-21T14:03:38Z</time>
      </trkpt>
      <trkpt lat="43.46421" lon="0.74761">
        <ele>188.13</ele>
        <time>2016-10-21T14:03:58Z</time>
      </trkpt>
      <trkpt lat="43.46402" lon="0.74743">
        <ele>187.24</ele>
        <time>2016-10-21T14:04:17Z</time>
      </trkpt>
      <trkpt lat="43.46386" lon="0.74727">
        <ele>187.2</ele>
        <time>2016-10-21T14:04:35Z</time>
      </trkpt>
      <trkpt lat="43.46373" lon="0.747">
        <ele>187.95</ele>
        <time>2016-10-21T14:04:55Z</time>
      </trkpt>
      <trkpt lat="43.46363" lon="0.74682">
        <ele>186.64</ele>
        <time>2016-10-21T14:05:07Z</time>
      </trkpt>
      <trkpt lat="43.46352" lon="0.74663">
        <ele>186.5</ele>
        <time>2016-10-21T14:05:22Z</time>
      </trkpt>
      <trkpt lat="43.46342" lon="0.74646">
        <ele>188.23</ele>
        <time>2016-10-21T14:05:42Z</time>
      </trkpt>
      <trkpt lat="43.4633" lon="0.74624">
        <ele>189.01</ele>
        <time>2016-10-21T14:05:58Z</time>
      </trkpt>
      <trkpt lat="43.46318" lon="0.74601">
        <ele>190.81</ele>
        <time>2016-10-21T14:06:15Z</time>
      </trkpt>
      <trkpt lat="43.46312" lon="0.74589">
        <ele>189.48</ele>
        <time>2016-10-21T14:06:24Z</time>
      </trkpt>
      <trkpt lat="43.463" lon="0.74568">
        <ele>191.21</ele>
        <time>2016-10-21T14:06:39Z</time>
      </trkpt>
      <trkpt lat="43.46295" lon="0.7456">
        <ele>192.65</ele>
        <time>2016-10-21T14:06:44Z</time>
      </trkpt>
      <trkpt lat="43.46288" lon="0.74548">
        <ele>193.26</ele>
        <time>2016-10-21T14:06:52Z</time>
      </trkpt>
      <trkpt lat="43.46286" lon="0.74544">
        <ele>192.56</ele>
        <time>2016-10-21T14:06:54Z</time>
      </trkpt>
      <trkpt lat="43.46277" lon="0.7453">
        <ele>192.51</ele>
        <time>2016-10-21T14:07:05Z</time>
      </trkpt>
      <trkpt lat="43.46276" lon="0.74528">
        <ele>194.47</ele>
        <time>2016-10-21T14:07:07Z</time>
      </trkpt>
      <trkpt lat="43.46266" lon="0.7451">
        <ele>194.82</ele>
        <time>2016-10-21T14:07:24Z</time>
      </trkpt>
      <trkpt lat="43.46266" lon="0.74505">
        <ele>198.06</ele>
        <time>2016-10-21T14:07:28Z</time>
      </trkpt>
      <trkpt lat="43.46258" lon="0.7449">
        <ele>198.94</ele>
        <time>2016-10-21T14:07:44Z</time>
      </trkpt>
      <trkpt lat="43.46251" lon="0.74477">
        <ele>202.01</ele>
        <time>2016-10-21T14:07:56Z</time>
      </trkpt>
      <trkpt lat="43.46242" lon="0.74457">
        <ele>203.04</ele>
        <time>2016-10-21T14:08:13Z</time>
      </trkpt>
      <trkpt lat="43.46241" lon="0.74454">
        <ele>203.44</ele>
        <time>2016-10-21T14:08:17Z</time>
      </trkpt>
      <trkpt lat="43.4623" lon="0.74434">
        <ele>204.53</ele>
        <time>2016-10-21T14:08:38Z</time>
      </trkpt>
      <trkpt lat="43.46223" lon="0.74422">
        <ele>204.74</ele>
        <time>2016-10-21T14:08:48Z</time>
      </trkpt>
      <trkpt lat="43.46217" lon="0.74405">
        <ele>204.16</ele>
        <time>2016-10-21T14:09:00Z</time>
      </trkpt>
      <trkpt lat="43.46207" lon="0.74388">
        <ele>204.12</ele>
        <time>2016-10-21T14:09:13Z</time>
      </trkpt>
      <trkpt lat="43.4619" lon="0.74379">
        <ele>204.92</ele>
        <time>2016-10-21T14:09:28Z</time>
      </trkpt>
      <trkpt lat="43.46184" lon="0.7437">
        <ele>204.93</ele>
        <time>2016-10-21T14:09:46Z</time>
      </trkpt>
      <trkpt lat="43.46186" lon="0.74367">
        <ele>204.55</ele>
        <time>2016-10-21T14:10:13Z</time>
      </trkpt>
      <trkpt lat="43.46177" lon="0.74365">
        <ele>204.05</ele>
        <time>2016-10-21T14:10:40Z</time>
      </trkpt>
      <trkpt lat="43.46176" lon="0.74364">
        <ele>203.78</ele>
        <time>2016-10-21T14:10:41Z</time>
      </trkpt>
      <trkpt lat="43.46169" lon="0.74361">
        <ele>203.38</ele>
        <time>2016-10-21T14:10:47Z</time>
      </trkpt>
      <trkpt lat="43.4615" lon="0.74345">
        <ele>200.36</ele>
        <time>2016-10-21T14:11:05Z</time>
      </trkpt>
      <trkpt lat="43.46148" lon="0.74344">
        <ele>199.92</ele>
        <time>2016-10-21T14:11:09Z</time>
      </trkpt>
      <trkpt lat="43.46143" lon="0.74341">
        <ele>199.02</ele>
        <time>2016-10-21T14:11:13Z</time>
      </trkpt>
      <trkpt lat="43.46138" lon="0.74339">
        <ele>198.7</ele>
        <time>2016-10-21T14:11:16Z</time>
      </trkpt>
      <trkpt lat="43.46118" lon="0.74336">
        <ele>197.55</ele>
        <time>2016-10-21T14:11:32Z</time>
      </trkpt>
      <trkpt lat="43.46115" lon="0.74337">
        <ele>197.55</ele>
        <time>2016-10-21T14:11:35Z</time>
      </trkpt>
      <trkpt lat="43.46099" lon="0.74339">
        <ele>196.83</ele>
        <time>2016-10-21T14:11:48Z</time>
      </trkpt>
      <trkpt lat="43.46081" lon="0.7434">
        <ele>196.05</ele>
        <time>2016-10-21T14:12:03Z</time>
      </trkpt>
      <trkpt lat="43.46076" lon="0.74343">
        <ele>195.82</ele>
        <time>2016-10-21T14:12:07Z</time>
      </trkpt>
      <trkpt lat="43.46071" lon="0.74342">
        <ele>195.88</ele>
        <time>2016-10-21T14:12:11Z</time>
      </trkpt>
      <trkpt lat="43.46051" lon="0.74344">
        <ele>194.77</ele>
        <time>2016-10-21T14:12:26Z</time>
      </trkpt>
      <trkpt lat="43.46031" lon="0.74345">
        <ele>194.82</ele>
        <time>2016-10-21T14:12:40Z</time>
      </trkpt>
      <trkpt lat="43.46014" lon="0.74346">
        <ele>193.86</ele>
        <time>2016-10-21T14:12:53Z</time>
      </trkpt>
      <trkpt lat="43.46009" lon="0.74346">
        <ele>192.92</ele>
        <time>2016-10-21T14:12:56Z</time>
      </trkpt>
      <trkpt lat="43.45987" lon="0.74349">
        <ele>193.5</ele>
        <time>2016-10-21T14:13:12Z</time>
      </trkpt>
      <trkpt lat="43.45969" lon="0.74351">
        <ele>193.53</ele>
        <time>2016-10-21T14:13:26Z</time>
      </trkpt>
      <trkpt lat="43.45968" lon="0.74352">
        <ele>193.2</ele>
        <time>2016-10-21T14:13:27Z</time>
      </trkpt>
      <trkpt lat="43.45963" lon="0.74353">
        <ele>193.51</ele>
        <time>2016-10-21T14:13:31Z</time>
      </trkpt>
      <trkpt lat="43.45943" lon="0.74353">
        <ele>193.43</ele>
        <time>2016-10-21T14:13:46Z</time>
      </trkpt>
      <trkpt lat="43.45941" lon="0.74353">
        <ele>192.58</ele>
        <time>2016-10-21T14:13:48Z</time>
      </trkpt>
      <trkpt lat="43.45931" lon="0.74354">
        <ele>193.32</ele>
        <time>2016-10-21T14:14:01Z</time>
      </trkpt>
      <trkpt lat="43.45915" lon="0.74357">
        <ele>193.59</ele>
        <time>2016-10-21T14:14:18Z</time>
      </trkpt>
      <trkpt lat="43.45886" lon="0.74351">
        <ele>193.98</ele>
        <time>2016-10-21T14:14:37Z</time>
      </trkpt>
      <trkpt lat="43.45874" lon="0.74352">
        <ele>195.58</ele>
        <time>2016-10-21T14:14:48Z</time>
      </trkpt>
      <trkpt lat="43.45866" lon="0.7435">
        <ele>195.99</ele>
        <time>2016-10-21T14:15:06Z</time>
      </trkpt>
      <trkpt lat="43.45866" lon="0.7435">
        <ele>195.88</ele>
        <time>2016-10-21T14:15:29Z</time>
      </trkpt>
      <trkpt lat="43.45864" lon="0.74351">
        <ele>195.77</ele>
        <time>2016-10-21T14:15:59Z</time>
      </trkpt>
      <trkpt lat="43.4586" lon="0.74349">
        <ele>196.07</ele>
        <time>2016-10-21T14:16:17Z</time>
      </trkpt>
      <trkpt lat="43.4585" lon="0.74337">
        <ele>194.97</ele>
        <time>2016-10-21T14:16:31Z</time>
      </trkpt>
      <trkpt lat="43.45837" lon="0.74321">
        <ele>193.9</ele>
        <time>2016-10-21T14:16:48Z</time>
      </trkpt>
      <trkpt lat="43.45827" lon="0.74309">
        <ele>193.19</ele>
        <time>2016-10-21T14:17:02Z</time>
      </trkpt>
      <trkpt lat="43.45814" lon="0.74294">
        <ele>192.73</ele>
        <time>2016-10-21T14:17:15Z</time>
      </trkpt>
      <trkpt lat="43.45798" lon="0.74276">
        <ele>192.33</ele>
        <time>2016-10-21T14:17:31Z</time>
      </trkpt>
      <trkpt lat="43.45789" lon="0.74266">
        <ele>191.99</ele>
        <time>2016-10-21T14:17:41Z</time>
      </trkpt>
      <trkpt lat="43.45777" lon="0.7425">
        <ele>191.83</ele>
        <time>2016-10-21T14:17:54Z</time>
      </trkpt>
      <trkpt lat="43.45766" lon="0.74234">
        <ele>191.73</ele>
        <time>2016-10-21T14:18:08Z</time>
      </trkpt>
      <trkpt lat="43.45757" lon="0.74212">
        <ele>191.41</ele>
        <time>2016-10-21T14:18:22Z</time>
      </trkpt>
      <trkpt lat="43.45741" lon="0.7419">
        <ele>190.77</ele>
        <time>2016-10-21T14:18:39Z</time>
      </trkpt>
      <trkpt lat="43.45728" lon="0.74176">
        <ele>190.37</ele>
        <time>2016-10-21T14:18:51Z</time>
      </trkpt>
      <trkpt lat="43.45713" lon="0.74161">
        <ele>191.32</ele>
        <time>2016-10-21T14:19:05Z</time>
      </trkpt>
      <trkpt lat="43.45705" lon="0.74153">
        <ele>190.8</ele>
        <time>2016-10-21T14:19:13Z</time>
      </trkpt>
      <trkpt lat="43.45688" lon="0.74145">
        <ele>190.34</ele>
        <time>2016-10-21T14:19:28Z</time>
      </trkpt>
      <trkpt lat="43.4568" lon="0.74141">
        <ele>189.99</ele>
        <time>2016-10-21T14:19:35Z</time>
      </trkpt>
      <trkpt lat="43.45676" lon="0.74141">
        <ele>190.11</ele>
        <time>2016-10-21T14:19:39Z</time>
      </trkpt>
      <trkpt lat="43.45671" lon="0.74139">
        <ele>190</ele>
        <time>2016-10-21T14:19:42Z</time>
      </trkpt>
      <trkpt lat="43.45653" lon="0.74133">
        <ele>189.73</ele>
        <time>2016-10-21T14:19:57Z</time>
      </trkpt>
      <trkpt lat="43.45649" lon="0.7413">
        <ele>189.52</ele>
        <time>2016-10-21T14:20:01Z</time>
      </trkpt>
      <trkpt lat="43.4563" lon="0.74118">
        <ele>189.61</ele>
        <time>2016-10-21T14:20:17Z</time>
      </trkpt>
      <trkpt lat="43.45609" lon="0.74098">
        <ele>189.59</ele>
        <time>2016-10-21T14:20:34Z</time>
      </trkpt>
      <trkpt lat="43.45599" lon="0.74084">
        <ele>189.95</ele>
        <time>2016-10-21T14:20:51Z</time>
      </trkpt>
      <trkpt lat="43.45597" lon="0.74082">
        <ele>189.75</ele>
        <time>2016-10-21T14:21:01Z</time>
      </trkpt>
      <trkpt lat="43.45595" lon="0.74078">
        <ele>189.37</ele>
        <time>2016-10-21T14:21:04Z</time>
      </trkpt>
      <trkpt lat="43.45588" lon="0.7404">
        <ele>189.71</ele>
        <time>2016-10-21T14:21:27Z</time>
      </trkpt>
      <trkpt lat="43.45582" lon="0.74">
        <ele>188.66</ele>
        <time>2016-10-21T14:21:50Z</time>
      </trkpt>
      <trkpt lat="43.45573" lon="0.73954">
        <ele>189.65</ele>
        <time>2016-10-21T14:22:18Z</time>
      </trkpt>
      <trkpt lat="43.45562" lon="0.73925">
        <ele>189.45</ele>
        <time>2016-10-21T14:22:38Z</time>
      </trkpt>
      <trkpt lat="43.4554" lon="0.73902">
        <ele>190.83</ele>
        <time>2016-10-21T14:22:59Z</time>
      </trkpt>
      <trkpt lat="43.45527" lon="0.73869">
        <ele>190.4</ele>
        <time>2016-10-21T14:23:21Z</time>
      </trkpt>
      <trkpt lat="43.45525" lon="0.73835">
        <ele>191.43</ele>
        <time>2016-10-21T14:23:42Z</time>
      </trkpt>
      <trkpt lat="43.45521" lon="0.73802">
        <ele>190.28</ele>
        <time>2016-10-21T14:24:01Z</time>
      </trkpt>
      <trkpt lat="43.45516" lon="0.73768">
        <ele>190.99</ele>
        <time>2016-10-21T14:24:19Z</time>
      </trkpt>
      <trkpt lat="43.45506" lon="0.73738">
        <ele>191.74</ele>
        <time>2016-10-21T14:24:38Z</time>
      </trkpt>
      <trkpt lat="43.45472" lon="0.73727">
        <ele>192.84</ele>
        <time>2016-10-21T14:25:04Z</time>
      </trkpt>
      <trkpt lat="43.45437" lon="0.73718">
        <ele>192.64</ele>
        <time>2016-10-21T14:25:30Z</time>
      </trkpt>
      <trkpt lat="43.45412" lon="0.73706">
        <ele>192.01</ele>
        <time>2016-10-21T14:25:51Z</time>
      </trkpt>
      <trkpt lat="43.45387" lon="0.73695">
        <ele>192.21</ele>
        <time>2016-10-21T14:26:11Z</time>
      </trkpt>
      <trkpt lat="43.45348" lon="0.73682">
        <ele>191.83</ele>
        <time>2016-10-21T14:26:39Z</time>
      </trkpt>
      <trkpt lat="43.45322" lon="0.73673">
        <ele>191.69</ele>
        <time>2016-10-21T14:26:59Z</time>
      </trkpt>
      <trkpt lat="43.45308" lon="0.73668">
        <ele>192.07</ele>
        <time>2016-10-21T14:27:13Z</time>
      </trkpt>
      <trkpt lat="43.45271" lon="0.73654">
        <ele>192.93</ele>
        <time>2016-10-21T14:27:43Z</time>
      </trkpt>
      <trkpt lat="43.45239" lon="0.73645">
        <ele>193.57</ele>
        <time>2016-10-21T14:28:08Z</time>
      </trkpt>
      <trkpt lat="43.45215" lon="0.73636">
        <ele>192.99</ele>
        <time>2016-10-21T14:28:28Z</time>
      </trkpt>
      <trkpt lat="43.45183" lon="0.73621">
        <ele>193.22</ele>
        <time>2016-10-21T14:28:54Z</time>
      </trkpt>
      <trkpt lat="43.45153" lon="0.73612">
        <ele>192.85</ele>
        <time>2016-10-21T14:29:18Z</time>
      </trkpt>
      <trkpt lat="43.45133" lon="0.73613">
        <ele>193.23</ele>
        <time>2016-10-21T14:29:34Z</time>
      </trkpt>
      <trkpt lat="43.45112" lon="0.73618">
        <ele>193.53</ele>
        <time>2016-10-21T14:29:54Z</time>
      </trkpt>
      <trkpt lat="43.4511" lon="0.7362">
        <ele>193.39</ele>
        <time>2016-10-21T14:29:56Z</time>
      </trkpt>
      <trkpt lat="43.45083" lon="0.73648">
        <ele>192.34</ele>
        <time>2016-10-21T14:30:21Z</time>
      </trkpt>
      <trkpt lat="43.45057" lon="0.73671">
        <ele>192.17</ele>
        <time>2016-10-21T14:30:44Z</time>
      </trkpt>
      <trkpt lat="43.45033" lon="0.73692">
        <ele>192.64</ele>
        <time>2016-10-21T14:31:07Z</time>
      </trkpt>
      <trkpt lat="43.45005" lon="0.73703">
        <ele>192.56</ele>
        <time>2016-10-21T14:31:31Z</time>
      </trkpt>
      <trkpt lat="43.44988" lon="0.73696">
        <ele>192.58</ele>
        <time>2016-10-21T14:31:50Z</time>
      </trkpt>
      <trkpt lat="43.44974" lon="0.73678">
        <ele>192.07</ele>
        <time>2016-10-21T14:32:09Z</time>
      </trkpt>
      <trkpt lat="43.44964" lon="0.73652">
        <ele>191.68</ele>
        <time>2016-10-21T14:32:28Z</time>
      </trkpt>
      <trkpt lat="43.44963" lon="0.73651">
        <ele>191.65</ele>
        <time>2016-10-21T14:32:29Z</time>
      </trkpt>
      <trkpt lat="43.4495" lon="0.73624">
        <ele>192.04</ele>
        <time>2016-10-21T14:32:47Z</time>
      </trkpt>
      <trkpt lat="43.44939" lon="0.73593">
        <ele>191.9</ele>
        <time>2016-10-21T14:33:05Z</time>
      </trkpt>
      <trkpt lat="43.44935" lon="0.73547">
        <ele>192.52</ele>
        <time>2016-10-21T14:33:29Z</time>
      </trkpt>
      <trkpt lat="43.44939" lon="0.73511">
        <ele>192.8</ele>
        <time>2016-10-21T14:33:47Z</time>
      </trkpt>
      <trkpt lat="43.44944" lon="0.73478">
        <ele>194.15</ele>
        <time>2016-10-21T14:34:07Z</time>
      </trkpt>
      <trkpt lat="43.44945" lon="0.73443">
        <ele>194.74</ele>
        <time>2016-10-21T14:34:28Z</time>
      </trkpt>
      <trkpt lat="43.44943" lon="0.73424">
        <ele>194.07</ele>
        <time>2016-10-21T14:34:41Z</time>
      </trkpt>
      <trkpt lat="43.44936" lon="0.73405">
        <ele>195.3</ele>
        <time>2016-10-21T14:34:57Z</time>
      </trkpt>
      <trkpt lat="43.44931" lon="0.7339">
        <ele>194.59</ele>
        <time>2016-10-21T14:35:11Z</time>
      </trkpt>
      <trkpt lat="43.4493" lon="0.73377">
        <ele>194.94</ele>
        <time>2016-10-21T14:35:29Z</time>
      </trkpt>
      <trkpt lat="43.4493" lon="0.73377">
        <ele>195.48</ele>
        <time>2016-10-21T14:35:52Z</time>
      </trkpt>
      <trkpt lat="43.44929" lon="0.73365">
        <ele>195</ele>
        <time>2016-10-21T14:36:12Z</time>
      </trkpt>
      <trkpt lat="43.4493" lon="0.73364">
        <ele>194.81</ele>
        <time>2016-10-21T14:36:36Z</time>
      </trkpt>
      <trkpt lat="43.44931" lon="0.73364">
        <ele>194.38</ele>
        <time>2016-10-21T14:37:07Z</time>
      </trkpt>
      <trkpt lat="43.44932" lon="0.73366">
        <ele>194.54</ele>
        <time>2016-10-21T14:37:37Z</time>
      </trkpt>
      <trkpt lat="43.44933" lon="0.73366">
        <ele>194.84</ele>
        <time>2016-10-21T14:38:14Z</time>
      </trkpt>
      <trkpt lat="43.44933" lon="0.73364">
        <ele>194.63</ele>
        <time>2016-10-21T14:38:49Z</time>
      </trkpt>
      <trkpt lat="43.44932" lon="0.73375">
        <ele>195.9</ele>
        <time>2016-10-21T14:39:13Z</time>
      </trkpt>
      <trkpt lat="43.44934" lon="0.73377">
        <ele>194.99</ele>
        <time>2016-10-21T14:39:34Z</time>
      </trkpt>
      <trkpt lat="43.44932" lon="0.73375">
        <ele>195.44</ele>
        <time>2016-10-21T14:40:01Z</time>
      </trkpt>
      <trkpt lat="43.44932" lon="0.73373">
        <ele>195.26</ele>
        <time>2016-10-21T14:40:21Z</time>
      </trkpt>
      <trkpt lat="43.44932" lon="0.73382">
        <ele>195.08</ele>
        <time>2016-10-21T14:40:36Z</time>
      </trkpt>
      <trkpt lat="43.44934" lon="0.73389">
        <ele>195.09</ele>
        <time>2016-10-21T14:40:58Z</time>
      </trkpt>
    </trkseg>
  </trk>
</gpx>